Darstellungsparameter: Aktuell verwendete Einstellungen:
Skalierung der Graphiken ... ?
xyx+y,   Skalierungsfaktor:      Skalierung: Modus: x, Faktor: 1
Darstellungszeitraum ... ?
Vom - - bis: - -   Zeitraum: 21.08.2004 - 20.11.2004
Min/Max/Avg-Anzeige ... ?
Zeige MMA aktuell
Zeige MMA Monat
Zeige MMA alles
Zeige --A aktuell
Zeige --A Monat
Zeige --A alles
Keine MMA-Anzeige
MMA:
Average (ber die Originaldaten)
MMA-Basis: 17.04.2019 - 19.05.2019
Quicknavigation für Darstellung... ?
Tage:      1T, 2T, 3T, 5T -1T -2T -3T -5T +1T +2T +3T +5T
Wochen: 1W, 2W, 3W -1W -2W -3W +1W +2W +3W
Monate: 1M, 3M, 6M -1M -3M -6M +1M +3M +6M
Jahre:    1J, 3J, 5J, 10J -1J -3J -5J -10J +1J +3J +5J +10J
Nutze für die Darstellung ... ?
Originaldaten oder Mittelwerte auf ...
Stundenbasis Tagesbasis Wochenbasis
Monatsbasis Jahresbasis      Datenbasis: Original-Daten
Darstellen als:
Statistik (Auto) Statistik J:M      Darstellung:
Zur Graphik,    zurück zur Übersicht aller Sensoren.
 
Tabellarische Datenbersicht: ?
 
Sensor: Nr:Datum:Temp:Abs-Feuchte:Windchill:Wind:
Aussen-T/F 1 21-08-2004 00:29:38 14.7 C 11.08 g/m*3 14.7 C 0 km/h
2 21-08-2004 00:59:38 14.2 C 10.87 g/m*3 14.2 C 0 km/h
3 21-08-2004 01:29:38 14.1 C 10.8 g/m*3 14.1 C 0 km/h
4 21-08-2004 01:59:38 14.1 C 10.44 g/m*3 14.1 C 0 km/h
5 21-08-2004 02:29:38 13.8 C 10.48 g/m*3 13.8 C 0 km/h
6 21-08-2004 02:59:38 13.8 C 10.6 g/m*3 13.8 C 0 km/h
7 21-08-2004 03:29:38 14.2 C 10.75 g/m*3 14.2 C 0 km/h
8 21-08-2004 03:59:38 14.4 C 10.75 g/m*3 14.4 C 0 km/h
9 21-08-2004 04:29:39 14.5 C 10.94 g/m*3 14.5 C 0 km/h
10 21-08-2004 04:59:39 14.6 C 10.76 g/m*3 14.6 C 0 km/h
11 21-08-2004 05:29:39 14.7 C 10.45 g/m*3 14.7 C 0 km/h
12 21-08-2004 05:59:39 14.8 C 10.39 g/m*3 14.8 C 0 km/h
13 21-08-2004 06:29:39 14.7 C 10.45 g/m*3 14.7 C 0 km/h
14 21-08-2004 06:59:39 14.7 C 10.45 g/m*3 14.7 C 0 km/h
15 21-08-2004 07:29:39 15 C 10.51 g/m*3 15 C 0 km/h
16 21-08-2004 07:59:39 14.9 C 10.45 g/m*3 14.9 C 0 km/h
17 21-08-2004 08:29:39 15.3 C 10.58 g/m*3 15.3 C 0 km/h
18 21-08-2004 08:59:40 15.9 C 10.83 g/m*3 15.9 C 0 km/h
19 21-08-2004 09:29:40 16.5 C 10.81 g/m*3 16.5 C 0 km/h
20 21-08-2004 09:59:40 17.3 C 10.9 g/m*3 17.3 C 0 km/h
21 21-08-2004 10:29:40 17 C 10.85 g/m*3 17 C 0 km/h
22 21-08-2004 10:59:40 18.2 C 11.04 g/m*3 18.2 C 0 km/h
23 21-08-2004 11:29:40 17 C 11.58 g/m*3 17 C 0 km/h
24 21-08-2004 11:59:41 17.4 C 11.41 g/m*3 17.4 C 0 km/h
25 21-08-2004 12:29:41 17.1 C 11.5 g/m*3 17.1 C 0 km/h
Sensor: Nr:Datum:Temp:Abs-Feuchte:Windchill:Wind:
Aussen-T/F 26 21-08-2004 12:59:41 18.4 C 11.64 g/m*3 18.4 C 0 km/h
27 21-08-2004 13:29:41 19.1 C 10.98 g/m*3 19.1 C 0 km/h
28 21-08-2004 13:59:41 19.5 C 10.41 g/m*3 19.5 C 0 km/h
29 21-08-2004 14:29:41 18.9 C 10.21 g/m*3 18.9 C 0 km/h
30 21-08-2004 14:59:42 18.3 C 10.01 g/m*3 18.3 C 0 km/h
31 21-08-2004 15:29:42 17.5 C 9.99 g/m*3 17.5 C 0 km/h
32 21-08-2004 15:59:42 17.6 C 10.35 g/m*3 17.6 C 0 km/h
33 21-08-2004 16:29:42 15 C 10.9 g/m*3 15 C 0 km/h
34 21-08-2004 16:59:42 15.1 C 11.61 g/m*3 15.1 C 0 km/h
35 21-08-2004 17:29:42 14.7 C 11.21 g/m*3 14.7 C 0 km/h
36 21-08-2004 17:59:43 15.3 C 10.84 g/m*3 15.3 C 0 km/h
37 21-08-2004 18:29:43 14.9 C 10.07 g/m*3 14.9 C 0 km/h
38 21-08-2004 18:59:43 15.7 C 10.17 g/m*3 15.7 C 0 km/h
39 21-08-2004 19:29:43 15.2 C 9.86 g/m*3 15.2 C 0 km/h
40 21-08-2004 19:59:43 15.4 C 9.59 g/m*3 15.4 C 0 km/h
41 21-08-2004 20:29:43 14.8 C 9.88 g/m*3 14.8 C 0 km/h
42 21-08-2004 20:59:43 14.7 C 9.69 g/m*3 14.7 C 0 km/h
43 21-08-2004 21:29:43 14.4 C 9.64 g/m*3 14.4 C 0 km/h
44 21-08-2004 21:59:43 14.4 C 9.52 g/m*3 14.4 C 0 km/h
45 21-08-2004 22:29:43 14.2 C 9.28 g/m*3 14.2 C 0 km/h
46 21-08-2004 22:59:43 13.9 C 9.35 g/m*3 13.9 C 0 km/h
47 21-08-2004 23:29:43 12.8 C 9.41 g/m*3 12.8 C 0 km/h
48 21-08-2004 23:59:43 12.6 C 9.51 g/m*3 12.6 C 0 km/h
49 22-08-2004 00:29:43 12.4 C 9.4 g/m*3 12.4 C 0 km/h
50 22-08-2004 00:59:44 12.1 C 9.12 g/m*3 12.1 C 0 km/h
Sensor: Nr:Datum:Temp:Abs-Feuchte:Windchill:Wind:
Aussen-T/F 51 22-08-2004 01:29:44 11.7 C 9.1 g/m*3 11.7 C 0 km/h
52 22-08-2004 01:59:44 11.2 C 8.92 g/m*3 11.2 C 0 km/h
53 22-08-2004 02:29:44 11.1 C 9.07 g/m*3 11.1 C 0 km/h
54 22-08-2004 02:59:44 11.1 C 9.17 g/m*3 11.1 C 0 km/h
55 22-08-2004 03:29:44 11.3 C 9.08 g/m*3 11.3 C 0 km/h
56 22-08-2004 03:59:45 11 C 9.01 g/m*3 11 C 0 km/h
57 22-08-2004 04:29:45 10.4 C 8.77 g/m*3 10.4 C 0 km/h
58 22-08-2004 04:59:45 10.3 C 8.81 g/m*3 10.3 C 0 km/h
59 22-08-2004 05:29:45 10.3 C 8.81 g/m*3 10.3 C 0 km/h
60 22-08-2004 05:59:45 10 C 8.64 g/m*3 10 C 0 km/h
61 22-08-2004 06:29:45 9.7 C 8.67 g/m*3 9.7 C 0 km/h
62 22-08-2004 06:59:45 10.1 C 8.89 g/m*3 10.1 C 0 km/h
63 22-08-2004 07:29:45 10.4 C 9.06 g/m*3 10.4 C 0 km/h
64 22-08-2004 07:59:45 10.6 C 9.08 g/m*3 10.6 C 0 km/h
65 22-08-2004 08:29:45 11.4 C 9.34 g/m*3 11.4 C 0 km/h
66 22-08-2004 08:59:45 11.7 C 8.99 g/m*3 11.7 C 0 km/h
67 22-08-2004 09:29:45 12.4 C 9.18 g/m*3 12.4 C 0 km/h
68 22-08-2004 09:59:45 12.6 C 9.18 g/m*3 12.6 C 0 km/h
69 22-08-2004 10:29:45 13.4 C 9.42 g/m*3 13.4 C 0 km/h
70 22-08-2004 10:59:45 15.1 C 9.8 g/m*3 15.1 C 0 km/h
71 22-08-2004 11:29:45 16.6 C 9.89 g/m*3 16.6 C 0 km/h
72 22-08-2004 11:59:45 18.2 C 8.24 g/m*3 18.2 C 0 km/h
73 22-08-2004 12:29:45 19.2 C 8.74 g/m*3 19.2 C 0 km/h
74 22-08-2004 12:59:45 19.3 C 7.8 g/m*3 19.3 C 0 km/h
75 22-08-2004 13:29:45 21 C 7.69 g/m*3 21 C 0 km/h
Sensor: Nr:Datum:Temp:Abs-Feuchte:Windchill:Wind:
Aussen-T/F 76 22-08-2004 13:59:46 21.9 C 6.95 g/m*3 21.9 C 0 km/h
77 22-08-2004 14:29:46 21.8 C 6.52 g/m*3 21.8 C 0 km/h
78 22-08-2004 14:59:46 22.7 C 6.47 g/m*3 22.7 C 0 km/h
79 22-08-2004 15:29:46 24.1 C 6.56 g/m*3 24.1 C 0 km/h
80 22-08-2004 15:59:46 26 C 6.57 g/m*3 26 C 0 km/h
81 22-08-2004 16:29:46 27.3 C 6.02 g/m*3 27.3 C 0 km/h
82 22-08-2004 16:59:46 25.9 C 7.02 g/m*3 25.9 C 0 km/h
83 22-08-2004 17:29:46 26.8 C 6.87 g/m*3 26.8 C 0 km/h
84 22-08-2004 17:59:46 27.1 C 6.73 g/m*3 27.1 C 0 km/h
85 22-08-2004 18:29:46 26.6 C 7.3 g/m*3 26.6 C 0 km/h
86 22-08-2004 18:59:46 26.6 C 7.55 g/m*3 26.6 C 0 km/h
87 22-08-2004 19:29:46 24.9 C 8.24 g/m*3 24.9 C 0 km/h
88 22-08-2004 19:59:46 23 C 8.22 g/m*3 23 C 0 km/h
89 22-08-2004 20:29:46 18.5 C 8.07 g/m*3 18.5 C 0 km/h
90 22-08-2004 20:59:46 16.3 C 7.77 g/m*3 16.3 C 0 km/h
91 22-08-2004 21:29:46 15.1 C 6.97 g/m*3 15.1 C 0 km/h
92 22-08-2004 21:59:46 14.5 C 7.46 g/m*3 14.5 C 0 km/h
93 22-08-2004 22:29:46 14.4 C 7.42 g/m*3 14.4 C 0 km/h
94 22-08-2004 22:59:46 13.7 C 7.58 g/m*3 13.7 C 0 km/h
95 22-08-2004 23:29:46 13.1 C 7.65 g/m*3 13.1 C 0 km/h
96 22-08-2004 23:59:46 12.8 C 7.84 g/m*3 12.8 C 0 km/h
97 23-08-2004 00:29:47 12.5 C 8.14 g/m*3 12.5 C 0 km/h
98 23-08-2004 00:59:47 11.9 C 8.15 g/m*3 11.9 C 0 km/h
99 23-08-2004 01:29:47 11.5 C 8.16 g/m*3 11.5 C 0 km/h
100 23-08-2004 01:59:47 11.2 C 8.01 g/m*3 11.2 C 0 km/h
Sensor: Nr:Datum:Temp:Abs-Feuchte:Windchill:Wind:
Aussen-T/F 101 23-08-2004 02:29:47 10.7 C 7.96 g/m*3 10.7 C 0 km/h
102 23-08-2004 02:59:47 11 C 8.11 g/m*3 11 C 0 km/h
103 23-08-2004 03:29:47 11 C 8.21 g/m*3 11 C 0 km/h
104 23-08-2004 03:59:47 10.8 C 8.2 g/m*3 10.8 C 0 km/h
105 23-08-2004 04:29:47 10.6 C 8.1 g/m*3 10.6 C 0 km/h
106 23-08-2004 04:59:47 9.9 C 8.03 g/m*3 9.9 C 0 km/h
107 23-08-2004 05:29:47 9.7 C 8.02 g/m*3 9.7 C 0 km/h
108 23-08-2004 05:59:47 9.9 C 8.22 g/m*3 9.9 C 0 km/h
109 23-08-2004 06:29:47 10.4 C 8.29 g/m*3 10.4 C 0 km/h
110 23-08-2004 06:59:47 11 C 8.51 g/m*3 11 C 0 km/h
111 23-08-2004 07:29:47 11.3 C 8.47 g/m*3 11.3 C 0 km/h
112 23-08-2004 07:59:47 11.4 C 8.52 g/m*3 11.4 C 0 km/h
113 23-08-2004 08:29:47 11.4 C 8.72 g/m*3 11.4 C 0 km/h
114 23-08-2004 08:59:47 11.8 C 9.26 g/m*3 11.8 C 0 km/h
115 23-08-2004 09:29:47 12.7 C 9.68 g/m*3 12.7 C 0 km/h
116 23-08-2004 09:59:47 14.3 C 10.07 g/m*3 14.3 C 0 km/h
117 23-08-2004 10:29:47 15.5 C 9.52 g/m*3 15.5 C 0 km/h
118 23-08-2004 10:59:47 16.9 C 9.06 g/m*3 16.9 C 0 km/h
119 23-08-2004 11:29:48 18.7 C 9.45 g/m*3 18.7 C 0 km/h
120 23-08-2004 11:59:48 19.5 C 9.4 g/m*3 19.5 C 0 km/h
121 23-08-2004 12:29:48 20.9 C 9.47 g/m*3 20.9 C 0 km/h
122 23-08-2004 12:59:48 21.9 C 9.84 g/m*3 21.9 C 0 km/h
123 23-08-2004 13:29:48 23.8 C 9.68 g/m*3 23.8 C 0 km/h
124 23-08-2004 13:59:48 24.5 C 9.4 g/m*3 24.5 C 0 km/h
125 23-08-2004 14:29:48 23.7 C 9.84 g/m*3 23.7 C 0 km/h
Sensor: Nr:Datum:Temp:Abs-Feuchte:Windchill:Wind:
Aussen-T/F 126 23-08-2004 14:59:48 24.8 C 9.33 g/m*3 24.8 C 0 km/h
127 23-08-2004 15:29:48 24.1 C 10.28 g/m*3 24.1 C 0 km/h
128 23-08-2004 15:59:48 22.1 C 11.91 g/m*3 22.1 C 0 km/h
129 23-08-2004 16:29:48 20.7 C 12.6 g/m*3 20.7 C 0 km/h
130 23-08-2004 16:59:48 20.3 C 12.66 g/m*3 20.3 C 0 km/h
131 23-08-2004 17:29:48 20.6 C 12.35 g/m*3 20.6 C 0 km/h
132 23-08-2004 17:59:48 20.2 C 12.59 g/m*3 20.2 C 0 km/h
133 23-08-2004 18:29:48 21.1 C 12.16 g/m*3 21.1 C 0 km/h
134 23-08-2004 18:59:48 21.6 C 12.33 g/m*3 21.6 C 0 km/h
135 23-08-2004 19:29:48 20.4 C 12.74 g/m*3 20.4 C 0 km/h
136 23-08-2004 19:59:48 19.6 C 12.49 g/m*3 19.6 C 0 km/h
137 23-08-2004 20:29:48 19 C 12.22 g/m*3 19 C 0 km/h
138 23-08-2004 20:59:48 18.7 C 12.33 g/m*3 18.7 C 0 km/h
139 23-08-2004 21:29:48 18.4 C 12.27 g/m*3 18.4 C 0 km/h
140 23-08-2004 21:59:48 18.1 C 12.21 g/m*3 18.1 C 0 km/h
141 23-08-2004 22:29:49 17.7 C 12.37 g/m*3 17.7 C 0 km/h
142 23-08-2004 22:59:49 17.4 C 12.15 g/m*3 17.4 C 0 km/h
143 23-08-2004 23:29:49 16.9 C 11.94 g/m*3 16.9 C 0 km/h
144 23-08-2004 23:59:49 16.4 C 11.58 g/m*3 16.4 C 0 km/h
145 24-08-2004 00:29:49 16.3 C 11.65 g/m*3 16.3 C 0 km/h
146 24-08-2004 00:59:49 15.8 C 11.44 g/m*3 15.8 C 0 km/h
147 24-08-2004 01:29:49 16.1 C 11.79 g/m*3 16.1 C 0 km/h
148 24-08-2004 01:59:49 15.7 C 11.64 g/m*3 15.7 C 0 km/h
149 24-08-2004 02:29:49 15.3 C 11.36 g/m*3 15.3 C 0 km/h
150 24-08-2004 02:59:49 15.1 C 11.35 g/m*3 15.1 C 0 km/h
Sensor: Nr:Datum:Temp:Abs-Feuchte:Windchill:Wind:
Aussen-T/F 151 24-08-2004 03:29:49 15.1 C 11.48 g/m*3 15.1 C 0 km/h
152 24-08-2004 03:59:49 14.9 C 11.6 g/m*3 14.9 C 0 km/h
153 24-08-2004 04:29:49 14.7 C 11.46 g/m*3 14.7 C 0 km/h
154 24-08-2004 04:59:49 14.7 C 11.58 g/m*3 14.7 C 0 km/h
155 24-08-2004 05:29:49 14.4 C 11.37 g/m*3 14.4 C 0 km/h
156 24-08-2004 05:59:49 14.1 C 11.29 g/m*3 14.1 C 0 km/h
157 24-08-2004 06:29:49 14 C 11.22 g/m*3 14 C 0 km/h
158 24-08-2004 06:59:49 13.9 C 11.15 g/m*3 13.9 C 0 km/h
159 24-08-2004 07:29:49 14.3 C 11.43 g/m*3 14.3 C 0 km/h
160 24-08-2004 07:59:49 14.7 C 11.71 g/m*3 14.7 C 0 km/h
161 24-08-2004 08:29:49 15.2 C 11.94 g/m*3 15.2 C 0 km/h
162 24-08-2004 08:59:50 15.8 C 12.25 g/m*3 15.8 C 0 km/h
163 24-08-2004 09:29:50 16.7 C 12.36 g/m*3 16.7 C 0 km/h
164 24-08-2004 09:59:50 17 C 12.01 g/m*3 17 C 0 km/h
165 24-08-2004 10:29:50 17.1 C 11.94 g/m*3 17.1 C 0 km/h
166 24-08-2004 10:59:50 16.8 C 13.01 g/m*3 16.8 C 0 km/h
167 24-08-2004 11:29:50 16.5 C 12.78 g/m*3 16.5 C 0 km/h
168 24-08-2004 11:59:50 17.3 C 13.55 g/m*3 17.3 C 0 km/h
169 24-08-2004 12:29:50 18.5 C 13.77 g/m*3 18.5 C 0 km/h
170 24-08-2004 12:59:50 18.1 C 12.82 g/m*3 18.1 C 0 km/h
171 24-08-2004 13:29:50 17.7 C 12.22 g/m*3 17.7 C 0 km/h
172 24-08-2004 13:59:50 17.2 C 12.59 g/m*3 17.2 C 0 km/h
173 24-08-2004 14:29:50 19.6 C 12.83 g/m*3 19.6 C 0 km/h
174 24-08-2004 14:59:50 21.6 C 12.14 g/m*3 21.6 C 0 km/h
175 24-08-2004 15:29:50 20.4 C 11.68 g/m*3 20.4 C 0 km/h
Sensor: Nr:Datum:Temp:Abs-Feuchte:Windchill:Wind:
Aussen-T/F 176 24-08-2004 15:59:50 16.5 C 11.37 g/m*3 16.5 C 0 km/h
177 24-08-2004 16:29:50 19.2 C 12.04 g/m*3 19.2 C 0 km/h
178 24-08-2004 16:59:50 21.3 C 10.62 g/m*3 21.3 C 0 km/h
179 24-08-2004 17:29:50 22 C 10.48 g/m*3 22 C 0 km/h
180 24-08-2004 17:59:50 22.4 C 9.93 g/m*3 22.4 C 0 km/h
181 24-08-2004 18:29:50 21 C 9.89 g/m*3 21 C 0 km/h
182 24-08-2004 18:59:50 21.1 C 10.5 g/m*3 21.1 C 0 km/h
183 24-08-2004 19:29:50 21.7 C 10.3 g/m*3 21.7 C 0 km/h
184 24-08-2004 19:59:51 21 C 10.44 g/m*3 21 C 0 km/h
185 24-08-2004 20:29:51 19.2 C 10.72 g/m*3 19.2 C 0 km/h
186 24-08-2004 20:59:51 19 C 9.61 g/m*3 19 C 0 km/h
187 24-08-2004 21:29:51 18.9 C 9.56 g/m*3 18.9 C 0 km/h
188 24-08-2004 21:59:51 18.3 C 9.07 g/m*3 18.3 C 0 km/h
189 24-08-2004 22:29:51 18.1 C 9.12 g/m*3 18.1 C 0 km/h
190 24-08-2004 22:59:51 17.7 C 9.66 g/m*3 17.7 C 0 km/h
191 24-08-2004 23:29:51 17.2 C 9.67 g/m*3 17.2 C 0 km/h
192 24-08-2004 23:59:51 17 C 9.84 g/m*3 17 C 0 km/h
193 25-08-2004 00:29:51 16.9 C 9.92 g/m*3 16.9 C 0 km/h
194 25-08-2004 00:59:51 16.8 C 10.01 g/m*3 16.8 C 0 km/h
195 25-08-2004 01:29:51 16.9 C 9.92 g/m*3 16.9 C 0 km/h
196 25-08-2004 01:59:51 16.8 C 9.87 g/m*3 16.8 C 0 km/h
197 25-08-2004 02:29:51 16.6 C 9.75 g/m*3 16.6 C 0 km/h
198 25-08-2004 02:59:51 16.7 C 9.66 g/m*3 16.7 C 0 km/h
199 25-08-2004 03:29:51 16.4 C 9.49 g/m*3 16.4 C 0 km/h
200 25-08-2004 03:59:51 16.3 C 9.43 g/m*3 16.3 C 0 km/h
Sensor: Nr:Datum:Temp:Abs-Feuchte:Windchill:Wind:
Aussen-T/F 201 25-08-2004 04:29:51 16.2 C 9.52 g/m*3 16.2 C 0 km/h
202 25-08-2004 04:59:51 15.9 C 9.34 g/m*3 15.9 C 0 km/h
203 25-08-2004 05:29:51 15.8 C 9.29 g/m*3 15.8 C 0 km/h
204 25-08-2004 05:59:51 15.6 C 9.18 g/m*3 15.6 C 0 km/h
205 25-08-2004 06:29:51 15.4 C 9.2 g/m*3 15.4 C 0 km/h
206 25-08-2004 06:59:52 15.5 C 9.12 g/m*3 15.5 C 0 km/h
207 25-08-2004 07:29:52 15.5 C 8.72 g/m*3 15.5 C 0 km/h
208 25-08-2004 07:59:52 15.5 C 8.86 g/m*3 15.5 C 0 km/h
209 25-08-2004 08:29:52 15.6 C 9.18 g/m*3 15.6 C 0 km/h
210 25-08-2004 08:59:52 15.7 C 9.23 g/m*3 15.7 C 0 km/h
211 25-08-2004 09:29:52 16 C 8.86 g/m*3 16 C 0 km/h
212 25-08-2004 09:59:52 16.6 C 8.9 g/m*3 16.6 C 0 km/h
213 25-08-2004 10:29:52 16.6 C 8.9 g/m*3 16.6 C 0 km/h
214 25-08-2004 10:59:52 16.1 C 9.18 g/m*3 16.1 C 0 km/h
215 25-08-2004 11:29:52 16.1 C 9.46 g/m*3 16.1 C 0 km/h
216 25-08-2004 11:59:52 17.1 C 9.17 g/m*3 17.1 C 0 km/h
217 25-08-2004 12:29:52 18.6 C 8.91 g/m*3 18.6 C 0 km/h
218 25-08-2004 12:59:52 17.8 C 9.11 g/m*3 17.8 C 0 km/h
219 25-08-2004 13:29:52 16.9 C 9.92 g/m*3 16.9 C 0 km/h
220 25-08-2004 13:59:52 16 C 10.76 g/m*3 16 C 0 km/h
221 25-08-2004 14:29:52 16.9 C 11.22 g/m*3 16.9 C 0 km/h
222 25-08-2004 14:59:52 18.1 C 10.97 g/m*3 18.1 C 0 km/h
223 25-08-2004 15:29:52 19.4 C 9.68 g/m*3 19.4 C 0 km/h
224 25-08-2004 15:59:52 19.2 C 9.89 g/m*3 19.2 C 0 km/h
225 25-08-2004 16:29:52 19.2 C 9.56 g/m*3 19.2 C 0 km/h
Sensor: Nr:Datum:Temp:Abs-Feuchte:Windchill:Wind:
Aussen-T/F 226 25-08-2004 16:59:52 16.6 C 11.16 g/m*3 16.6 C 0 km/h
227 25-08-2004 17:29:01 17.5 C 11.18 g/m*3 17.5 C 0 km/h
228 25-08-2004 17:59:00 18 C 10.44 g/m*3 18 C 0 km/h
229 25-08-2004 18:29:00 17.8 C 10.02 g/m*3 17.8 C 0 km/h
230 25-08-2004 18:59:01 18.7 C 10.25 g/m*3 18.7 C 0 km/h
231 25-08-2004 19:29:01 17.5 C 10.14 g/m*3 17.5 C 0 km/h
232 25-08-2004 19:59:02 16.9 C 10.5 g/m*3 16.9 C 0 km/h
233 25-08-2004 20:22:02 15.3 C 11.23 g/m*3 15.3 C 0 km/h
234 25-08-2004 20:34:03 15.2 C 11.29 g/m*3 15.2 C 0 km/h
235 25-08-2004 20:46:02 14.8 C 11.15 g/m*3 14.8 C 0 km/h
236 25-08-2004 20:58:02 14.7 C 11.21 g/m*3 14.7 C 0 km/h
237 25-08-2004 21:10:02 14.7 C 11.21 g/m*3 14.7 C 0 km/h
238 25-08-2004 21:22:00 14.6 C 11.01 g/m*3 14.6 C 0 km/h
239 25-08-2004 21:34:01 14.7 C 10.95 g/m*3 14.7 C 0 km/h
240 25-08-2004 21:46:01 14.8 C 10.89 g/m*3 14.8 C 0 km/h
241 25-08-2004 21:58:02 14.8 C 10.89 g/m*3 14.8 C 0 km/h
242 25-08-2004 22:10:01 14.7 C 10.83 g/m*3 14.7 C 0 km/h
243 25-08-2004 22:22:01 14.6 C 10.76 g/m*3 14.6 C 0 km/h
244 25-08-2004 22:34:01 14.8 C 10.77 g/m*3 14.8 C 0 km/h
245 25-08-2004 22:46:01 14.8 C 10.77 g/m*3 14.8 C 0 km/h
246 25-08-2004 22:58:01 14.9 C 10.83 g/m*3 14.9 C 0 km/h
247 25-08-2004 23:10:01 14.9 C 10.83 g/m*3 14.9 C 0 km/h
248 25-08-2004 23:22:00 15 C 10.77 g/m*3 15 C 0 km/h
249 25-08-2004 23:34:00 15.1 C 10.71 g/m*3 15.1 C 0 km/h
250 25-08-2004 23:46:02 15.1 C 10.71 g/m*3 15.1 C 0 km/h
Sensor: Nr:Datum:Temp:Abs-Feuchte:Windchill:Wind:
Aussen-T/F 251 25-08-2004 23:58:02 15.1 C 10.71 g/m*3 15.1 C 0 km/h
252 26-08-2004 00:10:02 15 C 10.64 g/m*3 15 C 0 km/h
253 26-08-2004 00:22:01 15.4 C 10.64 g/m*3 15.4 C 0 km/h
254 26-08-2004 00:34:01 15.4 C 10.38 g/m*3 15.4 C 0 km/h
255 26-08-2004 00:46:01 15.4 C 10.51 g/m*3 15.4 C 0 km/h
256 26-08-2004 00:58:01 15 C 10.51 g/m*3 15 C 0 km/h
257 26-08-2004 01:10:01 14.8 C 10.64 g/m*3 14.8 C 0 km/h
258 26-08-2004 01:22:00 14.8 C 10.64 g/m*3 14.8 C 0 km/h
259 26-08-2004 01:34:00 14.6 C 10.64 g/m*3 14.6 C 0 km/h
260 26-08-2004 01:46:01 14.5 C 10.57 g/m*3 14.5 C 0 km/h
261 26-08-2004 01:58:01 14.8 C 10.64 g/m*3 14.8 C 0 km/h
262 26-08-2004 02:10:01 14.8 C 10.51 g/m*3 14.8 C 0 km/h
263 26-08-2004 02:22:02 14.7 C 10.58 g/m*3 14.7 C 0 km/h
264 26-08-2004 02:34:01 14.5 C 10.45 g/m*3 14.5 C 0 km/h
265 26-08-2004 02:47:02 14.6 C 10.51 g/m*3 14.6 C 0 km/h
266 26-08-2004 02:59:02 14.6 C 10.51 g/m*3 14.6 C 0 km/h
267 26-08-2004 03:11:02 14.7 C 10.45 g/m*3 14.7 C 0 km/h
268 26-08-2004 03:23:02 14.7 C 10.58 g/m*3 14.7 C 0 km/h
269 26-08-2004 03:35:01 14.7 C 10.45 g/m*3 14.7 C 0 km/h
270 26-08-2004 03:47:01 14.7 C 10.32 g/m*3 14.7 C 0 km/h
271 26-08-2004 03:59:01 14.6 C 10.39 g/m*3 14.6 C 0 km/h
272 26-08-2004 04:11:01 14.6 C 10.39 g/m*3 14.6 C 0 km/h
273 26-08-2004 04:23:01 14.3 C 10.07 g/m*3 14.3 C 0 km/h
274 26-08-2004 04:35:00 14 C 10.13 g/m*3 14 C 0 km/h
275 26-08-2004 04:47:01 14 C 10.13 g/m*3 14 C 0 km/h
Sensor: Nr:Datum:Temp:Abs-Feuchte:Windchill:Wind:
Aussen-T/F 276 26-08-2004 04:59:01 14.1 C 10.19 g/m*3 14.1 C 0 km/h
277 26-08-2004 05:11:01 14.1 C 10.19 g/m*3 14.1 C 0 km/h
278 26-08-2004 05:23:00 14.1 C 10.19 g/m*3 14.1 C 0 km/h
279 26-08-2004 05:35:00 14.1 C 10.32 g/m*3 14.1 C 0 km/h
280 26-08-2004 05:47:01 14.2 C 10.38 g/m*3 14.2 C 0 km/h
281 26-08-2004 05:59:01 14.1 C 10.32 g/m*3 14.1 C 0 km/h
282 26-08-2004 06:11:02 14.1 C 10.32 g/m*3 14.1 C 0 km/h
283 26-08-2004 06:23:01 14.2 C 10.38 g/m*3 14.2 C 0 km/h
284 26-08-2004 06:35:01 14.2 C 10.38 g/m*3 14.2 C 0 km/h
285 26-08-2004 06:47:01 14.3 C 10.32 g/m*3 14.3 C 0 km/h
286 26-08-2004 06:59:01 14.4 C 10.38 g/m*3 14.4 C 0 km/h
287 26-08-2004 07:11:01 14.4 C 10.38 g/m*3 14.4 C 0 km/h
288 26-08-2004 07:23:00 14.5 C 10.45 g/m*3 14.5 C 0 km/h
289 26-08-2004 07:35:00 14.7 C 10.45 g/m*3 14.7 C 0 km/h
290 26-08-2004 07:47:02 14.8 C 10.51 g/m*3 14.8 C 0 km/h
291 26-08-2004 07:59:02 14.9 C 10.58 g/m*3 14.9 C 0 km/h
292 26-08-2004 08:11:02 15.1 C 10.45 g/m*3 15.1 C 0 km/h
293 26-08-2004 08:23:01 15.2 C 10.25 g/m*3 15.2 C 0 km/h
294 26-08-2004 08:35:01 15.4 C 10.38 g/m*3 15.4 C 0 km/h
295 26-08-2004 08:47:01 15.9 C 10.7 g/m*3 15.9 C 0 km/h
296 26-08-2004 08:59:01 16 C 10.49 g/m*3 16 C 0 km/h
297 26-08-2004 09:11:01 16.1 C 10.55 g/m*3 16.1 C 0 km/h
298 26-08-2004 09:23:00 15.5 C 10.71 g/m*3 15.5 C 0 km/h
299 26-08-2004 09:35:00 15 C 11.03 g/m*3 15 C 0 km/h
300 26-08-2004 09:47:01 14.8 C 11.15 g/m*3 14.8 C 0 km/h
Sensor: Nr:Datum:Temp:Abs-Feuchte:Windchill:Wind:
Aussen-T/F 301 26-08-2004 09:59:01 14.9 C 11.34 g/m*3 14.9 C 0 km/h
302 26-08-2004 10:11:01 15.3 C 11.62 g/m*3 15.3 C 0 km/h
303 26-08-2004 10:23:01 15.6 C 11.7 g/m*3 15.6 C 0 km/h
304 26-08-2004 10:35:01 16.1 C 11.65 g/m*3 16.1 C 0 km/h
305 26-08-2004 10:47:02 16.2 C 11.31 g/m*3 16.2 C 0 km/h
306 26-08-2004 10:59:02 16.5 C 11.37 g/m*3 16.5 C 0 km/h
307 26-08-2004 11:11:02 17 C 11.43 g/m*3 17 C 0 km/h
308 26-08-2004 11:23:01 17.8 C 11.54 g/m*3 17.8 C 0 km/h
309 26-08-2004 11:35:01 18 C 10.91 g/m*3 18 C 0 km/h
310 26-08-2004 11:47:01 18.1 C 11.12 g/m*3 18.1 C 0 km/h
311 26-08-2004 11:59:01 17.7 C 10.56 g/m*3 17.7 C 0 km/h
312 26-08-2004 12:11:01 19 C 10.59 g/m*3 19 C 0 km/h
313 26-08-2004 12:23:03 18.8 C 9.99 g/m*3 18.8 C 0 km/h
314 26-08-2004 12:35:01 19.4 C 10.18 g/m*3 19.4 C 0 km/h
315 26-08-2004 12:47:01 19.2 C 10.06 g/m*3 19.2 C 0 km/h
316 26-08-2004 12:59:01 19 C 10.1 g/m*3 19 C 0 km/h
317 26-08-2004 13:11:01 19.4 C 10.18 g/m*3 19.4 C 0 km/h
318 26-08-2004 13:23:05 19.2 C 9.73 g/m*3 19.2 C 0 km/h
319 26-08-2004 13:35:01 19.8 C 10.08 g/m*3 19.8 C 0 km/h
320 26-08-2004 13:47:01 20 C 9.68 g/m*3 20 C 0 km/h
321 26-08-2004 13:59:01 19.5 C 9.9 g/m*3 19.5 C 0 km/h
322 26-08-2004 14:11:01 19.7 C 9.68 g/m*3 19.7 C 0 km/h
323 26-08-2004 14:23:01 20 C 9.68 g/m*3 20 C 0 km/h
324 26-08-2004 14:35:01 20.4 C 9.55 g/m*3 20.4 C 0 km/h
325 26-08-2004 14:47:02 20.1 C 9.39 g/m*3 20.1 C 0 km/h
Sensor: Nr:Datum:Temp:Abs-Feuchte:Windchill:Wind:
Aussen-T/F 326 26-08-2004 14:59:02 19.9 C 9.11 g/m*3 19.9 C 0 km/h
327 26-08-2004 15:11:02 20.2 C 10.14 g/m*3 20.2 C 0 km/h
328 26-08-2004 15:23:09 21.2 C 10.19 g/m*3 21.2 C 0 km/h
329 26-08-2004 15:35:01 20.8 C 9.42 g/m*3 20.8 C 0 km/h
330 26-08-2004 15:47:01 20.5 C 9.43 g/m*3 20.5 C 0 km/h
331 26-08-2004 15:59:01 20 C 8.81 g/m*3 20 C 0 km/h
332 26-08-2004 16:11:01 20.5 C 9.25 g/m*3 20.5 C 0 km/h
333 26-08-2004 16:23:01 20.7 C 9.54 g/m*3 20.7 C 0 km/h
334 26-08-2004 16:35:01 20.1 C 8.69 g/m*3 20.1 C 0 km/h
335 26-08-2004 16:47:02 19.9 C 8.59 g/m*3 19.9 C 0 km/h
336 26-08-2004 16:59:02 20.1 C 8.87 g/m*3 20.1 C 0 km/h
337 26-08-2004 17:11:02 20 C 8.99 g/m*3 20 C 0 km/h
338 26-08-2004 17:23:02 20 C 8.99 g/m*3 20 C 0 km/h
339 26-08-2004 17:35:01 19.8 C 9.22 g/m*3 19.8 C 0 km/h
340 26-08-2004 17:47:01 20.1 C 9.04 g/m*3 20.1 C 0 km/h
341 26-08-2004 17:59:01 19.8 C 9.05 g/m*3 19.8 C 0 km/h
342 26-08-2004 18:11:01 19.6 C 8.95 g/m*3 19.6 C 0 km/h
343 26-08-2004 18:23:01 19.2 C 9.07 g/m*3 19.2 C 0 km/h
344 26-08-2004 18:35:00 19.8 C 9.22 g/m*3 19.8 C 0 km/h
345 26-08-2004 18:47:01 20.5 C 9.25 g/m*3 20.5 C 0 km/h
346 26-08-2004 18:59:01 20.4 C 9.55 g/m*3 20.4 C 0 km/h
347 26-08-2004 19:11:01 20.2 C 9.09 g/m*3 20.2 C 0 km/h
348 26-08-2004 19:23:01 20.2 C 8.92 g/m*3 20.2 C 0 km/h
349 26-08-2004 19:35:01 19.6 C 8.78 g/m*3 19.6 C 0 km/h
350 26-08-2004 19:47:01 19.2 C 9.07 g/m*3 19.2 C 0 km/h
Sensor: Nr:Datum:Temp:Abs-Feuchte:Windchill:Wind:
Aussen-T/F 351 26-08-2004 19:59:01 18.8 C 8.7 g/m*3 18.8 C 0 km/h
352 26-08-2004 20:11:01 18.3 C 8.6 g/m*3 18.3 C 0 km/h
353 26-08-2004 20:23:00 17.7 C 8.75 g/m*3 17.7 C 0 km/h
354 26-08-2004 20:35:00 17 C 8.68 g/m*3 17 C 0 km/h
355 26-08-2004 20:47:02 16.8 C 8.44 g/m*3 16.8 C 0 km/h
356 26-08-2004 20:59:03 16.8 C 8.29 g/m*3 16.8 C 0 km/h
357 26-08-2004 21:11:01 16.7 C 8.24 g/m*3 16.7 C 0 km/h
358 26-08-2004 21:23:01 16.5 C 8.14 g/m*3 16.5 C 0 km/h
359 26-08-2004 21:35:01 16.2 C 8.14 g/m*3 16.2 C 0 km/h
360 26-08-2004 21:47:02 15.9 C 8.4 g/m*3 15.9 C 0 km/h
361 26-08-2004 21:59:02 15.6 C 8.38 g/m*3 15.6 C 0 km/h
362 26-08-2004 22:11:02 15.3 C 8.36 g/m*3 15.3 C 0 km/h
363 26-08-2004 22:23:02 15.1 C 8.26 g/m*3 15.1 C 0 km/h
364 26-08-2004 22:35:01 14.8 C 8.49 g/m*3 14.8 C 0 km/h
365 26-08-2004 22:47:01 14.7 C 8.56 g/m*3 14.7 C 0 km/h
366 26-08-2004 22:59:01 14.7 C 8.18 g/m*3 14.7 C 0 km/h
367 26-08-2004 23:11:01 14.4 C 8.03 g/m*3 14.4 C 0 km/h
368 26-08-2004 23:23:00 14.2 C 7.94 g/m*3 14.2 C 0 km/h
369 26-08-2004 23:35:00 14 C 8.08 g/m*3 14 C 0 km/h
370 26-08-2004 23:47:01 13.7 C 8.05 g/m*3 13.7 C 0 km/h
371 26-08-2004 23:59:01 13.7 C 8.05 g/m*3 13.7 C 0 km/h
372 27-08-2004 00:11:02 13.6 C 8 g/m*3 13.6 C 0 km/h
373 27-08-2004 00:23:02 13.3 C 7.97 g/m*3 13.3 C 0 km/h
374 27-08-2004 00:35:01 13.3 C 8.09 g/m*3 13.3 C 0 km/h
375 27-08-2004 00:47:01 13.3 C 8.09 g/m*3 13.3 C 0 km/h
Sensor: Nr:Datum:Temp:Abs-Feuchte:Windchill:Wind:
Aussen-T/F 376 27-08-2004 00:59:01 13 C 7.94 g/m*3 13 C 0 km/h
377 27-08-2004 01:11:01 12.9 C 8.11 g/m*3 12.9 C 0 km/h
378 27-08-2004 01:23:01 12.4 C 8.09 g/m*3 12.4 C 0 km/h
379 27-08-2004 01:35:00 12.1 C 8.26 g/m*3 12.1 C 0 km/h
380 27-08-2004 01:47:01 12 C 8.21 g/m*3 12 C 0 km/h
381 27-08-2004 01:59:01 11.8 C 8.31 g/m*3 11.8 C 0 km/h
382 27-08-2004 02:11:01 11.6 C 8.32 g/m*3 11.6 C 0 km/h
383 27-08-2004 02:23:00 11.5 C 8.37 g/m*3 11.5 C 0 km/h
384 27-08-2004 02:35:00 11.3 C 8.36 g/m*3 11.3 C 0 km/h
385 27-08-2004 02:48:03 11.1 C 8.46 g/m*3 11.1 C 0 km/h
386 27-08-2004 03:00:03 11.1 C 8.46 g/m*3 11.1 C 0 km/h
387 27-08-2004 03:12:03 11.1 C 8.36 g/m*3 11.1 C 0 km/h
388 27-08-2004 03:24:03 11 C 8.31 g/m*3 11 C 0 km/h
389 27-08-2004 03:36:01 11 C 8.31 g/m*3 11 C 0 km/h
390 27-08-2004 03:48:01 11.3 C 8.36 g/m*3 11.3 C 0 km/h
391 27-08-2004 04:00:01 11.5 C 8.37 g/m*3 11.5 C 0 km/h
392 27-08-2004 04:12:01 11.4 C 8.31 g/m*3 11.4 C 0 km/h
393 27-08-2004 04:24:00 11.2 C 8.31 g/m*3 11.2 C 0 km/h
394 27-08-2004 04:36:00 11.1 C 8.36 g/m*3 11.1 C 0 km/h
395 27-08-2004 04:48:01 11 C 8.31 g/m*3 11 C 0 km/h
396 27-08-2004 05:00:01 10.9 C 8.36 g/m*3 10.9 C 0 km/h
397 27-08-2004 05:12:01 11.1 C 8.46 g/m*3 11.1 C 0 km/h
398 27-08-2004 05:24:01 11.1 C 8.46 g/m*3 11.1 C 0 km/h
399 27-08-2004 05:36:01 11.4 C 8.62 g/m*3 11.4 C 0 km/h
400 27-08-2004 05:48:01 11.6 C 8.63 g/m*3 11.6 C 0 km/h
Sensor: Nr:Datum:Temp:Abs-Feuchte:Windchill:Wind:
Aussen-T/F 401 27-08-2004 06:00:01 11.5 C 8.57 g/m*3 11.5 C 0 km/h
402 27-08-2004 06:12:01 11.4 C 8.52 g/m*3 11.4 C 0 km/h
403 27-08-2004 06:24:00 11.4 C 8.62 g/m*3 11.4 C 0 km/h
404 27-08-2004 06:36:00 11.6 C 8.63 g/m*3 11.6 C 0 km/h
405 27-08-2004 06:48:01 11.7 C 8.68 g/m*3 11.7 C 0 km/h
406 27-08-2004 07:00:01 11.9 C 8.79 g/m*3 11.9 C 0 km/h
407 27-08-2004 07:12:01 12 C 8.74 g/m*3 12 C 0 km/h
408 27-08-2004 07:24:00 12 C 8.74 g/m*3 12 C 0 km/h
409 27-08-2004 07:36:00 12.2 C 8.85 g/m*3 12.2 C 0 km/h
410 27-08-2004 07:48:02 12.2 C 8.74 g/m*3 12.2 C 0 km/h
411 27-08-2004 08:00:02 12.4 C 8.85 g/m*3 12.4 C 0 km/h
412 27-08-2004 08:12:02 12.5 C 8.91 g/m*3 12.5 C 0 km/h
413 27-08-2004 08:24:01 12.8 C 9.07 g/m*3 12.8 C 0 km/h
414 27-08-2004 08:36:01 13.2 C 9.07 g/m*3 13.2 C 0 km/h
415 27-08-2004 08:48:02 13.4 C 9.07 g/m*3 13.4 C 0 km/h
416 27-08-2004 09:00:02 13.6 C 9.18 g/m*3 13.6 C 0 km/h
417 27-08-2004 09:12:01 13.8 C 9.29 g/m*3 13.8 C 0 km/h
418 27-08-2004 09:24:01 14 C 9.29 g/m*3 14 C 0 km/h
419 27-08-2004 09:36:00 14.3 C 9.46 g/m*3 14.3 C 0 km/h
420 27-08-2004 09:48:01 14.5 C 9.45 g/m*3 14.5 C 0 km/h
421 27-08-2004 10:00:01 14.7 C 9.69 g/m*3 14.7 C 0 km/h
422 27-08-2004 10:12:02 15.4 C 9.85 g/m*3 15.4 C 0 km/h
423 27-08-2004 10:24:02 15.9 C 9.89 g/m*3 15.9 C 0 km/h
424 27-08-2004 10:36:02 16.3 C 9.71 g/m*3 16.3 C 0 km/h
425 27-08-2004 10:48:01 16.6 C 9.61 g/m*3 16.6 C 0 km/h
Sensor: Nr:Datum:Temp:Abs-Feuchte:Windchill:Wind:
Aussen-T/F 426 27-08-2004 11:00:01 16.5 C 9.55 g/m*3 16.5 C 0 km/h
427 27-08-2004 11:12:01 17.1 C 9.46 g/m*3 17.1 C 0 km/h
428 27-08-2004 11:24:01 17.2 C 9.08 g/m*3 17.2 C 0 km/h
429 27-08-2004 11:36:00 17.3 C 9.28 g/m*3 17.3 C 0 km/h
430 27-08-2004 11:48:01 17.7 C 9.05 g/m*3 17.7 C 0 km/h
431 27-08-2004 12:00:01 17.8 C 8.95 g/m*3 17.8 C 0 km/h
432 27-08-2004 12:12:01 18.1 C 8.96 g/m*3 18.1 C 0 km/h
433 27-08-2004 12:24:00 18.9 C 9.23 g/m*3 18.9 C 0 km/h
434 27-08-2004 12:36:01 19.3 C 8.79 g/m*3 19.3 C 0 km/h
435 27-08-2004 12:48:02 19.6 C 8.78 g/m*3 19.6 C 0 km/h
436 27-08-2004 13:00:02 20.2 C 9.09 g/m*3 20.2 C 0 km/h
437 27-08-2004 13:12:02 20.3 C 8.62 g/m*3 20.3 C 0 km/h
438 27-08-2004 13:24:02 20.3 C 8.27 g/m*3 20.3 C 0 km/h
439 27-08-2004 13:36:01 21.2 C 8.52 g/m*3 21.2 C 0 km/h
440 27-08-2004 13:48:01 20.8 C 8.87 g/m*3 20.8 C 0 km/h
441 27-08-2004 14:00:01 20.2 C 8.57 g/m*3 20.2 C 0 km/h
442 27-08-2004 14:12:01 20.3 C 8.79 g/m*3 20.3 C 0 km/h
443 27-08-2004 14:24:03 20.3 C 8.62 g/m*3 20.3 C 0 km/h
444 27-08-2004 14:36:01 20.6 C 8.59 g/m*3 20.6 C 0 km/h
445 27-08-2004 14:48:01 20.8 C 8.69 g/m*3 20.8 C 0 km/h
446 27-08-2004 15:00:01 20.9 C 8.74 g/m*3 20.9 C 0 km/h
447 27-08-2004 15:12:01 20.5 C 8.72 g/m*3 20.5 C 0 km/h
448 27-08-2004 15:24:01 20.2 C 8.57 g/m*3 20.2 C 0 km/h
449 27-08-2004 15:36:00 20.2 C 8.39 g/m*3 20.2 C 0 km/h
450 27-08-2004 15:48:02 20 C 8.3 g/m*3 20 C 0 km/h
Sensor: Nr:Datum:Temp:Abs-Feuchte:Windchill:Wind:
Aussen-T/F 451 27-08-2004 16:00:02 20 C 8.47 g/m*3 20 C 0 km/h
452 27-08-2004 16:12:01 20 C 8.64 g/m*3 20 C 0 km/h
453 27-08-2004 16:24:00 19.8 C 8.71 g/m*3 19.8 C 0 km/h
454 27-08-2004 16:36:00 19.7 C 8.83 g/m*3 19.7 C 0 km/h
455 27-08-2004 16:48:02 19.7 C 8.83 g/m*3 19.7 C 0 km/h
456 27-08-2004 17:00:02 19.9 C 8.93 g/m*3 19.9 C 0 km/h
457 27-08-2004 17:12:02 20 C 8.81 g/m*3 20 C 0 km/h
458 27-08-2004 17:24:02 18.8 C 9.99 g/m*3 18.8 C 0 km/h
459 27-08-2004 17:36:01 17.8 C 10.78 g/m*3 17.8 C 0 km/h
460 27-08-2004 17:48:01 18.3 C 10.48 g/m*3 18.3 C 0 km/h
461 27-08-2004 18:00:01 18.3 C 10.79 g/m*3 18.3 C 0 km/h
462 27-08-2004 18:12:01 18.2 C 10.88 g/m*3 18.2 C 0 km/h
463 27-08-2004 18:24:01 18.6 C 10.35 g/m*3 18.6 C 0 km/h
464 27-08-2004 18:36:01 18.7 C 10.09 g/m*3 18.7 C 0 km/h
465 27-08-2004 18:48:02 17.8 C 10.62 g/m*3 17.8 C 0 km/h
466 27-08-2004 19:00:02 17.7 C 10.86 g/m*3 17.7 C 0 km/h
467 27-08-2004 19:12:01 17.3 C 10.9 g/m*3 17.3 C 0 km/h
468 27-08-2004 19:24:03 16.9 C 11.08 g/m*3 16.9 C 0 km/h
469 27-08-2004 19:36:01 17 C 11 g/m*3 17 C 0 km/h
470 27-08-2004 19:48:01 17.1 C 11.06 g/m*3 17.1 C 0 km/h
471 27-08-2004 20:00:01 17.1 C 11.06 g/m*3 17.1 C 0 km/h
472 27-08-2004 20:12:01 17.1 C 11.21 g/m*3 17.1 C 0 km/h
473 27-08-2004 20:24:01 17 C 11.14 g/m*3 17 C 0 km/h
474 27-08-2004 20:36:01 17.1 C 11.06 g/m*3 17.1 C 0 km/h
475 27-08-2004 20:48:02 17.1 C 11.21 g/m*3 17.1 C 0 km/h
Sensor: Nr:Datum:Temp:Abs-Feuchte:Windchill:Wind:
Aussen-T/F 476 27-08-2004 21:00:02 17.1 C 11.21 g/m*3 17.1 C 0 km/h
477 27-08-2004 21:12:01 17.2 C 11.28 g/m*3 17.2 C 0 km/h
478 27-08-2004 21:24:02 17.3 C 11.05 g/m*3 17.3 C 0 km/h
479 27-08-2004 21:36:01 17.8 C 10.78 g/m*3 17.8 C 0 km/h
480 27-08-2004 21:48:01 17.9 C 10.69 g/m*3 17.9 C 0 km/h
481 27-08-2004 22:00:01 18 C 10.44 g/m*3 18 C 0 km/h
482 27-08-2004 22:12:01 18.2 C 10.57 g/m*3 18.2 C 0 km/h
483 27-08-2004 22:24:00 18.4 C 10.7 g/m*3 18.4 C 0 km/h
484 27-08-2004 22:36:00 18.1 C 10.66 g/m*3 18.1 C 0 km/h
485 27-08-2004 22:48:01 18.1 C 10.66 g/m*3 18.1 C 0 km/h
486 27-08-2004 23:00:01 18.1 C 10.66 g/m*3 18.1 C 0 km/h
487 27-08-2004 23:12:01 17.9 C 10.99 g/m*3 17.9 C 0 km/h
488 27-08-2004 23:24:00 17.7 C 10.86 g/m*3 17.7 C 0 km/h
489 27-08-2004 23:36:01 17.8 C 10.93 g/m*3 17.8 C 0 km/h
490 27-08-2004 23:48:02 17.7 C 10.86 g/m*3 17.7 C 0 km/h
491 28-08-2004 00:00:02 17.7 C 10.86 g/m*3 17.7 C 0 km/h
492 28-08-2004 00:12:02 17.6 C 10.8 g/m*3 17.6 C 0 km/h
493 28-08-2004 00:24:01 17.5 C 11.03 g/m*3 17.5 C 0 km/h
494 28-08-2004 00:36:01 17.5 C 11.03 g/m*3 17.5 C 0 km/h
495 28-08-2004 00:48:01 17.2 C 11.28 g/m*3 17.2 C 0 km/h
496 28-08-2004 01:00:01 16.8 C 11.44 g/m*3 16.8 C 0 km/h
497 28-08-2004 01:12:01 16.6 C 11.44 g/m*3 16.6 C 0 km/h
498 28-08-2004 01:24:01 16.7 C 11.51 g/m*3 16.7 C 0 km/h
499 28-08-2004 01:36:01 16.7 C 11.65 g/m*3 16.7 C 0 km/h
500 28-08-2004 01:48:02 16.8 C 11.58 g/m*3 16.8 C 0 km/h
Sensor: Nr:Datum:Temp:Abs-Feuchte:Windchill:Wind:
Aussen-T/F 501 28-08-2004 02:00:02 16.9 C 11.51 g/m*3 16.9 C 0 km/h
502 28-08-2004 02:12:02 17 C 11.29 g/m*3 17 C 0 km/h
503 28-08-2004 02:24:02 17 C 11.29 g/m*3 17 C 0 km/h
504 28-08-2004 02:36:01 17 C 11.29 g/m*3 17 C 0 km/h
505 28-08-2004 02:49:02 16.9 C 11.36 g/m*3 16.9 C 0 km/h
506 28-08-2004 03:01:02 16.9 C 11.36 g/m*3 16.9 C 0 km/h
507 28-08-2004 03:13:03 17 C 11.29 g/m*3 17 C 0 km/h
508 28-08-2004 03:25:03 17 C 11.14 g/m*3 17 C 0 km/h
509 28-08-2004 03:37:01 17 C 11.29 g/m*3 17 C 0 km/h
510 28-08-2004 03:49:01 17 C 11.29 g/m*3 17 C 0 km/h
511 28-08-2004 04:01:01 16.9 C 11.36 g/m*3 16.9 C 0 km/h
512 28-08-2004 04:13:01 16.9 C 11.51 g/m*3 16.9 C 0 km/h
513 28-08-2004 04:25:01 16.8 C 11.44 g/m*3 16.8 C 0 km/h
514 28-08-2004 04:37:00 16.6 C 11.58 g/m*3 16.6 C 0 km/h
515 28-08-2004 04:49:01 16.2 C 11.58 g/m*3 16.2 C 0 km/h
516 28-08-2004 05:01:01 16.1 C 11.65 g/m*3 16.1 C 0 km/h
517 28-08-2004 05:13:01 15.9 C 11.78 g/m*3 15.9 C 0 km/h
518 28-08-2004 05:25:01 15.8 C 11.85 g/m*3 15.8 C 0 km/h
519 28-08-2004 05:37:01 15.9 C 12.05 g/m*3 15.9 C 0 km/h
520 28-08-2004 05:49:02 15.8 C 11.98 g/m*3 15.8 C 0 km/h
521 28-08-2004 06:01:02 15.7 C 12.04 g/m*3 15.7 C 0 km/h
522 28-08-2004 06:13:02 15.7 C 12.18 g/m*3 15.7 C 0 km/h
523 28-08-2004 06:25:01 15.6 C 12.1 g/m*3 15.6 C 0 km/h
524 28-08-2004 06:37:01 15.6 C 12.23 g/m*3 15.6 C 0 km/h
525 28-08-2004 06:49:01 15.5 C 12.16 g/m*3 15.5 C 0 km/h
Sensor: Nr:Datum:Temp:Abs-Feuchte:Windchill:Wind:
Aussen-T/F 526 28-08-2004 07:01:01 15.5 C 12.16 g/m*3 15.5 C 0 km/h
527 28-08-2004 07:13:01 15.5 C 12.16 g/m*3 15.5 C 0 km/h
528 28-08-2004 07:25:00 15.9 C 12.46 g/m*3 15.9 C 0 km/h
529 28-08-2004 07:37:00 15.6 C 12.23 g/m*3 15.6 C 0 km/h
530 28-08-2004 07:49:02 15.6 C 12.23 g/m*3 15.6 C 0 km/h
531 28-08-2004 08:01:02 15.8 C 12.38 g/m*3 15.8 C 0 km/h
532 28-08-2004 08:13:02 15.8 C 12.38 g/m*3 15.8 C 0 km/h
533 28-08-2004 08:25:01 15.8 C 12.38 g/m*3 15.8 C 0 km/h
534 28-08-2004 08:37:01 16 C 12.4 g/m*3 16 C 0 km/h
535 28-08-2004 08:49:01 16.1 C 12.47 g/m*3 16.1 C 0 km/h
536 28-08-2004 09:01:01 16.2 C 12.41 g/m*3 16.2 C 0 km/h
537 28-08-2004 09:13:01 16 C 12.26 g/m*3 16 C 0 km/h
538 28-08-2004 09:25:00 16 C 12.26 g/m*3 16 C 0 km/h
539 28-08-2004 09:37:00 16 C 12.26 g/m*3 16 C 0 km/h
540 28-08-2004 09:49:01 16 C 12.26 g/m*3 16 C 0 km/h
541 28-08-2004 10:01:01 16.2 C 12.41 g/m*3 16.2 C 0 km/h
542 28-08-2004 10:13:01 16.2 C 12.27 g/m*3 16.2 C 0 km/h
543 28-08-2004 10:25:01 16.1 C 12.2 g/m*3 16.1 C 0 km/h
544 28-08-2004 10:37:01 16 C 12.13 g/m*3 16 C 0 km/h
545 28-08-2004 10:49:01 16.1 C 12.2 g/m*3 16.1 C 0 km/h
546 28-08-2004 11:01:01 16 C 12.13 g/m*3 16 C 0 km/h
547 28-08-2004 11:13:01 16.1 C 12.2 g/m*3 16.1 C 0 km/h
548 28-08-2004 11:25:00 16.4 C 12.42 g/m*3 16.4 C 0 km/h
549 28-08-2004 11:37:00 16.6 C 12.71 g/m*3 16.6 C 0 km/h
550 28-08-2004 11:49:01 16.9 C 12.94 g/m*3 16.9 C 0 km/h
Sensor: Nr:Datum:Temp:Abs-Feuchte:Windchill:Wind:
Aussen-T/F 551 28-08-2004 12:01:01 16.7 C 12.65 g/m*3 16.7 C 0 km/h
552 28-08-2004 12:13:01 17 C 12.73 g/m*3 17 C 0 km/h
553 28-08-2004 12:25:00 17.4 C 12.89 g/m*3 17.4 C 0 km/h
554 28-08-2004 12:37:01 17.3 C 12.82 g/m*3 17.3 C 0 km/h
555 28-08-2004 12:49:02 17.4 C 12.89 g/m*3 17.4 C 0 km/h
556 28-08-2004 13:01:03 17.9 C 13.13 g/m*3 17.9 C 0 km/h
557 28-08-2004 13:13:03 18.3 C 13.13 g/m*3 18.3 C 0 km/h
558 28-08-2004 13:25:01 18.8 C 13.05 g/m*3 18.8 C 0 km/h
559 28-08-2004 13:37:01 18.6 C 12.89 g/m*3 18.6 C 0 km/h
560 28-08-2004 13:49:01 19.7 C 13.08 g/m*3 19.7 C 0 km/h
561 28-08-2004 14:01:01 19.7 C 12.4 g/m*3 19.7 C 0 km/h
562 28-08-2004 14:13:01 19.7 C 12.4 g/m*3 19.7 C 0 km/h
563 28-08-2004 14:25:00 19.8 C 12.64 g/m*3 19.8 C 0 km/h
564 28-08-2004 14:37:00 20.1 C 12.52 g/m*3 20.1 C 0 km/h
565 28-08-2004 14:49:02 21.2 C 12.6 g/m*3 21.2 C 0 km/h
566 28-08-2004 15:01:02 20.9 C 12.75 g/m*3 20.9 C 0 km/h
567 28-08-2004 15:13:02 21.5 C 12.26 g/m*3 21.5 C 0 km/h
568 28-08-2004 15:25:02 21.9 C 12.35 g/m*3 21.9 C 0 km/h
569 28-08-2004 15:37:01 22 C 12.03 g/m*3 22 C 0 km/h
570 28-08-2004 15:49:01 21.9 C 11.96 g/m*3 21.9 C 0 km/h
571 28-08-2004 16:01:01 22.1 C 12.1 g/m*3 22.1 C 0 km/h
572 28-08-2004 16:13:01 21.8 C 11.9 g/m*3 21.8 C 0 km/h
573 28-08-2004 16:25:00 21.7 C 11.64 g/m*3 21.7 C 0 km/h
574 28-08-2004 16:37:00 21.6 C 11.76 g/m*3 21.6 C 0 km/h
575 28-08-2004 16:49:01 21.3 C 11.37 g/m*3 21.3 C 0 km/h
Sensor: Nr:Datum:Temp:Abs-Feuchte:Windchill:Wind:
Aussen-T/F 576 28-08-2004 17:01:01 21.3 C 11.74 g/m*3 21.3 C 0 km/h
577 28-08-2004 17:13:01 21.2 C 11.86 g/m*3 21.2 C 0 km/h
578 28-08-2004 17:25:01 20.8 C 11.95 g/m*3 20.8 C 0 km/h
579 28-08-2004 17:37:01 20.8 C 12.31 g/m*3 20.8 C 0 km/h
580 28-08-2004 17:49:01 20.8 C 12.49 g/m*3 20.8 C 0 km/h
581 28-08-2004 18:01:01 20.5 C 12.46 g/m*3 20.5 C 0 km/h
582 28-08-2004 18:13:01 20.2 C 12.59 g/m*3 20.2 C 0 km/h
583 28-08-2004 18:25:01 19.9 C 12.71 g/m*3 19.9 C 0 km/h
584 28-08-2004 18:37:00 19.4 C 12.85 g/m*3 19.4 C 0 km/h
585 28-08-2004 18:49:01 18.9 C 13.45 g/m*3 18.9 C 0 km/h
586 28-08-2004 19:01:01 18.6 C 13.53 g/m*3 18.6 C 0 km/h
587 28-08-2004 19:13:01 18.4 C 13.68 g/m*3 18.4 C 0 km/h
588 28-08-2004 19:25:00 18.2 C 13.68 g/m*3 18.2 C 0 km/h
589 28-08-2004 19:37:00 18 C 13.52 g/m*3 18 C 0 km/h
590 28-08-2004 19:49:02 17.9 C 13.59 g/m*3 17.9 C 0 km/h
591 28-08-2004 20:01:02 17.7 C 13.58 g/m*3 17.7 C 0 km/h
592 28-08-2004 20:13:02 17.4 C 13.34 g/m*3 17.4 C 0 km/h
593 28-08-2004 20:25:01 17.1 C 12.96 g/m*3 17.1 C 0 km/h
594 28-08-2004 20:37:01 17.1 C 12.96 g/m*3 17.1 C 0 km/h
595 28-08-2004 20:49:01 17 C 12.59 g/m*3 17 C 0 km/h
596 28-08-2004 21:01:01 17 C 12.59 g/m*3 17 C 0 km/h
597 28-08-2004 21:13:01 17 C 12.59 g/m*3 17 C 0 km/h
598 28-08-2004 21:25:00 16.9 C 12.66 g/m*3 16.9 C 0 km/h
599 28-08-2004 21:37:00 16.8 C 12.72 g/m*3 16.8 C 0 km/h
600 28-08-2004 21:49:01 16.8 C 12.87 g/m*3 16.8 C 0 km/h
Sensor: Nr:Datum:Temp:Abs-Feuchte:Windchill:Wind:
Aussen-T/F 601 28-08-2004 22:01:02 16.8 C 12.87 g/m*3 16.8 C 0 km/h
602 28-08-2004 22:13:02 16.7 C 12.79 g/m*3 16.7 C 0 km/h
603 28-08-2004 22:25:01 16.6 C 12.71 g/m*3 16.6 C 0 km/h
604 28-08-2004 22:37:01 16.6 C 12.71 g/m*3 16.6 C 0 km/h
605 28-08-2004 22:49:01 16.6 C 12.71 g/m*3 16.6 C 0 km/h
606 28-08-2004 23:01:01 16.4 C 12.56 g/m*3 16.4 C 0 km/h
607 28-08-2004 23:13:01 16.5 C 12.78 g/m*3 16.5 C 0 km/h
608 28-08-2004 23:25:01 16.4 C 12.7 g/m*3 16.4 C 0 km/h
609 28-08-2004 23:37:00 16.4 C 12.7 g/m*3 16.4 C 0 km/h
610 28-08-2004 23:49:01 16.4 C 12.7 g/m*3 16.4 C 0 km/h
611 29-08-2004 00:01:01 16.5 C 12.92 g/m*3 16.5 C 0 km/h
612 29-08-2004 00:13:01 16.4 C 12.84 g/m*3 16.4 C 0 km/h
613 29-08-2004 00:25:01 16.4 C 12.7 g/m*3 16.4 C 0 km/h
614 29-08-2004 00:37:01 16.4 C 12.7 g/m*3 16.4 C 0 km/h
615 29-08-2004 00:49:01 16.5 C 12.64 g/m*3 16.5 C 0 km/h
616 29-08-2004 01:01:01 16.6 C 12.71 g/m*3 16.6 C 0 km/h
617 29-08-2004 01:13:01 16.6 C 12.57 g/m*3 16.6 C 0 km/h
618 29-08-2004 01:25:01 16.3 C 12.49 g/m*3 16.3 C 0 km/h
619 29-08-2004 01:37:00 16.1 C 12.34 g/m*3 16.1 C 0 km/h
620 29-08-2004 01:49:01 15.8 C 12.25 g/m*3 15.8 C 0 km/h
621 29-08-2004 02:01:01 15.8 C 12.25 g/m*3 15.8 C 0 km/h
622 29-08-2004 02:13:01 15.7 C 12.18 g/m*3 15.7 C 0 km/h
623 29-08-2004 02:25:00 15.7 C 12.18 g/m*3 15.7 C 0 km/h
624 29-08-2004 02:37:00 15.7 C 12.18 g/m*3 15.7 C 0 km/h
625 29-08-2004 02:50:03 15.6 C 12.1 g/m*3 15.6 C 0 km/h
Sensor: Nr:Datum:Temp:Abs-Feuchte:Windchill:Wind:
Aussen-T/F 626 29-08-2004 03:02:03 15.6 C 12.1 g/m*3 15.6 C 0 km/h
627 29-08-2004 03:14:03 15.4 C 11.96 g/m*3 15.4 C 0 km/h
628 29-08-2004 03:26:03 15.4 C 12.09 g/m*3 15.4 C 0 km/h
629 29-08-2004 03:38:01 15.4 C 12.09 g/m*3 15.4 C 0 km/h
630 29-08-2004 03:50:01 15.4 C 11.96 g/m*3 15.4 C 0 km/h
631 29-08-2004 04:02:02 15.4 C 11.96 g/m*3 15.4 C 0 km/h
632 29-08-2004 04:14:02 15.5 C 11.9 g/m*3 15.5 C 0 km/h
633 29-08-2004 04:26:01 15.7 C 11.91 g/m*3 15.7 C 0 km/h
634 29-08-2004 04:38:01 15.8 C 11.85 g/m*3 15.8 C 0 km/h
635 29-08-2004 04:50:01 15.7 C 11.77 g/m*3 15.7 C 0 km/h
636 29-08-2004 05:02:01 15.7 C 11.91 g/m*3 15.7 C 0 km/h
637 29-08-2004 05:14:01 15.8 C 11.98 g/m*3 15.8 C 0 km/h
638 29-08-2004 05:26:00 15.9 C 12.05 g/m*3 15.9 C 0 km/h
639 29-08-2004 05:38:00 15.9 C 11.92 g/m*3 15.9 C 0 km/h
640 29-08-2004 05:50:01 15.6 C 11.7 g/m*3 15.6 C 0 km/h
641 29-08-2004 06:02:01 15.9 C 11.92 g/m*3 15.9 C 0 km/h
642 29-08-2004 06:14:01 15.8 C 11.85 g/m*3 15.8 C 0 km/h
643 29-08-2004 06:26:00 15.6 C 11.84 g/m*3 15.6 C 0 km/h
644 29-08-2004 06:38:00 15.1 C 11.48 g/m*3 15.1 C 0 km/h
645 29-08-2004 06:50:02 14.9 C 11.6 g/m*3 14.9 C 0 km/h
646 29-08-2004 07:02:02 14.8 C 11.53 g/m*3 14.8 C 0 km/h
647 29-08-2004 07:14:02 14.8 C 11.53 g/m*3 14.8 C 0 km/h
648 29-08-2004 07:26:01 14.9 C 11.73 g/m*3 14.9 C 0 km/h
649 29-08-2004 07:38:01 15 C 11.67 g/m*3 15 C 0 km/h
650 29-08-2004 07:50:01 15.3 C 12.01 g/m*3 15.3 C 0 km/h
Sensor: Nr:Datum:Temp:Abs-Feuchte:Windchill:Wind:
Aussen-T/F 651 29-08-2004 08:02:01 15.7 C 12.31 g/m*3 15.7 C 0 km/h
652 29-08-2004 08:14:01 16 C 12.4 g/m*3 16 C 0 km/h
653 29-08-2004 08:26:00 15.9 C 12.46 g/m*3 15.9 C 0 km/h
654 29-08-2004 08:38:00 16.2 C 12.41 g/m*3 16.2 C 0 km/h
655 29-08-2004 08:50:01 16.5 C 12.5 g/m*3 16.5 C 0 km/h
656 29-08-2004 09:02:02 16.8 C 12.58 g/m*3 16.8 C 0 km/h
657 29-08-2004 09:14:02 17 C 12.3 g/m*3 17 C 0 km/h
658 29-08-2004 09:26:01 17.5 C 12.37 g/m*3 17.5 C 0 km/h
659 29-08-2004 09:38:01 18.1 C 12.52 g/m*3 18.1 C 0 km/h
660 29-08-2004 09:50:01 18.3 C 12.51 g/m*3 18.3 C 0 km/h
661 29-08-2004 10:02:01 18.5 C 12.5 g/m*3 18.5 C 0 km/h
662 29-08-2004 10:14:01 18.7 C 12.17 g/m*3 18.7 C 0 km/h
663 29-08-2004 10:26:00 18.9 C 12.15 g/m*3 18.9 C 0 km/h
664 29-08-2004 10:38:00 19.2 C 12.04 g/m*3 19.2 C 0 km/h
665 29-08-2004 10:50:01 19.2 C 11.71 g/m*3 19.2 C 0 km/h
666 29-08-2004 11:02:01 19.2 C 11.87 g/m*3 19.2 C 0 km/h
667 29-08-2004 11:14:01 19.4 C 11.68 g/m*3 19.4 C 0 km/h
668 29-08-2004 11:26:00 20 C 11.92 g/m*3 20 C 0 km/h
669 29-08-2004 11:38:00 20 C 11.41 g/m*3 20 C 0 km/h
670 29-08-2004 11:50:02 20 C 11.23 g/m*3 20 C 0 km/h
671 29-08-2004 12:02:02 20.8 C 11.59 g/m*3 20.8 C 0 km/h
672 29-08-2004 12:14:02 20.8 C 11.23 g/m*3 20.8 C 0 km/h
673 29-08-2004 12:26:01 20.9 C 11.47 g/m*3 20.9 C 0 km/h
674 29-08-2004 12:38:01 21.5 C 10.75 g/m*3 21.5 C 0 km/h
675 29-08-2004 12:50:01 21.8 C 9.98 g/m*3 21.8 C 0 km/h
Sensor: Nr:Datum:Temp:Abs-Feuchte:Windchill:Wind:
Aussen-T/F 676 29-08-2004 13:02:01 22.2 C 9.82 g/m*3 22.2 C 0 km/h
677 29-08-2004 13:14:01 22.5 C 9.79 g/m*3 22.5 C 0 km/h
678 29-08-2004 13:26:00 22.5 C 9.39 g/m*3 22.5 C 0 km/h
679 29-08-2004 13:38:00 22.6 C 9.24 g/m*3 22.6 C 0 km/h
680 29-08-2004 13:50:02 22.9 C 9.61 g/m*3 22.9 C 0 km/h
681 29-08-2004 14:02:02 22.9 C 9.81 g/m*3 22.9 C 0 km/h
682 29-08-2004 14:14:02 23.8 C 9.9 g/m*3 23.8 C 0 km/h
683 29-08-2004 14:26:02 23.3 C 9.62 g/m*3 23.3 C 0 km/h
684 29-08-2004 14:38:01 22.9 C 9.81 g/m*3 22.9 C 0 km/h
685 29-08-2004 14:50:01 22.9 C 9.2 g/m*3 22.9 C 0 km/h
686 29-08-2004 15:02:01 23.1 C 8.89 g/m*3 23.1 C 0 km/h
687 29-08-2004 15:14:01 23.4 C 9.46 g/m*3 23.4 C 0 km/h
688 29-08-2004 15:26:00 23.3 C 8.99 g/m*3 23.3 C 0 km/h
689 29-08-2004 15:38:00 23.1 C 9.72 g/m*3 23.1 C 0 km/h
690 29-08-2004 15:50:01 22.9 C 9.61 g/m*3 22.9 C 0 km/h
691 29-08-2004 16:02:01 23.3 C 9.2 g/m*3 23.3 C 0 km/h
692 29-08-2004 16:14:01 23.1 C 9.51 g/m*3 23.1 C 0 km/h
693 29-08-2004 16:26:00 24.3 C 9.52 g/m*3 24.3 C 0 km/h
694 29-08-2004 16:38:01 23.7 C 9.41 g/m*3 23.7 C 0 km/h
695 29-08-2004 16:50:01 23.8 C 9.68 g/m*3 23.8 C 0 km/h
696 29-08-2004 17:02:01 23.1 C 9.51 g/m*3 23.1 C 0 km/h
697 29-08-2004 17:14:01 23.4 C 9.88 g/m*3 23.4 C 0 km/h
698 29-08-2004 17:26:01 23.4 C 9.88 g/m*3 23.4 C 0 km/h
699 29-08-2004 17:38:01 23.3 C 10.04 g/m*3 23.3 C 0 km/h
700 29-08-2004 17:50:01 22.9 C 10.01 g/m*3 22.9 C 0 km/h
Sensor: Nr:Datum:Temp:Abs-Feuchte:Windchill:Wind:
Aussen-T/F 701 29-08-2004 18:02:02 22.4 C 9.93 g/m*3 22.4 C 0 km/h
702 29-08-2004 18:14:02 23.5 C 10.15 g/m*3 23.5 C 0 km/h
703 29-08-2004 18:26:01 23.3 C 10.04 g/m*3 23.3 C 0 km/h
704 29-08-2004 18:38:00 22.9 C 10.01 g/m*3 22.9 C 0 km/h
705 29-08-2004 18:50:02 23.1 C 9.92 g/m*3 23.1 C 0 km/h
706 29-08-2004 19:02:02 22.1 C 9.76 g/m*3 22.1 C 0 km/h
707 29-08-2004 19:14:02 21.6 C 10.62 g/m*3 21.6 C 0 km/h
708 29-08-2004 19:26:02 21.1 C 10.5 g/m*3 21.1 C 0 km/h
709 29-08-2004 19:38:01 20.6 C 10.92 g/m*3 20.6 C 0 km/h
710 29-08-2004 19:50:01 20 C 10.71 g/m*3 20 C 0 km/h
711 29-08-2004 20:02:01 19.6 C 10.8 g/m*3 19.6 C 0 km/h
712 29-08-2004 20:14:01 19.2 C 10.55 g/m*3 19.2 C 0 km/h
713 29-08-2004 20:26:01 18.7 C 10.73 g/m*3 18.7 C 0 km/h
714 29-08-2004 20:38:00 18.7 C 10.89 g/m*3 18.7 C 0 km/h
715 29-08-2004 20:50:01 18.8 C 11.27 g/m*3 18.8 C 0 km/h
716 29-08-2004 21:02:02 18.7 C 11.37 g/m*3 18.7 C 0 km/h
717 29-08-2004 21:14:02 18.8 C 11.43 g/m*3 18.8 C 0 km/h
718 29-08-2004 21:26:01 18.7 C 11.37 g/m*3 18.7 C 0 km/h
719 29-08-2004 21:38:01 18.5 C 11.39 g/m*3 18.5 C 0 km/h
720 29-08-2004 21:50:01 18.3 C 11.26 g/m*3 18.3 C 0 km/h
721 29-08-2004 22:02:01 18.2 C 11.35 g/m*3 18.2 C 0 km/h
722 29-08-2004 22:14:01 18.2 C 11.5 g/m*3 18.2 C 0 km/h
723 29-08-2004 22:26:00 17.9 C 11.45 g/m*3 17.9 C 0 km/h
724 29-08-2004 22:38:00 17.9 C 11.6 g/m*3 17.9 C 0 km/h
725 29-08-2004 22:50:01 18 C 11.21 g/m*3 18 C 0 km/h
Sensor: Nr:Datum:Temp:Abs-Feuchte:Windchill:Wind:
Aussen-T/F 726 29-08-2004 23:02:01 18 C 11.37 g/m*3 18 C 0 km/h
727 29-08-2004 23:14:01 18 C 11.37 g/m*3 18 C 0 km/h
728 29-08-2004 23:26:00 17.8 C 11.23 g/m*3 17.8 C 0 km/h
729 29-08-2004 23:38:01 17.7 C 11.32 g/m*3 17.7 C 0 km/h
730 29-08-2004 23:50:02 17.7 C 11.47 g/m*3 17.7 C 0 km/h
731 30-08-2004 00:02:02 17.8 C 11.54 g/m*3 17.8 C 0 km/h
732 30-08-2004 00:14:02 17.9 C 11.45 g/m*3 17.9 C 0 km/h
733 30-08-2004 00:26:02 17.9 C 11.6 g/m*3 17.9 C 0 km/h
734 30-08-2004 00:38:01 17.9 C 11.6 g/m*3 17.9 C 0 km/h
735 30-08-2004 00:50:01 17.8 C 11.38 g/m*3 17.8 C 0 km/h
736 30-08-2004 01:02:01 17.9 C 11.6 g/m*3 17.9 C 0 km/h
737 30-08-2004 01:14:01 18 C 11.21 g/m*3 18 C 0 km/h
738 30-08-2004 01:26:02 18 C 11.21 g/m*3 18 C 0 km/h
739 30-08-2004 01:38:02 17.8 C 11.23 g/m*3 17.8 C 0 km/h
740 30-08-2004 01:50:02 17.7 C 11.32 g/m*3 17.7 C 0 km/h
741 30-08-2004 02:02:02 17.7 C 11.16 g/m*3 17.7 C 0 km/h
742 30-08-2004 02:14:02 17.7 C 11.16 g/m*3 17.7 C 0 km/h
743 30-08-2004 02:26:02 17.6 C 11.1 g/m*3 17.6 C 0 km/h
744 30-08-2004 02:38:01 17.6 C 11.25 g/m*3 17.6 C 0 km/h
745 30-08-2004 02:51:03 17.6 C 10.95 g/m*3 17.6 C 0 km/h
746 30-08-2004 03:03:03 17 C 11.29 g/m*3 17 C 0 km/h
747 30-08-2004 03:15:03 16.3 C 11.52 g/m*3 16.3 C 0 km/h
748 30-08-2004 03:27:03 16.1 C 11.65 g/m*3 16.1 C 0 km/h
749 30-08-2004 03:39:01 15.9 C 11.78 g/m*3 15.9 C 0 km/h
750 30-08-2004 03:51:01 15.8 C 11.85 g/m*3 15.8 C 0 km/h
Sensor: Nr:Datum:Temp:Abs-Feuchte:Windchill:Wind:
Aussen-T/F 751 30-08-2004 04:03:01 15.8 C 11.85 g/m*3 15.8 C 0 km/h
752 30-08-2004 04:15:01 16.1 C 11.93 g/m*3 16.1 C 0 km/h
753 30-08-2004 04:27:01 15.1 C 11.09 g/m*3 15.1 C 0 km/h
754 30-08-2004 04:39:00 14.7 C 11.08 g/m*3 14.7 C 0 km/h
755 30-08-2004 04:51:01 14.5 C 11.07 g/m*3 14.5 C 0 km/h
756 30-08-2004 05:03:02 14.2 C 10.75 g/m*3 14.2 C 0 km/h
757 30-08-2004 05:15:01 13.9 C 10.55 g/m*3 13.9 C 0 km/h
758 30-08-2004 05:27:01 13.9 C 10.67 g/m*3 13.9 C 0 km/h
759 30-08-2004 05:39:01 13.8 C 10.6 g/m*3 13.8 C 0 km/h
760 30-08-2004 05:51:01 13.6 C 10.47 g/m*3 13.6 C 0 km/h
761 30-08-2004 06:03:01 13.6 C 10.47 g/m*3 13.6 C 0 km/h
762 30-08-2004 06:15:01 13.7 C 10.42 g/m*3 13.7 C 0 km/h
763 30-08-2004 06:27:01 13.6 C 10.24 g/m*3 13.6 C 0 km/h
764 30-08-2004 06:39:01 13.6 C 10.36 g/m*3 13.6 C 0 km/h
765 30-08-2004 06:51:01 13.7 C 10.3 g/m*3 13.7 C 0 km/h
766 30-08-2004 07:03:01 13.7 C 10.18 g/m*3 13.7 C 0 km/h
767 30-08-2004 07:15:01 13.7 C 10.18 g/m*3 13.7 C 0 km/h
768 30-08-2004 07:27:01 13.7 C 10.3 g/m*3 13.7 C 0 km/h
769 30-08-2004 07:39:01 13.8 C 10.37 g/m*3 13.8 C 0 km/h
770 30-08-2004 07:51:02 13.8 C 10.37 g/m*3 13.8 C 0 km/h
771 30-08-2004 08:03:02 14 C 10.25 g/m*3 14 C 0 km/h
772 30-08-2004 08:15:01 14.2 C 10.26 g/m*3 14.2 C 0 km/h
773 30-08-2004 08:27:01 14.4 C 10.14 g/m*3 14.4 C 0 km/h
774 30-08-2004 08:39:01 14.4 C 10.14 g/m*3 14.4 C 0 km/h
775 30-08-2004 08:51:01 14.6 C 10.01 g/m*3 14.6 C 0 km/h
Sensor: Nr:Datum:Temp:Abs-Feuchte:Windchill:Wind:
Aussen-T/F 776 30-08-2004 09:03:01 14.8 C 10.01 g/m*3 14.8 C 0 km/h
777 30-08-2004 09:15:01 14.9 C 10.07 g/m*3 14.9 C 0 km/h
778 30-08-2004 09:27:01 15 C 10 g/m*3 15 C 0 km/h
779 30-08-2004 09:39:00 15.2 C 9.86 g/m*3 15.2 C 0 km/h
780 30-08-2004 09:51:02 15.3 C 9.92 g/m*3 15.3 C 0 km/h
781 30-08-2004 10:03:02 15.6 C 10.11 g/m*3 15.6 C 0 km/h
782 30-08-2004 10:15:02 15.9 C 10.16 g/m*3 15.9 C 0 km/h
783 30-08-2004 10:27:02 16 C 9.81 g/m*3 16 C 0 km/h
784 30-08-2004 10:39:01 16 C 9.81 g/m*3 16 C 0 km/h
785 30-08-2004 10:51:02 16.1 C 10.01 g/m*3 16.1 C 0 km/h
786 30-08-2004 11:03:01 16.8 C 10.29 g/m*3 16.8 C 0 km/h
787 30-08-2004 11:15:00 16.5 C 9.97 g/m*3 16.5 C 0 km/h
788 30-08-2004 11:27:00 16.2 C 9.93 g/m*3 16.2 C 0 km/h
789 30-08-2004 11:39:00 14.7 C 10.2 g/m*3 14.7 C 0 km/h
790 30-08-2004 11:51:01 14.1 C 9.95 g/m*3 14.1 C 0 km/h
791 30-08-2004 12:03:01 14.4 C 10.26 g/m*3 14.4 C 0 km/h
792 30-08-2004 12:15:02 15 C 10.64 g/m*3 15 C 0 km/h
793 30-08-2004 12:27:02 16.1 C 11.51 g/m*3 16.1 C 0 km/h
794 30-08-2004 12:39:01 16.8 C 11.15 g/m*3 16.8 C 0 km/h
795 30-08-2004 12:51:01 17.8 C 10.62 g/m*3 17.8 C 0 km/h
796 30-08-2004 13:03:01 18.3 C 10.16 g/m*3 18.3 C 0 km/h
797 30-08-2004 13:15:00 18.5 C 9.97 g/m*3 18.5 C 0 km/h
798 30-08-2004 13:27:00 17.6 C 9.45 g/m*3 17.6 C 0 km/h
799 30-08-2004 13:39:00 18.7 C 9.77 g/m*3 18.7 C 0 km/h
800 30-08-2004 13:51:01 18.5 C 9.49 g/m*3 18.5 C 0 km/h
Sensor: Nr:Datum:Temp:Abs-Feuchte:Windchill:Wind:
Aussen-T/F 801 30-08-2004 14:03:01 17.1 C 9.75 g/m*3 17.1 C 0 km/h
802 30-08-2004 14:15:00 15.7 C 10.44 g/m*3 15.7 C 0 km/h
803 30-08-2004 14:27:00 16.2 C 10.76 g/m*3 16.2 C 0 km/h
804 30-08-2004 14:39:01 17.6 C 10.8 g/m*3 17.6 C 0 km/h
805 30-08-2004 14:51:02 18.6 C 10.5 g/m*3 18.6 C 0 km/h
806 30-08-2004 15:03:02 19.3 C 9.95 g/m*3 19.3 C 0 km/h
807 30-08-2004 15:15:01 18.4 C 9.44 g/m*3 18.4 C 0 km/h
808 30-08-2004 15:27:01 15.7 C 10.17 g/m*3 15.7 C 0 km/h
809 30-08-2004 15:39:01 14.7 C 10.2 g/m*3 14.7 C 0 km/h
810 30-08-2004 15:51:01 14 C 10.13 g/m*3 14 C 0 km/h
811 30-08-2004 16:03:01 13.9 C 10.55 g/m*3 13.9 C 0 km/h
812 30-08-2004 16:15:00 15.5 C 11.37 g/m*3 15.5 C 0 km/h
813 30-08-2004 16:27:00 17.2 C 11.57 g/m*3 17.2 C 0 km/h
814 30-08-2004 16:39:00 18.4 C 11.48 g/m*3 18.4 C 0 km/h
815 30-08-2004 16:51:01 19.5 C 11.92 g/m*3 19.5 C 0 km/h
816 30-08-2004 17:03:02 19.1 C 9.67 g/m*3 19.1 C 0 km/h
817 30-08-2004 17:15:02 18.8 C 10.15 g/m*3 18.8 C 0 km/h
818 30-08-2004 17:27:02 17.6 C 9.6 g/m*3 17.6 C 0 km/h
819 30-08-2004 17:39:01 17.6 C 9.9 g/m*3 17.6 C 0 km/h
820 30-08-2004 17:51:01 17.4 C 9.78 g/m*3 17.4 C 0 km/h
821 30-08-2004 18:03:01 15.7 C 10.03 g/m*3 15.7 C 0 km/h
822 30-08-2004 18:15:01 15.5 C 10.31 g/m*3 15.5 C 0 km/h
823 30-08-2004 18:27:01 15.9 C 10.02 g/m*3 15.9 C 0 km/h
824 30-08-2004 18:39:01 16.2 C 9.79 g/m*3 16.2 C 0 km/h
825 30-08-2004 18:51:01 16 C 9.67 g/m*3 16 C 0 km/h
Sensor: Nr:Datum:Temp:Abs-Feuchte:Windchill:Wind:
Aussen-T/F 826 30-08-2004 19:03:01 16.3 C 10.13 g/m*3 16.3 C 0 km/h
827 30-08-2004 19:15:01 16.4 C 10.05 g/m*3 16.4 C 0 km/h
828 30-08-2004 19:27:01 17.2 C 10.1 g/m*3 17.2 C 0 km/h
829 30-08-2004 19:39:01 17 C 9.26 g/m*3 17 C 0 km/h
830 30-08-2004 19:51:02 16.4 C 9.21 g/m*3 16.4 C 0 km/h
831 30-08-2004 20:03:02 15.7 C 9.23 g/m*3 15.7 C 0 km/h
832 30-08-2004 20:15:01 15.3 C 9.27 g/m*3 15.3 C 0 km/h
833 30-08-2004 20:27:01 15 C 9.36 g/m*3 15 C 0 km/h
834 30-08-2004 20:39:01 14.9 C 9.43 g/m*3 14.9 C 0 km/h
835 30-08-2004 20:51:01 14.8 C 9.37 g/m*3 14.8 C 0 km/h
836 30-08-2004 21:03:02 14.7 C 9.57 g/m*3 14.7 C 0 km/h
837 30-08-2004 21:15:00 14.4 C 9.64 g/m*3 14.4 C 0 km/h
838 30-08-2004 21:27:00 14.3 C 9.71 g/m*3 14.3 C 0 km/h
839 30-08-2004 21:39:00 14.4 C 9.77 g/m*3 14.4 C 0 km/h
840 30-08-2004 21:51:02 14.4 C 9.77 g/m*3 14.4 C 0 km/h
841 30-08-2004 22:03:02 14.5 C 9.83 g/m*3 14.5 C 0 km/h
842 30-08-2004 22:15:02 14.4 C 9.89 g/m*3 14.4 C 0 km/h
843 30-08-2004 22:27:02 14.3 C 9.83 g/m*3 14.3 C 0 km/h
844 30-08-2004 22:39:01 14.4 C 9.77 g/m*3 14.4 C 0 km/h
845 30-08-2004 22:51:01 14.2 C 10.01 g/m*3 14.2 C 0 km/h
846 30-08-2004 23:03:01 14.1 C 10.07 g/m*3 14.1 C 0 km/h
847 30-08-2004 23:15:01 13.5 C 10.18 g/m*3 13.5 C 0 km/h
848 30-08-2004 23:27:01 12.8 C 9.86 g/m*3 12.8 C 0 km/h
849 30-08-2004 23:39:00 12.8 C 10.08 g/m*3 12.8 C 0 km/h
850 30-08-2004 23:51:01 12.9 C 10.26 g/m*3 12.9 C 0 km/h
Sensor: Nr:Datum:Temp:Abs-Feuchte:Windchill:Wind:
Aussen-T/F 851 31-08-2004 00:03:01 13 C 10.32 g/m*3 13 C 0 km/h
852 31-08-2004 00:15:02 12.8 C 10.3 g/m*3 12.8 C 0 km/h
853 31-08-2004 00:27:03 12.6 C 9.96 g/m*3 12.6 C 0 km/h
854 31-08-2004 00:39:01 12.4 C 9.72 g/m*3 12.4 C 0 km/h
855 31-08-2004 00:51:02 12.2 C 9.5 g/m*3 12.2 C 0 km/h
856 31-08-2004 01:03:01 11.9 C 9.43 g/m*3 11.9 C 0 km/h
857 31-08-2004 01:15:02 11.7 C 9.31 g/m*3 11.7 C 0 km/h
858 31-08-2004 01:27:02 11.7 C 9.31 g/m*3 11.7 C 0 km/h
859 31-08-2004 01:39:02 11.6 C 9.25 g/m*3 11.6 C 0 km/h
860 31-08-2004 01:51:01 11.5 C 9.19 g/m*3 11.5 C 0 km/h
861 31-08-2004 02:03:01 11.5 C 9.09 g/m*3 11.5 C 0 km/h
862 31-08-2004 02:15:01 11.5 C 9.09 g/m*3 11.5 C 0 km/h
863 31-08-2004 02:27:01 11.4 C 8.93 g/m*3 11.4 C 0 km/h
864 31-08-2004 02:39:00 11.4 C 8.93 g/m*3 11.4 C 0 km/h
865 31-08-2004 02:52:03 11.3 C 8.87 g/m*3 11.3 C 0 km/h
866 31-08-2004 03:04:03 11.4 C 8.83 g/m*3 11.4 C 0 km/h
867 31-08-2004 03:16:03 11.3 C 8.87 g/m*3 11.3 C 0 km/h
868 31-08-2004 03:28:03 11.1 C 8.86 g/m*3 11.1 C 0 km/h
869 31-08-2004 03:40:01 11.3 C 8.98 g/m*3 11.3 C 0 km/h
870 31-08-2004 03:52:01 11.6 C 9.04 g/m*3 11.6 C 0 km/h
871 31-08-2004 04:04:01 11.9 C 8.9 g/m*3 11.9 C 0 km/h
872 31-08-2004 04:16:01 12.2 C 8.85 g/m*3 12.2 C 0 km/h
873 31-08-2004 04:28:01 12 C 8.74 g/m*3 12 C 0 km/h
874 31-08-2004 04:40:00 11.6 C 8.83 g/m*3 11.6 C 0 km/h
875 31-08-2004 04:52:02 11.4 C 8.83 g/m*3 11.4 C 0 km/h
Sensor: Nr:Datum:Temp:Abs-Feuchte:Windchill:Wind:
Aussen-T/F 876 31-08-2004 05:04:02 11.2 C 8.82 g/m*3 11.2 C 0 km/h
877 31-08-2004 05:16:01 11.3 C 8.87 g/m*3 11.3 C 0 km/h
878 31-08-2004 05:28:01 11.2 C 8.82 g/m*3 11.2 C 0 km/h
879 31-08-2004 05:40:01 11.4 C 8.93 g/m*3 11.4 C 0 km/h
880 31-08-2004 05:52:01 11.4 C 8.83 g/m*3 11.4 C 0 km/h
881 31-08-2004 06:04:01 11.4 C 8.72 g/m*3 11.4 C 0 km/h
882 31-08-2004 06:16:00 11.5 C 8.78 g/m*3 11.5 C 0 km/h
883 31-08-2004 06:28:00 11.5 C 8.68 g/m*3 11.5 C 0 km/h
884 31-08-2004 06:40:00 11.6 C 8.63 g/m*3 11.6 C 0 km/h
885 31-08-2004 06:52:01 11.6 C 8.63 g/m*3 11.6 C 0 km/h
886 31-08-2004 07:04:02 11.5 C 8.57 g/m*3 11.5 C 0 km/h
887 31-08-2004 07:16:01 11.4 C 8.52 g/m*3 11.4 C 0 km/h
888 31-08-2004 07:28:01 11.6 C 8.63 g/m*3 11.6 C 0 km/h
889 31-08-2004 07:40:01 11.8 C 8.63 g/m*3 11.8 C 0 km/h
890 31-08-2004 07:52:01 12 C 8.53 g/m*3 12 C 0 km/h
891 31-08-2004 08:04:01 12.3 C 8.58 g/m*3 12.3 C 0 km/h
892 31-08-2004 08:16:01 12.4 C 8.74 g/m*3 12.4 C 0 km/h
893 31-08-2004 08:28:01 12.5 C 8.69 g/m*3 12.5 C 0 km/h
894 31-08-2004 08:40:00 12.5 C 8.69 g/m*3 12.5 C 0 km/h
895 31-08-2004 08:52:01 12.5 C 8.69 g/m*3 12.5 C 0 km/h
896 31-08-2004 09:04:02 12.8 C 8.85 g/m*3 12.8 C 0 km/h
897 31-08-2004 09:16:01 12.9 C 8.9 g/m*3 12.9 C 0 km/h
898 31-08-2004 09:28:01 13.1 C 8.9 g/m*3 13.1 C 0 km/h
899 31-08-2004 09:40:01 13.9 C 9.11 g/m*3 13.9 C 0 km/h
900 31-08-2004 09:52:01 14.4 C 9.02 g/m*3 14.4 C 0 km/h
Sensor: Nr:Datum:Temp:Abs-Feuchte:Windchill:Wind:
Aussen-T/F 901 31-08-2004 10:04:01 14.7 C 9.19 g/m*3 14.7 C 0 km/h
902 31-08-2004 10:16:01 14.5 C 9.08 g/m*3 14.5 C 0 km/h
903 31-08-2004 10:28:01 15 C 9.23 g/m*3 15 C 0 km/h
904 31-08-2004 10:40:00 15.2 C 9.09 g/m*3 15.2 C 0 km/h
905 31-08-2004 10:52:01 15.5 C 9.25 g/m*3 15.5 C 0 km/h
906 31-08-2004 11:04:01 15.6 C 9.18 g/m*3 15.6 C 0 km/h
907 31-08-2004 11:16:00 16.2 C 9.24 g/m*3 16.2 C 0 km/h
908 31-08-2004 11:28:00 16.6 C 9.32 g/m*3 16.6 C 0 km/h
909 31-08-2004 11:40:00 16.9 C 9.21 g/m*3 16.9 C 0 km/h
910 31-08-2004 11:52:02 16.9 C 8.77 g/m*3 16.9 C 0 km/h
911 31-08-2004 12:04:02 16.9 C 8.49 g/m*3 16.9 C 0 km/h
912 31-08-2004 12:16:01 17.1 C 8.3 g/m*3 17.1 C 0 km/h
913 31-08-2004 12:28:01 17.2 C 8.2 g/m*3 17.2 C 0 km/h
914 31-08-2004 12:40:01 16.8 C 9.01 g/m*3 16.8 C 0 km/h
915 31-08-2004 12:52:01 17.1 C 8.59 g/m*3 17.1 C 0 km/h
916 31-08-2004 13:04:01 17.7 C 8.9 g/m*3 17.7 C 0 km/h
917 31-08-2004 13:16:00 18.3 C 8.29 g/m*3 18.3 C 0 km/h
918 31-08-2004 13:28:00 17.8 C 8.65 g/m*3 17.8 C 0 km/h
919 31-08-2004 13:40:00 17.7 C 9.05 g/m*3 17.7 C 0 km/h
920 31-08-2004 13:52:02 17.7 C 8.3 g/m*3 17.7 C 0 km/h
921 31-08-2004 14:04:02 17.4 C 7.85 g/m*3 17.4 C 0 km/h
922 31-08-2004 14:16:01 17.5 C 8.35 g/m*3 17.5 C 0 km/h
923 31-08-2004 14:28:01 18.5 C 8.07 g/m*3 18.5 C 0 km/h
924 31-08-2004 14:40:01 18.9 C 8.75 g/m*3 18.9 C 0 km/h
925 31-08-2004 14:52:01 19.7 C 8.32 g/m*3 19.7 C 0 km/h
Sensor: Nr:Datum:Temp:Abs-Feuchte:Windchill:Wind:
Aussen-T/F 926 31-08-2004 15:04:01 19.5 C 7.89 g/m*3 19.5 C 0 km/h
927 31-08-2004 15:16:00 19 C 7.82 g/m*3 19 C 0 km/h
928 31-08-2004 15:28:00 18.8 C 9.34 g/m*3 18.8 C 0 km/h
929 31-08-2004 15:40:00 18.8 C 9.5 g/m*3 18.8 C 0 km/h
930 31-08-2004 15:52:01 18.1 C 9.27 g/m*3 18.1 C 0 km/h
931 31-08-2004 16:04:01 18.6 C 8.12 g/m*3 18.6 C 0 km/h
932 31-08-2004 16:16:01 19.2 C 7.91 g/m*3 19.2 C 0 km/h
933 31-08-2004 16:28:01 19.1 C 7.87 g/m*3 19.1 C 0 km/h
934 31-08-2004 16:40:01 18.8 C 8.7 g/m*3 18.8 C 0 km/h
935 31-08-2004 16:52:01 18.7 C 7.84 g/m*3 18.7 C 0 km/h
936 31-08-2004 17:04:01 18.9 C 8.26 g/m*3 18.9 C 0 km/h
937 31-08-2004 17:16:00 19.3 C 8.63 g/m*3 19.3 C 0 km/h
938 31-08-2004 17:28:00 19.6 C 8.61 g/m*3 19.6 C 0 km/h
939 31-08-2004 17:40:00 19.1 C 8.03 g/m*3 19.1 C 0 km/h
940 31-08-2004 17:52:01 19.4 C 8.01 g/m*3 19.4 C 0 km/h
941 31-08-2004 18:04:02 19.2 C 7.59 g/m*3 19.2 C 0 km/h
942 31-08-2004 18:16:01 18.9 C 7.29 g/m*3 18.9 C 0 km/h
943 31-08-2004 18:28:01 19.4 C 7.84 g/m*3 19.4 C 0 km/h
944 31-08-2004 18:40:01 19.1 C 8.36 g/m*3 19.1 C 0 km/h
945 31-08-2004 18:52:01 18.4 C 8.18 g/m*3 18.4 C 0 km/h
946 31-08-2004 19:04:01 18 C 7.68 g/m*3 18 C 0 km/h
947 31-08-2004 19:16:00 17.4 C 7.71 g/m*3 17.4 C 0 km/h
948 31-08-2004 19:28:00 17.2 C 7.91 g/m*3 17.2 C 0 km/h
949 31-08-2004 19:40:00 16.4 C 8.1 g/m*3 16.4 C 0 km/h
950 31-08-2004 19:52:01 16.3 C 8.19 g/m*3 16.3 C 0 km/h
Sensor: Nr:Datum:Temp:Abs-Feuchte:Windchill:Wind:
Aussen-T/F 951 31-08-2004 20:04:01 16.1 C 7.68 g/m*3 16.1 C 0 km/h
952 31-08-2004 20:16:01 15.9 C 7.85 g/m*3 15.9 C 0 km/h
953 31-08-2004 20:28:01 15.8 C 8.21 g/m*3 15.8 C 0 km/h
954 31-08-2004 20:40:01 15.8 C 8.08 g/m*3 15.8 C 0 km/h
955 31-08-2004 20:52:02 15.7 C 8.16 g/m*3 15.7 C 0 km/h
956 31-08-2004 21:04:02 15.8 C 8.08 g/m*3 15.8 C 0 km/h
957 31-08-2004 21:16:03 15.7 C 8.16 g/m*3 15.7 C 0 km/h
958 31-08-2004 21:28:03 15.6 C 8.51 g/m*3 15.6 C 0 km/h
959 31-08-2004 21:40:02 15.3 C 8.62 g/m*3 15.3 C 0 km/h
960 31-08-2004 21:52:02 15.1 C 8.64 g/m*3 15.1 C 0 km/h
961 31-08-2004 22:04:01 14.9 C 8.54 g/m*3 14.9 C 0 km/h
962 31-08-2004 22:16:02 14.8 C 8.74 g/m*3 14.8 C 0 km/h
963 31-08-2004 22:28:02 14.7 C 8.81 g/m*3 14.7 C 0 km/h
964 31-08-2004 22:40:02 14.5 C 8.95 g/m*3 14.5 C 0 km/h
965 31-08-2004 22:52:01 14.2 C 8.91 g/m*3 14.2 C 0 km/h
966 31-08-2004 23:04:01 13.8 C 8.82 g/m*3 13.8 C 0 km/h
967 31-08-2004 23:16:01 13.5 C 8.66 g/m*3 13.5 C 0 km/h
968 31-08-2004 23:28:01 13.3 C 8.55 g/m*3 13.3 C 0 km/h
969 31-08-2004 23:40:00 13.1 C 8.79 g/m*3 13.1 C 0 km/h
970 31-08-2004 23:52:01 13 C 8.73 g/m*3 13 C 0 km/h
971 01-09-2004 00:04:01 12.7 C 8.68 g/m*3 12.7 C 0 km/h
972 01-09-2004 00:16:01 12.6 C 8.63 g/m*3 12.6 C 0 km/h
973 01-09-2004 00:28:01 12.3 C 8.47 g/m*3 12.3 C 0 km/h
974 01-09-2004 00:40:01 12.1 C 8.36 g/m*3 12.1 C 0 km/h
975 01-09-2004 00:52:01 11.9 C 8.58 g/m*3 11.9 C 0 km/h
Sensor: Nr:Datum:Temp:Abs-Feuchte:Windchill:Wind:
Aussen-T/F 976 01-09-2004 01:04:01 11.7 C 8.47 g/m*3 11.7 C 0 km/h
977 01-09-2004 01:16:01 11.5 C 8.37 g/m*3 11.5 C 0 km/h
978 01-09-2004 01:28:01 11.1 C 8.16 g/m*3 11.1 C 0 km/h
979 01-09-2004 01:40:01 11 C 8.21 g/m*3 11 C 0 km/h
980 01-09-2004 01:52:01 11 C 8.31 g/m*3 11 C 0 km/h
981 01-09-2004 02:04:02 10.8 C 8.3 g/m*3 10.8 C 0 km/h
982 01-09-2004 02:16:02 10.8 C 8.4 g/m*3 10.8 C 0 km/h
983 01-09-2004 02:28:02 10.5 C 8.34 g/m*3 10.5 C 0 km/h
984 01-09-2004 02:40:01 10.2 C 8.18 g/m*3 10.2 C 0 km/h
985 01-09-2004 02:53:02 10.2 C 8.18 g/m*3 10.2 C 0 km/h
986 01-09-2004 03:05:02 10.1 C 8.23 g/m*3 10.1 C 0 km/h
987 01-09-2004 03:17:02 10 C 8.17 g/m*3 10 C 0 km/h
988 01-09-2004 03:29:02 9.8 C 8.16 g/m*3 9.8 C 0 km/h
989 01-09-2004 03:41:02 9.7 C 8.2 g/m*3 9.7 C 0 km/h
990 01-09-2004 03:53:02 9.8 C 8.26 g/m*3 9.8 C 0 km/h
991 01-09-2004 04:05:02 9.8 C 8.35 g/m*3 9.8 C 0 km/h
992 01-09-2004 04:17:01 9.8 C 8.35 g/m*3 9.8 C 0 km/h
993 01-09-2004 04:29:01 10 C 8.36 g/m*3 10 C 0 km/h
994 01-09-2004 04:41:01 10 C 8.36 g/m*3 10 C 0 km/h
995 01-09-2004 04:53:01 10 C 8.36 g/m*3 10 C 0 km/h
996 01-09-2004 05:05:01 9.8 C 8.35 g/m*3 9.8 C 0 km/h
997 01-09-2004 05:17:00 9.9 C 8.4 g/m*3 9.9 C 0 km/h
998 01-09-2004 05:29:00 10 C 8.36 g/m*3 10 C 0 km/h
999 01-09-2004 05:41:00 10 C 8.36 g/m*3 10 C 0 km/h
1000 01-09-2004 05:53:02 10 C 8.36 g/m*3 10 C 0 km/h
Sensor: Nr:Datum:Temp:Abs-Feuchte:Windchill:Wind:
Aussen-T/F 1001 01-09-2004 06:05:02 10 C 8.36 g/m*3 10 C 0 km/h
1002 01-09-2004 06:17:01 10 C 8.46 g/m*3 10 C 0 km/h
1003 01-09-2004 06:29:01 9.8 C 8.44 g/m*3 9.8 C 0 km/h
1004 01-09-2004 06:41:01 9.8 C 8.44 g/m*3 9.8 C 0 km/h
1005 01-09-2004 06:53:01 9.8 C 8.54 g/m*3 9.8 C 0 km/h
1006 01-09-2004 07:05:01 9.9 C 8.59 g/m*3 9.9 C 0 km/h
1007 01-09-2004 07:17:00 9.9 C 8.59 g/m*3 9.9 C 0 km/h
1008 01-09-2004 07:29:00 9.8 C 8.44 g/m*3 9.8 C 0 km/h
1009 01-09-2004 07:41:01 10 C 8.46 g/m*3 10 C 0 km/h
1010 01-09-2004 07:53:01 10.3 C 8.71 g/m*3 10.3 C 0 km/h
1011 01-09-2004 08:05:02 10.6 C 8.88 g/m*3 10.6 C 0 km/h
1012 01-09-2004 08:17:01 11 C 9.11 g/m*3 11 C 0 km/h
1013 01-09-2004 08:29:01 11.3 C 9.18 g/m*3 11.3 C 0 km/h
1014 01-09-2004 08:41:01 11.7 C 9.31 g/m*3 11.7 C 0 km/h
1015 01-09-2004 08:53:01 12.1 C 9.33 g/m*3 12.1 C 0 km/h
1016 01-09-2004 09:05:01 12.2 C 8.96 g/m*3 12.2 C 0 km/h
1017 01-09-2004 09:17:00 12.6 C 9.07 g/m*3 12.6 C 0 km/h
1018 01-09-2004 09:29:00 13 C 8.96 g/m*3 13 C 0 km/h
1019 01-09-2004 09:41:00 13.5 C 9.12 g/m*3 13.5 C 0 km/h
1020 01-09-2004 09:53:01 13.2 C 8.84 g/m*3 13.2 C 0 km/h
1021 01-09-2004 10:05:01 13.2 C 8.96 g/m*3 13.2 C 0 km/h
1022 01-09-2004 10:17:01 13.6 C 9.3 g/m*3 13.6 C 0 km/h
1023 01-09-2004 10:29:01 14.8 C 9.75 g/m*3 14.8 C 0 km/h
1024 01-09-2004 10:41:01 15.4 C 9.72 g/m*3 15.4 C 0 km/h
1025 01-09-2004 10:53:02 15.4 C 9.72 g/m*3 15.4 C 0 km/h
Sensor: Nr:Datum:Temp:Abs-Feuchte:Windchill:Wind:
Aussen-T/F 1026 01-09-2004 11:05:02 16 C 9.95 g/m*3 16 C 0 km/h
1027 01-09-2004 11:17:01 16.2 C 9.79 g/m*3 16.2 C 0 km/h
1028 01-09-2004 11:29:01 17 C 9.84 g/m*3 17 C 0 km/h
1029 01-09-2004 11:41:01 17.7 C 9.66 g/m*3 17.7 C 0 km/h
1030 01-09-2004 11:53:01 17.8 C 9.41 g/m*3 17.8 C 0 km/h
1031 01-09-2004 12:05:01 18.6 C 9.39 g/m*3 18.6 C 0 km/h
1032 01-09-2004 12:17:56 19.1 C 9.34 g/m*3 19.1 C 0 km/h
1033 01-09-2004 12:29:56 19.3 C 8.46 g/m*3 19.3 C 0 km/h
1034 01-09-2004 12:41:56 19.9 C 8.08 g/m*3 19.9 C 0 km/h
1035 01-09-2004 12:53:56 20.8 C 7.79 g/m*3 20.8 C 0 km/h
1036 01-09-2004 13:05:56 20.8 C 7.97 g/m*3 20.8 C 0 km/h
1037 01-09-2004 13:17:56 21.2 C 9.27 g/m*3 21.2 C 0 km/h
1038 01-09-2004 13:29:56 21.2 C 9.27 g/m*3 21.2 C 0 km/h
1039 01-09-2004 13:41:57 21 C 9.53 g/m*3 21 C 0 km/h
1040 01-09-2004 13:53:57 21.2 C 9.82 g/m*3 21.2 C 0 km/h
1041 01-09-2004 14:05:57 22.2 C 8.44 g/m*3 22.2 C 0 km/h
1042 01-09-2004 14:17:57 22 C 7.96 g/m*3 22 C 0 km/h
1043 01-09-2004 14:29:57 22.9 C 8.17 g/m*3 22.9 C 0 km/h
1044 01-09-2004 14:41:57 22.7 C 8.69 g/m*3 22.7 C 0 km/h
1045 01-09-2004 14:53:57 22.5 C 8.59 g/m*3 22.5 C 0 km/h
1046 01-09-2004 15:05:57 22.8 C 8.13 g/m*3 22.8 C 0 km/h
1047 01-09-2004 15:17:57 23.5 C 8.04 g/m*3 23.5 C 0 km/h
1048 01-09-2004 15:29:57 23.9 C 8.44 g/m*3 23.9 C 0 km/h
1049 01-09-2004 15:41:57 24.6 C 8.1 g/m*3 24.6 C 0 km/h
1050 01-09-2004 15:53:57 25.7 C 7.42 g/m*3 25.7 C 0 km/h
Sensor: Nr:Datum:Temp:Abs-Feuchte:Windchill:Wind:
Aussen-T/F 1051 01-09-2004 16:05:57 25.3 C 7.26 g/m*3 25.3 C 0 km/h
1052 01-09-2004 16:17:57 25.4 C 7.3 g/m*3 25.4 C 0 km/h
1053 01-09-2004 16:29:57 26 C 8.03 g/m*3 26 C 0 km/h
1054 01-09-2004 16:41:57 26.4 C 7.47 g/m*3 26.4 C 0 km/h
1055 01-09-2004 16:53:57 26.7 C 7.34 g/m*3 26.7 C 0 km/h
1056 01-09-2004 17:05:57 25.9 C 6.78 g/m*3 25.9 C 0 km/h
1057 01-09-2004 17:17:57 25.9 C 8.23 g/m*3 25.9 C 0 km/h
1058 01-09-2004 17:29:57 26 C 6.82 g/m*3 26 C 0 km/h
1059 01-09-2004 17:41:57 26.5 C 7.76 g/m*3 26.5 C 0 km/h
1060 01-09-2004 17:53:01 26.3 C 7.18 g/m*3 26.3 C 0 km/h
1061 01-09-2004 18:05:01 26.4 C 6.97 g/m*3 26.4 C 0 km/h
1062 01-09-2004 18:17:01 26 C 7.79 g/m*3 26 C 0 km/h
1063 01-09-2004 18:29:01 26.2 C 8.62 g/m*3 26.2 C 0 km/h
1064 01-09-2004 18:41:01 24.5 C 8.95 g/m*3 24.5 C 0 km/h
1065 01-09-2004 18:53:01 22.3 C 9.08 g/m*3 22.3 C 0 km/h
1066 01-09-2004 19:05:00 20.4 C 8.85 g/m*3 20.4 C 0 km/h
1067 01-09-2004 19:17:00 19.5 C 9.06 g/m*3 19.5 C 0 km/h
1068 01-09-2004 19:29:00 19.3 C 8.96 g/m*3 19.3 C 0 km/h
1069 01-09-2004 19:41:00 18.9 C 9.07 g/m*3 18.9 C 0 km/h
1070 01-09-2004 19:53:00 18.4 C 8.81 g/m*3 18.4 C 0 km/h
1071 01-09-2004 20:05:01 17.7 C 8.6 g/m*3 17.7 C 0 km/h
1072 01-09-2004 20:17:01 17 C 8.39 g/m*3 17 C 0 km/h
1073 01-09-2004 20:29:01 16.3 C 8.32 g/m*3 16.3 C 0 km/h
1074 01-09-2004 20:41:01 15.8 C 8.35 g/m*3 15.8 C 0 km/h
1075 01-09-2004 20:53:01 15.6 C 8.25 g/m*3 15.6 C 0 km/h
Sensor: Nr:Datum:Temp:Abs-Feuchte:Windchill:Wind:
Aussen-T/F 1076 01-09-2004 21:05:01 15.4 C 8.41 g/m*3 15.4 C 0 km/h
1077 01-09-2004 21:17:01 15.2 C 8.44 g/m*3 15.2 C 0 km/h
1078 01-09-2004 21:29:01 15.2 C 8.44 g/m*3 15.2 C 0 km/h
1079 01-09-2004 21:41:00 14.9 C 8.54 g/m*3 14.9 C 0 km/h
1080 01-09-2004 21:53:00 14.7 C 8.44 g/m*3 14.7 C 0 km/h
1081 01-09-2004 22:05:00 14.5 C 8.21 g/m*3 14.5 C 0 km/h
1082 01-09-2004 22:17:00 14.3 C 8.35 g/m*3 14.3 C 0 km/h
1083 01-09-2004 22:29:00 14.2 C 8.43 g/m*3 14.2 C 0 km/h
1084 01-09-2004 22:41:00 14 C 8.2 g/m*3 14 C 0 km/h
1085 01-09-2004 22:53:00 13.8 C 8.34 g/m*3 13.8 C 0 km/h
1086 01-09-2004 23:05:00 13.6 C 8.47 g/m*3 13.6 C 0 km/h
1087 01-09-2004 23:17:00 13.4 C 8.37 g/m*3 13.4 C 0 km/h
1088 01-09-2004 23:29:00 13.3 C 8.66 g/m*3 13.3 C 0 km/h
1089 01-09-2004 23:41:00 13.2 C 8.73 g/m*3 13.2 C 0 km/h
1090 01-09-2004 23:53:00 13 C 8.62 g/m*3 13 C 0 km/h
1091 02-09-2004 00:05:01 12.7 C 8.46 g/m*3 12.7 C 0 km/h
1092 02-09-2004 00:17:01 12.5 C 8.36 g/m*3 12.5 C 0 km/h
1093 02-09-2004 00:29:01 12.4 C 8.41 g/m*3 12.4 C 0 km/h
1094 02-09-2004 00:41:00 12.2 C 8.42 g/m*3 12.2 C 0 km/h
1095 02-09-2004 00:53:00 12.1 C 8.36 g/m*3 12.1 C 0 km/h
1096 02-09-2004 01:05:00 12 C 8.53 g/m*3 12 C 0 km/h
1097 02-09-2004 01:17:00 11.9 C 8.58 g/m*3 11.9 C 0 km/h
1098 02-09-2004 01:29:00 11.7 C 8.58 g/m*3 11.7 C 0 km/h
1099 02-09-2004 01:41:00 11.7 C 8.58 g/m*3 11.7 C 0 km/h
1100 02-09-2004 01:53:00 11.5 C 8.57 g/m*3 11.5 C 0 km/h
Sensor: Nr:Datum:Temp:Abs-Feuchte:Windchill:Wind:
Aussen-T/F 1101 02-09-2004 02:05:00 11.4 C 8.52 g/m*3 11.4 C 0 km/h
1102 02-09-2004 02:17:59 11.2 C 8.41 g/m*3 11.2 C 0 km/h
1103 02-09-2004 02:29:59 11 C 8.31 g/m*3 11 C 0 km/h
1104 02-09-2004 02:40:59 10.7 C 8.25 g/m*3 10.7 C 0 km/h
1105 02-09-2004 02:54:01 10.5 C 8.15 g/m*3 10.5 C 0 km/h
1106 02-09-2004 03:06:01 10.3 C 8.14 g/m*3 10.3 C 0 km/h
1107 02-09-2004 03:18:01 10.2 C 8.09 g/m*3 10.2 C 0 km/h
1108 02-09-2004 03:30:01 10.1 C 8.13 g/m*3 10.1 C 0 km/h
1109 02-09-2004 03:42:01 10 C 8.08 g/m*3 10 C 0 km/h
1110 02-09-2004 03:54:01 9.8 C 8.07 g/m*3 9.8 C 0 km/h
1111 02-09-2004 04:06:01 9.7 C 8.11 g/m*3 9.7 C 0 km/h
1112 02-09-2004 04:18:01 9.5 C 8.01 g/m*3 9.5 C 0 km/h
1113 02-09-2004 04:30:01 9.5 C 8.01 g/m*3 9.5 C 0 km/h
1114 02-09-2004 04:42:01 9.4 C 7.96 g/m*3 9.4 C 0 km/h
1115 02-09-2004 04:54:02 9.2 C 7.86 g/m*3 9.2 C 0 km/h
1116 02-09-2004 05:06:01 9.2 C 7.86 g/m*3 9.2 C 0 km/h
1117 02-09-2004 05:18:01 9.1 C 7.9 g/m*3 9.1 C 0 km/h
1118 02-09-2004 05:30:01 9.1 C 7.9 g/m*3 9.1 C 0 km/h
1119 02-09-2004 05:42:01 9.3 C 8 g/m*3 9.3 C 0 km/h
1120 02-09-2004 05:54:01 9.5 C 8.19 g/m*3 9.5 C 0 km/h
1121 02-09-2004 06:06:01 9.6 C 8.24 g/m*3 9.6 C 0 km/h
1122 02-09-2004 06:18:01 9.7 C 8.3 g/m*3 9.7 C 0 km/h
1123 02-09-2004 06:30:01 9.6 C 8.24 g/m*3 9.6 C 0 km/h
1124 02-09-2004 06:42:01 9.6 C 8.24 g/m*3 9.6 C 0 km/h
1125 02-09-2004 06:54:01 9.6 C 8.15 g/m*3 9.6 C 0 km/h
Sensor: Nr:Datum:Temp:Abs-Feuchte:Windchill:Wind:
Aussen-T/F 1126 02-09-2004 07:06:02 9.8 C 8.26 g/m*3 9.8 C 0 km/h
1127 02-09-2004 07:18:01 10 C 8.27 g/m*3 10 C 0 km/h
1128 02-09-2004 07:30:01 10.2 C 8.37 g/m*3 10.2 C 0 km/h
1129 02-09-2004 07:42:01 10.4 C 8.38 g/m*3 10.4 C 0 km/h
1130 02-09-2004 07:54:00 10.5 C 8.34 g/m*3 10.5 C 0 km/h
1131 02-09-2004 08:06:00 10.4 C 8.1 g/m*3 10.4 C 0 km/h
1132 02-09-2004 08:18:00 10.7 C 8.25 g/m*3 10.7 C 0 km/h
1133 02-09-2004 08:30:00 10.7 C 8.25 g/m*3 10.7 C 0 km/h
1134 02-09-2004 08:42:01 10.7 C 8.25 g/m*3 10.7 C 0 km/h
1135 02-09-2004 08:54:01 10.7 C 8.25 g/m*3 10.7 C 0 km/h
1136 02-09-2004 09:06:02 10.7 C 8.35 g/m*3 10.7 C 0 km/h
1137 02-09-2004 09:18:01 10.9 C 8.55 g/m*3 10.9 C 0 km/h
1138 02-09-2004 09:30:01 11.2 C 8.72 g/m*3 11.2 C 0 km/h
1139 02-09-2004 09:42:01 11.7 C 8.99 g/m*3 11.7 C 0 km/h
1140 02-09-2004 09:54:01 12.2 C 9.06 g/m*3 12.2 C 0 km/h
1141 02-09-2004 10:06:01 12.7 C 9.24 g/m*3 12.7 C 0 km/h
1142 02-09-2004 10:18:01 13.3 C 9.47 g/m*3 13.3 C 0 km/h
1143 02-09-2004 10:30:01 14 C 9.65 g/m*3 14 C 0 km/h
1144 02-09-2004 10:42:00 14.5 C 9.7 g/m*3 14.5 C 0 km/h
1145 02-09-2004 10:54:00 15.1 C 9.68 g/m*3 15.1 C 0 km/h
1146 02-09-2004 11:06:00 15.6 C 9.84 g/m*3 15.6 C 0 km/h
1147 02-09-2004 11:18:00 16.2 C 10.07 g/m*3 16.2 C 0 km/h
1148 02-09-2004 11:30:00 17 C 9.98 g/m*3 17 C 0 km/h
1149 02-09-2004 11:42:00 17.7 C 9.05 g/m*3 17.7 C 0 km/h
1150 02-09-2004 11:54:00 18.7 C 9.29 g/m*3 18.7 C 0 km/h
Sensor: Nr:Datum:Temp:Abs-Feuchte:Windchill:Wind:
Aussen-T/F 1151 02-09-2004 12:06:00 19.3 C 9.12 g/m*3 19.3 C 0 km/h
1152 02-09-2004 12:18:00 19.8 C 8.54 g/m*3 19.8 C 0 km/h
1153 02-09-2004 12:30:00 20.4 C 9.02 g/m*3 20.4 C 0 km/h
1154 02-09-2004 12:42:01 20.8 C 8.87 g/m*3 20.8 C 0 km/h
1155 02-09-2004 12:54:01 21.1 C 8.84 g/m*3 21.1 C 0 km/h
1156 02-09-2004 13:06:01 21.6 C 9.1 g/m*3 21.6 C 0 km/h
1157 02-09-2004 13:18:00 22.1 C 9.17 g/m*3 22.1 C 0 km/h
1158 02-09-2004 13:30:00 22.6 C 9.24 g/m*3 22.6 C 0 km/h
1159 02-09-2004 13:42:00 23.1 C 9.3 g/m*3 23.1 C 0 km/h
1160 02-09-2004 13:54:00 23.7 C 8.98 g/m*3 23.7 C 0 km/h
1161 02-09-2004 14:06:00 24.1 C 9.19 g/m*3 24.1 C 0 km/h
1162 02-09-2004 14:18:00 24.9 C 9.39 g/m*3 24.9 C 0 km/h
1163 02-09-2004 14:30:00 25.6 C 9.05 g/m*3 25.6 C 0 km/h
1164 02-09-2004 14:42:00 26.5 C 10.26 g/m*3 26.5 C 0 km/h
1165 02-09-2004 14:54:00 26.8 C 8.91 g/m*3 26.8 C 0 km/h
1166 02-09-2004 15:06:00 27.1 C 8.02 g/m*3 27.1 C 0 km/h
1167 02-09-2004 15:18:00 27.4 C 7.89 g/m*3 27.4 C 0 km/h
1168 02-09-2004 15:30:00 27.5 C 8.2 g/m*3 27.5 C 0 km/h
1169 02-09-2004 15:42:00 27.9 C 8.38 g/m*3 27.9 C 0 km/h
1170 02-09-2004 15:54:00 27.4 C 6.84 g/m*3 27.4 C 0 km/h
1171 02-09-2004 16:06:59 27.7 C 7.22 g/m*3 27.7 C 0 km/h
1172 02-09-2004 16:29:59 27.4 C 6.84 g/m*3 27.4 C 0 km/h
1173 02-09-2004 16:30:00 27.4 C 7.89 g/m*3 27.4 C 0 km/h
1174 02-09-2004 16:42:00 27.5 C 7.41 g/m*3 27.5 C 0 km/h
1175 02-09-2004 16:54:00 28.1 C 7.93 g/m*3 28.1 C 0 km/h
Sensor: Nr:Datum:Temp:Abs-Feuchte:Windchill:Wind:
Aussen-T/F 1176 02-09-2004 17:06:00 28.2 C 7.7 g/m*3 28.2 C 0 km/h
1177 02-09-2004 17:18:00 28.9 C 8.57 g/m*3 28.9 C 0 km/h
1178 02-09-2004 17:30:00 29.3 C 9.63 g/m*3 29.3 C 0 km/h
1179 02-09-2004 17:42:00 29.3 C 9.93 g/m*3 29.3 C 0 km/h
1180 02-09-2004 17:54:00 29.3 C 9.05 g/m*3 29.3 C 0 km/h
1181 02-09-2004 18:06:00 29.1 C 9.82 g/m*3 29.1 C 0 km/h
1182 02-09-2004 18:18:00 28.6 C 10.12 g/m*3 28.6 C 0 km/h
1183 02-09-2004 18:30:00 28.2 C 10.17 g/m*3 28.2 C 0 km/h
1184 02-09-2004 18:42:00 27.4 C 10.26 g/m*3 27.4 C 0 km/h
1185 02-09-2004 18:54:59 26.9 C 10.49 g/m*3 26.9 C 0 km/h
1186 02-09-2004 19:06:59 25.9 C 10.17 g/m*3 25.9 C 0 km/h
1187 02-09-2004 19:18:59 25.3 C 10.3 g/m*3 25.3 C 0 km/h
1188 02-09-2004 19:30:59 24.5 C 10.07 g/m*3 24.5 C 0 km/h
1189 02-09-2004 19:42:59 23.7 C 10.05 g/m*3 23.7 C 0 km/h
1190 02-09-2004 19:54:59 22 C 10.09 g/m*3 22 C 0 km/h
1191 02-09-2004 20:05:59 21 C 9.89 g/m*3 21 C 0 km/h
1192 02-09-2004 20:30:00 19.8 C 10.08 g/m*3 19.8 C 0 km/h
1193 02-09-2004 20:42:00 19.5 C 10.07 g/m*3 19.5 C 0 km/h
1194 02-09-2004 20:54:00 19.1 C 10.16 g/m*3 19.1 C 0 km/h
1195 02-09-2004 21:06:00 18.8 C 10.15 g/m*3 18.8 C 0 km/h
1196 02-09-2004 21:18:59 18.6 C 10.19 g/m*3 18.6 C 0 km/h
1197 02-09-2004 21:30:59 18.4 C 10.38 g/m*3 18.4 C 0 km/h
1198 02-09-2004 21:42:59 18.3 C 10.32 g/m*3 18.3 C 0 km/h
1199 02-09-2004 21:54:59 18 C 10.29 g/m*3 18 C 0 km/h
1200 02-09-2004 22:05:59 17.9 C 10.38 g/m*3 17.9 C 0 km/h
Sensor: Nr:Datum:Temp:Abs-Feuchte:Windchill:Wind:
Aussen-T/F 1201 02-09-2004 22:18:00 17.7 C 10.41 g/m*3 17.7 C 0 km/h
1202 02-09-2004 22:30:00 17.4 C 10.37 g/m*3 17.4 C 0 km/h
1203 02-09-2004 22:42:00 17.2 C 10.4 g/m*3 17.2 C 0 km/h
1204 02-09-2004 22:54:59 17.1 C 10.48 g/m*3 17.1 C 0 km/h
1205 02-09-2004 23:06:59 16.9 C 10.5 g/m*3 16.9 C 0 km/h
1206 02-09-2004 23:18:59 16.6 C 10.45 g/m*3 16.6 C 0 km/h
1207 02-09-2004 23:30:59 16.4 C 10.47 g/m*3 16.4 C 0 km/h
1208 02-09-2004 23:42:59 16.3 C 10.41 g/m*3 16.3 C 0 km/h
1209 02-09-2004 23:54:59 16 C 10.35 g/m*3 16 C 0 km/h
1210 03-09-2004 00:06:59 15.9 C 10.56 g/m*3 15.9 C 0 km/h
1211 03-09-2004 00:30:00 15.6 C 10.51 g/m*3 15.6 C 0 km/h
1212 03-09-2004 00:30:59 15.4 C 10.51 g/m*3 15.4 C 0 km/h
1213 03-09-2004 00:42:59 15.4 C 10.64 g/m*3 15.4 C 0 km/h
1214 03-09-2004 00:54:59 15.1 C 10.45 g/m*3 15.1 C 0 km/h
1215 03-09-2004 01:06:59 15.1 C 10.45 g/m*3 15.1 C 0 km/h
1216 03-09-2004 01:18:59 14.9 C 10.45 g/m*3 14.9 C 0 km/h
1217 03-09-2004 01:30:59 14.9 C 10.45 g/m*3 14.9 C 0 km/h
1218 03-09-2004 01:42:59 14.7 C 10.45 g/m*3 14.7 C 0 km/h
1219 03-09-2004 01:54:59 14.5 C 10.32 g/m*3 14.5 C 0 km/h
1220 03-09-2004 02:06:58 14.4 C 10.26 g/m*3 14.4 C 0 km/h
1221 03-09-2004 02:18:58 14.3 C 10.2 g/m*3 14.3 C 0 km/h
1222 03-09-2004 02:30:58 14.2 C 10.26 g/m*3 14.2 C 0 km/h
1223 03-09-2004 02:42:58 14 C 10.01 g/m*3 14 C 0 km/h
1224 03-09-2004 02:55:00 14 C 10.13 g/m*3 14 C 0 km/h
1225 03-09-2004 03:07:00 13.9 C 10.07 g/m*3 13.9 C 0 km/h
Sensor: Nr:Datum:Temp:Abs-Feuchte:Windchill:Wind:
Aussen-T/F 1226 03-09-2004 03:19:00 13.9 C 10.19 g/m*3 13.9 C 0 km/h
1227 03-09-2004 03:31:00 13.7 C 9.95 g/m*3 13.7 C 0 km/h
1228 03-09-2004 03:43:00 13.6 C 10 g/m*3 13.6 C 0 km/h
1229 03-09-2004 03:55:00 13.5 C 9.94 g/m*3 13.5 C 0 km/h
1230 03-09-2004 04:07:00 13.4 C 9.88 g/m*3 13.4 C 0 km/h
1231 03-09-2004 04:19:00 13.4 C 10 g/m*3 13.4 C 0 km/h
1232 03-09-2004 04:31:00 13.2 C 9.76 g/m*3 13.2 C 0 km/h
1233 03-09-2004 04:43:00 13.1 C 9.7 g/m*3 13.1 C 0 km/h
1234 03-09-2004 04:55:00 13.2 C 9.87 g/m*3 13.2 C 0 km/h
1235 03-09-2004 05:07:00 13 C 9.75 g/m*3 13 C 0 km/h
1236 03-09-2004 05:19:00 12.9 C 9.81 g/m*3 12.9 C 0 km/h
1237 03-09-2004 05:31:00 12.8 C 9.74 g/m*3 12.8 C 0 km/h
1238 03-09-2004 05:43:00 12.7 C 9.68 g/m*3 12.7 C 0 km/h
1239 03-09-2004 05:55:00 12.7 C 9.68 g/m*3 12.7 C 0 km/h
1240 03-09-2004 06:07:00 12.8 C 9.86 g/m*3 12.8 C 0 km/h
1241 03-09-2004 06:19:00 12.7 C 9.68 g/m*3 12.7 C 0 km/h
1242 03-09-2004 06:31:00 12.7 C 9.8 g/m*3 12.7 C 0 km/h
1243 03-09-2004 06:43:01 13 C 9.87 g/m*3 13 C 0 km/h
1244 03-09-2004 06:55:00 13 C 9.75 g/m*3 13 C 0 km/h
1245 03-09-2004 07:07:00 13 C 9.64 g/m*3 13 C 0 km/h
1246 03-09-2004 07:19:00 13 C 9.64 g/m*3 13 C 0 km/h
1247 03-09-2004 07:31:59 12.9 C 9.69 g/m*3 12.9 C 0 km/h
1248 03-09-2004 07:43:59 13.1 C 9.81 g/m*3 13.1 C 0 km/h
1249 03-09-2004 07:55:59 13.3 C 9.94 g/m*3 13.3 C 0 km/h
1250 03-09-2004 08:07:59 13.5 C 9.94 g/m*3 13.5 C 0 km/h
Sensor: Nr:Datum:Temp:Abs-Feuchte:Windchill:Wind:
Aussen-T/F 1251 03-09-2004 08:18:59 13.8 C 10.13 g/m*3 13.8 C 0 km/h
1252 03-09-2004 08:31:00 13.8 C 10.01 g/m*3 13.8 C 0 km/h
1253 03-09-2004 08:43:00 14.1 C 10.19 g/m*3 14.1 C 0 km/h
1254 03-09-2004 08:55:00 14.8 C 10.64 g/m*3 14.8 C 0 km/h
1255 03-09-2004 09:07:00 15.4 C 10.51 g/m*3 15.4 C 0 km/h
1256 03-09-2004 09:19:00 15.2 C 10.25 g/m*3 15.2 C 0 km/h
1257 03-09-2004 09:31:00 15.7 C 10.57 g/m*3 15.7 C 0 km/h
1258 03-09-2004 09:43:00 15.7 C 10.3 g/m*3 15.7 C 0 km/h
1259 03-09-2004 09:55:00 15.7 C 10.57 g/m*3 15.7 C 0 km/h
1260 03-09-2004 10:07:00 16.3 C 10.41 g/m*3 16.3 C 0 km/h
1261 03-09-2004 10:19:59 17.3 C 10.9 g/m*3 17.3 C 0 km/h
1262 03-09-2004 10:31:59 18.2 C 10.57 g/m*3 18.2 C 0 km/h
1263 03-09-2004 10:43:59 19.1 C 10.82 g/m*3 19.1 C 0 km/h
1264 03-09-2004 10:55:59 19.7 C 11.21 g/m*3 19.7 C 0 km/h
1265 03-09-2004 11:07:59 19.7 C 10.87 g/m*3 19.7 C 0 km/h
1266 03-09-2004 11:19:59 20 C 11.58 g/m*3 20 C 0 km/h
1267 03-09-2004 11:31:59 20.6 C 11.63 g/m*3 20.6 C 0 km/h
1268 03-09-2004 11:43:59 21.1 C 11.98 g/m*3 21.1 C 0 km/h
1269 03-09-2004 11:55:59 21.5 C 12.07 g/m*3 21.5 C 0 km/h
1270 03-09-2004 12:07:59 22 C 12.42 g/m*3 22 C 0 km/h
1271 03-09-2004 12:19:00 22.7 C 12.73 g/m*3 22.7 C 0 km/h
1272 03-09-2004 12:31:00 22.9 C 12.47 g/m*3 22.9 C 0 km/h
1273 03-09-2004 12:43:00 23.1 C 12.61 g/m*3 23.1 C 0 km/h
1274 03-09-2004 12:55:00 23.4 C 13.25 g/m*3 23.4 C 0 km/h
1275 03-09-2004 13:07:59 23.8 C 13.12 g/m*3 23.8 C 0 km/h
Sensor: Nr:Datum:Temp:Abs-Feuchte:Windchill:Wind:
Aussen-T/F 1276 03-09-2004 13:19:59 24.3 C 13.28 g/m*3 24.3 C 0 km/h
1277 03-09-2004 13:31:59 24.9 C 13.28 g/m*3 24.9 C 0 km/h
1278 03-09-2004 13:43:59 25.5 C 11.84 g/m*3 25.5 C 0 km/h
1279 03-09-2004 13:55:59 26.1 C 11.26 g/m*3 26.1 C 0 km/h
1280 03-09-2004 14:07:59 26.5 C 12.02 g/m*3 26.5 C 0 km/h
1281 03-09-2004 14:19:59 26.9 C 11.26 g/m*3 26.9 C 0 km/h
1282 03-09-2004 14:31:59 27.6 C 10.64 g/m*3 27.6 C 0 km/h
1283 03-09-2004 14:43:59 28.3 C 11.06 g/m*3 28.3 C 0 km/h
1284 03-09-2004 14:55:59 28.6 C 11.24 g/m*3 28.6 C 0 km/h
1285 03-09-2004 15:07:59 29.1 C 10.97 g/m*3 29.1 C 0 km/h
1286 03-09-2004 15:19:59 29.6 C 11.28 g/m*3 29.6 C 0 km/h
1287 03-09-2004 15:31:59 30 C 12.13 g/m*3 30 C 0 km/h
1288 03-09-2004 15:43:59 30.2 C 11.96 g/m*3 30.2 C 0 km/h
1289 03-09-2004 15:55:59 30.6 C 10.02 g/m*3 30.6 C 0 km/h
1290 03-09-2004 16:07:58 30.6 C 10.65 g/m*3 30.6 C 0 km/h
1291 03-09-2004 16:19:59 30.7 C 11.97 g/m*3 30.7 C 0 km/h
1292 03-09-2004 16:31:59 30.4 C 12.39 g/m*3 30.4 C 0 km/h
1293 03-09-2004 16:43:59 30.4 C 12.08 g/m*3 30.4 C 0 km/h
1294 03-09-2004 16:55:59 28.9 C 12.86 g/m*3 28.9 C 0 km/h
1295 03-09-2004 17:07:59 27.6 C 13.04 g/m*3 27.6 C 0 km/h
1296 03-09-2004 17:19:59 27.5 C 12.7 g/m*3 27.5 C 0 km/h
1297 03-09-2004 17:31:59 28.6 C 12.93 g/m*3 28.6 C 0 km/h
1298 03-09-2004 17:43:59 29.3 C 12.85 g/m*3 29.3 C 0 km/h
1299 03-09-2004 17:55:59 29.5 C 12.69 g/m*3 29.5 C 0 km/h
1300 03-09-2004 18:07:59 29.4 C 12.62 g/m*3 29.4 C 0 km/h
Sensor: Nr:Datum:Temp:Abs-Feuchte:Windchill:Wind:
Aussen-T/F 1301 03-09-2004 18:19:58 28.9 C 13.14 g/m*3 28.9 C 0 km/h
1302 03-09-2004 18:31:58 28.6 C 12.65 g/m*3 28.6 C 0 km/h
1303 03-09-2004 18:43:58 28.5 C 12.02 g/m*3 28.5 C 0 km/h
1304 03-09-2004 18:55:58 28.6 C 12.65 g/m*3 28.6 C 0 km/h
1305 03-09-2004 19:07:58 28.3 C 11.89 g/m*3 28.3 C 0 km/h
1306 03-09-2004 19:19:58 27.5 C 12.7 g/m*3 27.5 C 0 km/h
1307 03-09-2004 19:31:58 26.6 C 12.59 g/m*3 26.6 C 0 km/h
1308 03-09-2004 19:43:58 25.6 C 13.09 g/m*3 25.6 C 0 km/h
1309 03-09-2004 19:55:59 24 C 12.84 g/m*3 24 C 0 km/h
1310 03-09-2004 20:07:59 23.5 C 13.11 g/m*3 23.5 C 0 km/h
1311 03-09-2004 20:19:59 23.1 C 12.61 g/m*3 23.1 C 0 km/h
1312 03-09-2004 20:31:59 22.7 C 12.73 g/m*3 22.7 C 0 km/h
1313 03-09-2004 20:43:59 22.1 C 12.49 g/m*3 22.1 C 0 km/h
1314 03-09-2004 20:55:59 21.9 C 12.93 g/m*3 21.9 C 0 km/h
1315 03-09-2004 21:07:58 21.5 C 12.82 g/m*3 21.5 C 0 km/h
1316 03-09-2004 21:19:58 21.3 C 12.68 g/m*3 21.3 C 0 km/h
1317 03-09-2004 21:31:58 21.1 C 12.71 g/m*3 21.1 C 0 km/h
1318 03-09-2004 21:43:58 21.1 C 12.53 g/m*3 21.1 C 0 km/h
1319 03-09-2004 21:55:58 20.8 C 12.49 g/m*3 20.8 C 0 km/h
1320 03-09-2004 22:07:58 20.7 C 12.78 g/m*3 20.7 C 0 km/h
1321 03-09-2004 22:19:58 20.3 C 12.49 g/m*3 20.3 C 0 km/h
1322 03-09-2004 22:31:58 20 C 12.44 g/m*3 20 C 0 km/h
1323 03-09-2004 22:43:58 20 C 12.62 g/m*3 20 C 0 km/h
1324 03-09-2004 22:55:58 19.7 C 12.57 g/m*3 19.7 C 0 km/h
1325 03-09-2004 23:07:58 19.6 C 12.66 g/m*3 19.6 C 0 km/h
Sensor: Nr:Datum:Temp:Abs-Feuchte:Windchill:Wind:
Aussen-T/F 1326 03-09-2004 23:19:58 19.4 C 12.51 g/m*3 19.4 C 0 km/h
1327 03-09-2004 23:31:58 19.1 C 12.46 g/m*3 19.1 C 0 km/h
1328 03-09-2004 23:43:58 18.9 C 12.64 g/m*3 18.9 C 0 km/h
1329 03-09-2004 23:55:57 18.8 C 12.56 g/m*3 18.8 C 0 km/h
1330 04-09-2004 00:07:58 18.6 C 12.57 g/m*3 18.6 C 0 km/h
1331 04-09-2004 00:19:58 18.3 C 12.35 g/m*3 18.3 C 0 km/h
1332 04-09-2004 00:31:57 18.2 C 12.43 g/m*3 18.2 C 0 km/h
1333 04-09-2004 00:43:57 18.1 C 12.36 g/m*3 18.1 C 0 km/h
1334 04-09-2004 00:55:58 18 C 12.44 g/m*3 18 C 0 km/h
1335 04-09-2004 01:07:58 17.8 C 12.6 g/m*3 17.8 C 0 km/h
1336 04-09-2004 01:19:58 17.7 C 12.52 g/m*3 17.7 C 0 km/h
1337 04-09-2004 01:31:58 17.5 C 12.37 g/m*3 17.5 C 0 km/h
1338 04-09-2004 01:43:58 17.5 C 12.37 g/m*3 17.5 C 0 km/h
1339 04-09-2004 01:55:58 17.2 C 12.3 g/m*3 17.2 C 0 km/h
1340 04-09-2004 02:07:58 17.1 C 12.23 g/m*3 17.1 C 0 km/h
1341 04-09-2004 02:19:58 16.9 C 12.23 g/m*3 16.9 C 0 km/h
1342 04-09-2004 02:31:58 16.8 C 12.15 g/m*3 16.8 C 0 km/h
1343 04-09-2004 02:43:58 16.5 C 12.08 g/m*3 16.5 C 0 km/h
1344 04-09-2004 02:56:00 16.5 C 12.08 g/m*3 16.5 C 0 km/h
1345 04-09-2004 03:08:00 16.4 C 12 g/m*3 16.4 C 0 km/h
1346 04-09-2004 03:20:59 16.3 C 11.93 g/m*3 16.3 C 0 km/h
1347 04-09-2004 03:32:59 16.2 C 11.86 g/m*3 16.2 C 0 km/h
1348 04-09-2004 03:44:59 16 C 11.72 g/m*3 16 C 0 km/h
1349 04-09-2004 03:56:59 16 C 11.72 g/m*3 16 C 0 km/h
1350 04-09-2004 04:08:59 15.9 C 11.78 g/m*3 15.9 C 0 km/h
Sensor: Nr:Datum:Temp:Abs-Feuchte:Windchill:Wind:
Aussen-T/F 1351 04-09-2004 04:20:59 15.8 C 11.71 g/m*3 15.8 C 0 km/h
1352 04-09-2004 04:32:59 15.6 C 11.44 g/m*3 15.6 C 0 km/h
1353 04-09-2004 04:44:59 15.6 C 11.57 g/m*3 15.6 C 0 km/h
1354 04-09-2004 04:57:00 15.4 C 11.43 g/m*3 15.4 C 0 km/h
1355 04-09-2004 05:08:59 15.2 C 11.29 g/m*3 15.2 C 0 km/h
1356 04-09-2004 05:20:59 15.2 C 11.29 g/m*3 15.2 C 0 km/h
1357 04-09-2004 05:32:59 15.2 C 11.29 g/m*3 15.2 C 0 km/h
1358 04-09-2004 05:44:58 15 C 11.28 g/m*3 15 C 0 km/h
1359 04-09-2004 05:56:58 14.9 C 11.22 g/m*3 14.9 C 0 km/h
1360 04-09-2004 06:08:58 14.7 C 11.21 g/m*3 14.7 C 0 km/h
1361 04-09-2004 06:20:58 14.6 C 11.14 g/m*3 14.6 C 0 km/h
1362 04-09-2004 06:32:59 14.7 C 11.21 g/m*3 14.7 C 0 km/h
1363 04-09-2004 06:44:59 14.5 C 11.07 g/m*3 14.5 C 0 km/h
1364 04-09-2004 06:56:59 14.2 C 10.99 g/m*3 14.2 C 0 km/h
1365 04-09-2004 07:08:59 14.3 C 11.06 g/m*3 14.3 C 0 km/h
1366 04-09-2004 07:20:59 14.3 C 11.06 g/m*3 14.3 C 0 km/h
1367 04-09-2004 07:32:59 14.2 C 11.11 g/m*3 14.2 C 0 km/h
1368 04-09-2004 07:44:59 14.5 C 11.32 g/m*3 14.5 C 0 km/h
1369 04-09-2004 07:56:59 14.6 C 11.26 g/m*3 14.6 C 0 km/h
1370 04-09-2004 08:08:59 15 C 11.41 g/m*3 15 C 0 km/h
1371 04-09-2004 08:20:59 14.9 C 11.22 g/m*3 14.9 C 0 km/h
1372 04-09-2004 08:32:58 15.4 C 11.43 g/m*3 15.4 C 0 km/h
1373 04-09-2004 08:43:59 15.5 C 11.24 g/m*3 15.5 C 0 km/h
1374 04-09-2004 08:55:59 15.4 C 11.04 g/m*3 15.4 C 0 km/h
1375 04-09-2004 09:08:58 15.6 C 11.17 g/m*3 15.6 C 0 km/h
Sensor: Nr:Datum:Temp:Abs-Feuchte:Windchill:Wind:
Aussen-T/F 1376 04-09-2004 09:20:58 16 C 11.31 g/m*3 16 C 0 km/h
1377 04-09-2004 09:32:58 16.4 C 11.45 g/m*3 16.4 C 0 km/h
1378 04-09-2004 09:44:58 16.7 C 11.37 g/m*3 16.7 C 0 km/h
1379 04-09-2004 09:56:58 17.2 C 11.57 g/m*3 17.2 C 0 km/h
1380 04-09-2004 10:08:58 17 C 11.43 g/m*3 17 C 0 km/h
1381 04-09-2004 10:20:59 17.3 C 11.79 g/m*3 17.3 C 0 km/h
1382 04-09-2004 10:32:59 17.8 C 11.99 g/m*3 17.8 C 0 km/h
1383 04-09-2004 10:44:59 18.2 C 12.12 g/m*3 18.2 C 0 km/h
1384 04-09-2004 10:56:59 18.7 C 12.33 g/m*3 18.7 C 0 km/h
1385 04-09-2004 11:08:59 19.2 C 12.37 g/m*3 19.2 C 0 km/h
1386 04-09-2004 11:20:59 19.8 C 12.47 g/m*3 19.8 C 0 km/h
1387 04-09-2004 11:32:00 20.5 C 12.63 g/m*3 20.5 C 0 km/h
1388 04-09-2004 11:44:00 21.3 C 12.12 g/m*3 21.3 C 0 km/h
1389 04-09-2004 11:56:58 21.9 C 13.12 g/m*3 21.9 C 0 km/h
1390 04-09-2004 12:08:58 22.6 C 12.86 g/m*3 22.6 C 0 km/h
1391 04-09-2004 12:20:58 23.2 C 13.1 g/m*3 23.2 C 0 km/h
1392 04-09-2004 12:32:58 23.6 C 13.4 g/m*3 23.6 C 0 km/h
1393 04-09-2004 12:44:58 24 C 13.05 g/m*3 24 C 0 km/h
1394 04-09-2004 12:56:58 24.6 C 13.95 g/m*3 24.6 C 0 km/h
1395 04-09-2004 13:08:58 24.8 C 12.97 g/m*3 24.8 C 0 km/h
1396 04-09-2004 13:20:58 25.4 C 13.18 g/m*3 25.4 C 0 km/h
1397 04-09-2004 13:32:58 25.8 C 12.52 g/m*3 25.8 C 0 km/h
1398 04-09-2004 13:44:58 26 C 12.17 g/m*3 26 C 0 km/h
1399 04-09-2004 13:56:58 26.6 C 12.84 g/m*3 26.6 C 0 km/h
1400 04-09-2004 14:08:58 27.2 C 12.49 g/m*3 27.2 C 0 km/h
Sensor: Nr:Datum:Temp:Abs-Feuchte:Windchill:Wind:
Aussen-T/F 1401 04-09-2004 14:20:58 27.8 C 13.72 g/m*3 27.8 C 0 km/h
1402 04-09-2004 14:32:58 28.2 C 12.65 g/m*3 28.2 C 0 km/h
1403 04-09-2004 14:44:58 28.6 C 12.65 g/m*3 28.6 C 0 km/h
1404 04-09-2004 14:56:58 29.4 C 13.21 g/m*3 29.4 C 0 km/h
1405 04-09-2004 15:08:58 29.4 C 12.33 g/m*3 29.4 C 0 km/h
1406 04-09-2004 15:20:58 30 C 12.13 g/m*3 30 C 0 km/h
1407 04-09-2004 15:32:58 30.1 C 11.89 g/m*3 30.1 C 0 km/h
1408 04-09-2004 15:44:58 30.2 C 11.96 g/m*3 30.2 C 0 km/h
1409 04-09-2004 15:56:58 30.6 C 10.96 g/m*3 30.6 C 0 km/h
1410 04-09-2004 16:08:57 30.6 C 10.65 g/m*3 30.6 C 0 km/h
1411 04-09-2004 16:20:57 30.6 C 10.65 g/m*3 30.6 C 0 km/h
1412 04-09-2004 16:32:57 30.7 C 11.34 g/m*3 30.7 C 0 km/h
1413 04-09-2004 16:44:57 30.7 C 10.39 g/m*3 30.7 C 0 km/h
1414 04-09-2004 16:56:57 30.8 C 10.13 g/m*3 30.8 C 0 km/h
1415 04-09-2004 17:08:58 31 C 11.52 g/m*3 31 C 0 km/h
1416 04-09-2004 17:20:58 31.2 C 11.32 g/m*3 31.2 C 0 km/h
1417 04-09-2004 17:32:58 30.9 C 10.19 g/m*3 30.9 C 0 km/h
1418 04-09-2004 17:44:58 30.9 C 10.82 g/m*3 30.9 C 0 km/h
1419 04-09-2004 17:56:58 30 C 9.7 g/m*3 30 C 0 km/h
1420 04-09-2004 18:08:58 30.1 C 10.67 g/m*3 30.1 C 0 km/h
1421 04-09-2004 18:20:58 30.2 C 10.73 g/m*3 30.2 C 0 km/h
1422 04-09-2004 18:32:58 30 C 11.22 g/m*3 30 C 0 km/h
1423 04-09-2004 18:44:57 29.8 C 11.7 g/m*3 29.8 C 0 km/h
1424 04-09-2004 18:56:57 29 C 11.49 g/m*3 29 C 0 km/h
1425 04-09-2004 19:08:57 27.6 C 11.97 g/m*3 27.6 C 0 km/h
Sensor: Nr:Datum:Temp:Abs-Feuchte:Windchill:Wind:
Aussen-T/F 1426 04-09-2004 19:20:57 26.9 C 12.29 g/m*3 26.9 C 0 km/h
1427 04-09-2004 19:32:57 25.7 C 12.45 g/m*3 25.7 C 0 km/h
1428 04-09-2004 19:44:57 24.8 C 12.52 g/m*3 24.8 C 0 km/h
1429 04-09-2004 19:56:57 24.1 C 12.25 g/m*3 24.1 C 0 km/h
1430 04-09-2004 20:08:57 23.3 C 11.92 g/m*3 23.3 C 0 km/h
1431 04-09-2004 20:20:57 23.1 C 12.2 g/m*3 23.1 C 0 km/h
1432 04-09-2004 20:32:57 22.6 C 12.25 g/m*3 22.6 C 0 km/h
1433 04-09-2004 20:44:58 22.2 C 12.17 g/m*3 22.2 C 0 km/h
1434 04-09-2004 20:56:58 22 C 12.42 g/m*3 22 C 0 km/h
1435 04-09-2004 21:08:58 22.1 C 12.49 g/m*3 22.1 C 0 km/h
1436 04-09-2004 21:20:58 21.7 C 12.78 g/m*3 21.7 C 0 km/h
1437 04-09-2004 21:32:57 21.7 C 12.97 g/m*3 21.7 C 0 km/h
1438 04-09-2004 21:44:57 21.4 C 12.94 g/m*3 21.4 C 0 km/h
1439 04-09-2004 21:56:57 21.3 C 13.05 g/m*3 21.3 C 0 km/h
1440 04-09-2004 22:08:57 20.9 C 12.93 g/m*3 20.9 C 0 km/h
1441 04-09-2004 22:20:57 20.8 C 13.04 g/m*3 20.8 C 0 km/h
1442 04-09-2004 22:32:57 20.6 C 13.07 g/m*3 20.6 C 0 km/h
1443 04-09-2004 22:44:57 20.4 C 12.91 g/m*3 20.4 C 0 km/h
1444 04-09-2004 22:56:57 20.3 C 13.01 g/m*3 20.3 C 0 km/h
1445 04-09-2004 23:08:57 20 C 12.96 g/m*3 20 C 0 km/h
1446 04-09-2004 23:20:57 19.8 C 13.15 g/m*3 19.8 C 0 km/h
1447 04-09-2004 23:32:57 19.7 C 13.08 g/m*3 19.7 C 0 km/h
1448 04-09-2004 23:44:57 19.4 C 12.85 g/m*3 19.4 C 0 km/h
1449 04-09-2004 23:56:57 19.3 C 12.94 g/m*3 19.3 C 0 km/h
1450 05-09-2004 00:08:57 19.1 C 12.95 g/m*3 19.1 C 0 km/h
Sensor: Nr:Datum:Temp:Abs-Feuchte:Windchill:Wind:
Aussen-T/F 1451 05-09-2004 00:20:58 18.9 C 12.96 g/m*3 18.9 C 0 km/h
1452 05-09-2004 00:32:57 18.8 C 13.05 g/m*3 18.8 C 0 km/h
1453 05-09-2004 00:44:57 18.6 C 12.89 g/m*3 18.6 C 0 km/h
1454 05-09-2004 00:56:57 18.5 C 12.82 g/m*3 18.5 C 0 km/h
1455 05-09-2004 01:08:57 18.3 C 12.66 g/m*3 18.3 C 0 km/h
1456 05-09-2004 01:20:56 18.2 C 12.59 g/m*3 18.2 C 0 km/h
1457 05-09-2004 01:32:56 18.1 C 12.52 g/m*3 18.1 C 0 km/h
1458 05-09-2004 01:44:56 17.9 C 12.67 g/m*3 17.9 C 0 km/h
1459 05-09-2004 01:56:56 17.7 C 12.52 g/m*3 17.7 C 0 km/h
1460 05-09-2004 02:08:56 17.6 C 12.45 g/m*3 17.6 C 0 km/h
1461 05-09-2004 02:20:57 17.5 C 12.37 g/m*3 17.5 C 0 km/h
1462 05-09-2004 02:32:57 17.3 C 12.23 g/m*3 17.3 C 0 km/h
1463 05-09-2004 02:45:58 17.2 C 12.3 g/m*3 17.2 C 0 km/h
1464 05-09-2004 02:57:58 17.1 C 12.08 g/m*3 17.1 C 0 km/h
1465 05-09-2004 03:09:58 17 C 12.15 g/m*3 17 C 0 km/h
1466 05-09-2004 03:21:58 16.7 C 12.22 g/m*3 16.7 C 0 km/h
1467 05-09-2004 03:33:58 16.6 C 12.15 g/m*3 16.6 C 0 km/h
1468 05-09-2004 03:45:58 16.6 C 12.01 g/m*3 16.6 C 0 km/h
1469 05-09-2004 03:57:58 16.5 C 12.08 g/m*3 16.5 C 0 km/h
1470 05-09-2004 04:09:58 16.4 C 12 g/m*3 16.4 C 0 km/h
1471 05-09-2004 04:21:58 16.4 C 12 g/m*3 16.4 C 0 km/h
1472 05-09-2004 04:33:58 16.2 C 11.86 g/m*3 16.2 C 0 km/h
1473 05-09-2004 04:45:58 16 C 11.72 g/m*3 16 C 0 km/h
1474 05-09-2004 04:57:58 15.9 C 11.78 g/m*3 15.9 C 0 km/h
1475 05-09-2004 05:09:58 15.8 C 11.85 g/m*3 15.8 C 0 km/h
Sensor: Nr:Datum:Temp:Abs-Feuchte:Windchill:Wind:
Aussen-T/F 1476 05-09-2004 05:21:58 15.8 C 11.85 g/m*3 15.8 C 0 km/h
1477 05-09-2004 05:33:58 15.6 C 11.7 g/m*3 15.6 C 0 km/h
1478 05-09-2004 05:45:58 15.5 C 11.63 g/m*3 15.5 C 0 km/h
1479 05-09-2004 05:57:58 15.5 C 11.63 g/m*3 15.5 C 0 km/h
1480 05-09-2004 06:09:58 15.3 C 11.36 g/m*3 15.3 C 0 km/h
1481 05-09-2004 06:21:58 15.2 C 11.29 g/m*3 15.2 C 0 km/h
1482 05-09-2004 06:33:58 15.1 C 11.35 g/m*3 15.1 C 0 km/h
1483 05-09-2004 06:45:57 15.1 C 11.48 g/m*3 15.1 C 0 km/h
1484 05-09-2004 06:57:57 15.2 C 11.55 g/m*3 15.2 C 0 km/h
1485 05-09-2004 07:09:57 15.4 C 11.69 g/m*3 15.4 C 0 km/h
1486 05-09-2004 07:21:58 15.6 C 11.7 g/m*3 15.6 C 0 km/h
1487 05-09-2004 07:33:58 15.8 C 11.85 g/m*3 15.8 C 0 km/h
1488 05-09-2004 07:45:58 15.9 C 12.05 g/m*3 15.9 C 0 km/h
1489 05-09-2004 07:57:59 15.8 C 11.98 g/m*3 15.8 C 0 km/h
1490 05-09-2004 08:09:58 16.1 C 12.2 g/m*3 16.1 C 0 km/h
1491 05-09-2004 08:21:58 16.5 C 12.5 g/m*3 16.5 C 0 km/h
1492 05-09-2004 08:33:58 16.8 C 12.44 g/m*3 16.8 C 0 km/h
1493 05-09-2004 08:45:58 16.9 C 12.37 g/m*3 16.9 C 0 km/h
1494 05-09-2004 08:57:58 17.1 C 12.37 g/m*3 17.1 C 0 km/h
1495 05-09-2004 09:09:58 17.2 C 12.3 g/m*3 17.2 C 0 km/h
1496 05-09-2004 09:21:57 17.4 C 12.45 g/m*3 17.4 C 0 km/h
1497 05-09-2004 09:33:57 17.6 C 12.6 g/m*3 17.6 C 0 km/h
1498 05-09-2004 09:45:57 17.7 C 12.52 g/m*3 17.7 C 0 km/h
1499 05-09-2004 09:57:57 18.1 C 12.67 g/m*3 18.1 C 0 km/h
1500 05-09-2004 10:09:57 18.3 C 12.66 g/m*3 18.3 C 0 km/h
Sensor: Nr:Datum:Temp:Abs-Feuchte:Windchill:Wind:
Aussen-T/F 1501 05-09-2004 10:21:57 18.2 C 12.43 g/m*3 18.2 C 0 km/h
1502 05-09-2004 10:33:57 18.1 C 12.98 g/m*3 18.1 C 0 km/h
1503 05-09-2004 10:45:57 18.7 C 13.29 g/m*3 18.7 C 0 km/h
1504 05-09-2004 10:57:57 19.6 C 13.51 g/m*3 19.6 C 0 km/h
1505 05-09-2004 11:09:57 20.3 C 13.37 g/m*3 20.3 C 0 km/h
1506 05-09-2004 11:21:58 21.2 C 13.53 g/m*3 21.2 C 0 km/h
1507 05-09-2004 11:33:58 21.8 C 13.43 g/m*3 21.8 C 0 km/h
1508 05-09-2004 11:45:57 22.3 C 13.62 g/m*3 22.3 C 0 km/h
1509 05-09-2004 11:57:57 22.9 C 14.1 g/m*3 22.9 C 0 km/h
1510 05-09-2004 12:09:57 23.5 C 14.38 g/m*3 23.5 C 0 km/h
1511 05-09-2004 12:21:57 24.2 C 13.86 g/m*3 24.2 C 0 km/h
1512 05-09-2004 12:33:57 24.6 C 14.18 g/m*3 24.6 C 0 km/h
1513 05-09-2004 12:45:57 24.9 C 14.42 g/m*3 24.9 C 0 km/h
1514 05-09-2004 12:57:57 25.1 C 14.12 g/m*3 25.1 C 0 km/h
1515 05-09-2004 13:09:57 25.8 C 13.96 g/m*3 25.8 C 0 km/h
1516 05-09-2004 13:21:57 26.6 C 13.84 g/m*3 26.6 C 0 km/h
1517 05-09-2004 13:33:57 26.8 C 13.74 g/m*3 26.8 C 0 km/h
1518 05-09-2004 13:45:57 27.5 C 12.17 g/m*3 27.5 C 0 km/h
1519 05-09-2004 13:57:57 27.9 C 11.63 g/m*3 27.9 C 0 km/h
1520 05-09-2004 14:09:57 28.2 C 11.27 g/m*3 28.2 C 0 km/h
1521 05-09-2004 14:21:57 28.8 C 10.51 g/m*3 28.8 C 0 km/h
1522 05-09-2004 14:33:56 29.4 C 10.57 g/m*3 29.4 C 0 km/h
1523 05-09-2004 14:45:56 29.4 C 10.57 g/m*3 29.4 C 0 km/h
1524 05-09-2004 14:57:56 29.9 C 11.46 g/m*3 29.9 C 0 km/h
1525 05-09-2004 15:09:56 30.1 C 10.98 g/m*3 30.1 C 0 km/h
Sensor: Nr:Datum:Temp:Abs-Feuchte:Windchill:Wind:
Aussen-T/F 1526 05-09-2004 15:21:57 30.3 C 10.17 g/m*3 30.3 C 0 km/h
1527 05-09-2004 15:33:57 30.4 C 10.54 g/m*3 30.4 C 0 km/h
1528 05-09-2004 15:45:57 30.3 C 10.48 g/m*3 30.3 C 0 km/h
1529 05-09-2004 15:57:57 30 C 11.83 g/m*3 30 C 0 km/h
1530 05-09-2004 16:09:57 30.4 C 9.92 g/m*3 30.4 C 0 km/h
1531 05-09-2004 16:21:57 31 C 9.6 g/m*3 31 C 0 km/h
1532 05-09-2004 16:33:57 31.3 C 9.76 g/m*3 31.3 C 0 km/h
1533 05-09-2004 16:45:57 31.2 C 9.06 g/m*3 31.2 C 0 km/h
1534 05-09-2004 16:57:57 31 C 9.92 g/m*3 31 C 0 km/h
1535 05-09-2004 17:09:57 31 C 9.92 g/m*3 31 C 0 km/h
1536 05-09-2004 17:21:56 31 C 9.92 g/m*3 31 C 0 km/h
1537 05-09-2004 17:33:56 30.7 C 9.76 g/m*3 30.7 C 0 km/h
1538 05-09-2004 17:45:56 30.8 C 9.81 g/m*3 30.8 C 0 km/h
1539 05-09-2004 17:57:56 30.8 C 10.13 g/m*3 30.8 C 0 km/h
1540 05-09-2004 18:09:56 30.7 C 10.39 g/m*3 30.7 C 0 km/h
1541 05-09-2004 18:21:56 30.4 C 11.47 g/m*3 30.4 C 0 km/h
1542 05-09-2004 18:33:56 30.1 C 11.59 g/m*3 30.1 C 0 km/h
1543 05-09-2004 18:45:56 29.7 C 11.93 g/m*3 29.7 C 0 km/h
1544 05-09-2004 18:57:57 29.3 C 11.68 g/m*3 29.3 C 0 km/h
1545 05-09-2004 19:09:57 28.6 C 11.52 g/m*3 28.6 C 0 km/h
1546 05-09-2004 19:21:57 27.6 C 11.17 g/m*3 27.6 C 0 km/h
1547 05-09-2004 19:33:57 26.6 C 11.33 g/m*3 26.6 C 0 km/h
1548 05-09-2004 19:45:56 25.6 C 10.95 g/m*3 25.6 C 0 km/h
1549 05-09-2004 19:57:56 24.8 C 10.93 g/m*3 24.8 C 0 km/h
1550 05-09-2004 20:09:56 24.2 C 10.78 g/m*3 24.2 C 0 km/h
Sensor: Nr:Datum:Temp:Abs-Feuchte:Windchill:Wind:
Aussen-T/F 1551 05-09-2004 20:21:56 23.5 C 11 g/m*3 23.5 C 0 km/h
1552 05-09-2004 20:33:56 22.9 C 11.04 g/m*3 22.9 C 0 km/h
1553 05-09-2004 20:45:56 22.1 C 10.74 g/m*3 22.1 C 0 km/h
1554 05-09-2004 20:57:56 22 C 10.87 g/m*3 22 C 0 km/h
1555 05-09-2004 21:09:56 21.5 C 11.13 g/m*3 21.5 C 0 km/h
1556 05-09-2004 21:21:56 21.3 C 11 g/m*3 21.3 C 0 km/h
1557 05-09-2004 21:33:56 21 C 10.81 g/m*3 21 C 0 km/h
1558 05-09-2004 21:45:56 20.9 C 11.29 g/m*3 20.9 C 0 km/h
1559 05-09-2004 21:57:56 20.4 C 10.97 g/m*3 20.4 C 0 km/h
1560 05-09-2004 22:09:56 20 C 11.41 g/m*3 20 C 0 km/h
1561 05-09-2004 22:21:56 19.7 C 11.55 g/m*3 19.7 C 0 km/h
1562 05-09-2004 22:33:55 19.5 C 11.41 g/m*3 19.5 C 0 km/h
1563 05-09-2004 22:45:56 19.3 C 11.61 g/m*3 19.3 C 0 km/h
1564 05-09-2004 22:57:56 19.1 C 11.64 g/m*3 19.1 C 0 km/h
1565 05-09-2004 23:09:56 18.9 C 11.66 g/m*3 18.9 C 0 km/h
1566 05-09-2004 23:21:56 18.6 C 11.46 g/m*3 18.6 C 0 km/h
1567 05-09-2004 23:33:56 18.5 C 11.39 g/m*3 18.5 C 0 km/h
1568 05-09-2004 23:45:56 18.3 C 11.41 g/m*3 18.3 C 0 km/h
1569 05-09-2004 23:57:56 18.1 C 11.43 g/m*3 18.1 C 0 km/h
1570 06-09-2004 00:09:56 18.2 C 11.35 g/m*3 18.2 C 0 km/h
1571 06-09-2004 00:21:56 17.8 C 10.93 g/m*3 17.8 C 0 km/h
1572 06-09-2004 00:33:55 17.5 C 11.03 g/m*3 17.5 C 0 km/h
1573 06-09-2004 00:45:56 17.2 C 10.98 g/m*3 17.2 C 0 km/h
1574 06-09-2004 00:57:56 17 C 10.71 g/m*3 17 C 0 km/h
1575 06-09-2004 01:09:56 16.8 C 10.87 g/m*3 16.8 C 0 km/h
Sensor: Nr:Datum:Temp:Abs-Feuchte:Windchill:Wind:
Aussen-T/F 1576 06-09-2004 01:21:56 16.5 C 10.81 g/m*3 16.5 C 0 km/h
1577 06-09-2004 01:33:56 16.3 C 10.82 g/m*3 16.3 C 0 km/h
1578 06-09-2004 01:45:56 16.1 C 10.69 g/m*3 16.1 C 0 km/h
1579 06-09-2004 01:57:56 16 C 10.63 g/m*3 16 C 0 km/h
1580 06-09-2004 02:09:56 15.9 C 10.7 g/m*3 15.9 C 0 km/h
1581 06-09-2004 02:21:56 15.8 C 10.5 g/m*3 15.8 C 0 km/h
1582 06-09-2004 02:33:55 15.7 C 10.57 g/m*3 15.7 C 0 km/h
1583 06-09-2004 02:46:57 15.6 C 10.51 g/m*3 15.6 C 0 km/h
1584 06-09-2004 02:58:57 15.4 C 10.38 g/m*3 15.4 C 0 km/h
1585 06-09-2004 03:10:57 15.1 C 10.06 g/m*3 15.1 C 0 km/h
1586 06-09-2004 03:22:57 14.9 C 10.2 g/m*3 14.9 C 0 km/h
1587 06-09-2004 03:34:57 14.8 C 10.13 g/m*3 14.8 C 0 km/h
1588 06-09-2004 03:46:57 14.6 C 10.01 g/m*3 14.6 C 0 km/h
1589 06-09-2004 03:58:57 14.4 C 9.77 g/m*3 14.4 C 0 km/h
1590 06-09-2004 04:10:57 14.4 C 9.89 g/m*3 14.4 C 0 km/h
1591 06-09-2004 04:22:57 14.3 C 9.83 g/m*3 14.3 C 0 km/h
1592 06-09-2004 04:34:57 14.1 C 9.71 g/m*3 14.1 C 0 km/h
1593 06-09-2004 04:46:57 14.1 C 9.83 g/m*3 14.1 C 0 km/h
1594 06-09-2004 04:58:57 13.8 C 9.65 g/m*3 13.8 C 0 km/h
1595 06-09-2004 05:10:57 13.8 C 9.77 g/m*3 13.8 C 0 km/h
1596 06-09-2004 05:22:56 13.8 C 9.77 g/m*3 13.8 C 0 km/h
1597 06-09-2004 05:34:56 13.6 C 9.65 g/m*3 13.6 C 0 km/h
1598 06-09-2004 05:46:56 13.6 C 9.65 g/m*3 13.6 C 0 km/h
1599 06-09-2004 05:58:56 13.5 C 9.71 g/m*3 13.5 C 0 km/h
1600 06-09-2004 06:10:56 13.4 C 9.65 g/m*3 13.4 C 0 km/h
Sensor: Nr:Datum:Temp:Abs-Feuchte:Windchill:Wind:
Aussen-T/F 1601 06-09-2004 06:22:56 13.4 C 9.76 g/m*3 13.4 C 0 km/h
1602 06-09-2004 06:34:57 13.1 C 9.59 g/m*3 13.1 C 0 km/h
1603 06-09-2004 06:46:57 13.2 C 9.64 g/m*3 13.2 C 0 km/h
1604 06-09-2004 06:58:57 13 C 9.64 g/m*3 13 C 0 km/h
1605 06-09-2004 07:10:57 13 C 9.64 g/m*3 13 C 0 km/h
1606 06-09-2004 07:22:57 12.9 C 9.81 g/m*3 12.9 C 0 km/h
1607 06-09-2004 07:34:57 12.9 C 9.81 g/m*3 12.9 C 0 km/h
1608 06-09-2004 07:46:57 12.9 C 9.81 g/m*3 12.9 C 0 km/h
1609 06-09-2004 07:58:57 12.9 C 9.92 g/m*3 12.9 C 0 km/h
1610 06-09-2004 08:10:56 13 C 9.87 g/m*3 13 C 0 km/h
1611 06-09-2004 08:22:56 13.3 C 10.05 g/m*3 13.3 C 0 km/h
1612 06-09-2004 08:34:56 13.3 C 10.05 g/m*3 13.3 C 0 km/h
1613 06-09-2004 08:46:56 13.3 C 10.05 g/m*3 13.3 C 0 km/h
1614 06-09-2004 08:58:56 13.7 C 10.3 g/m*3 13.7 C 0 km/h
1615 06-09-2004 09:10:56 13.9 C 10.43 g/m*3 13.9 C 0 km/h
1616 06-09-2004 09:22:56 14.2 C 10.5 g/m*3 14.2 C 0 km/h
1617 06-09-2004 09:34:56 14.6 C 10.76 g/m*3 14.6 C 0 km/h
1618 06-09-2004 09:46:56 15.2 C 10.9 g/m*3 15.2 C 0 km/h
1619 06-09-2004 09:58:56 15.9 C 10.97 g/m*3 15.9 C 0 km/h
1620 06-09-2004 10:10:56 16.5 C 11.09 g/m*3 16.5 C 0 km/h
1621 06-09-2004 10:22:57 17 C 11.29 g/m*3 17 C 0 km/h
1622 06-09-2004 10:34:57 17.5 C 11.48 g/m*3 17.5 C 0 km/h
1623 06-09-2004 10:46:56 18.3 C 11.57 g/m*3 18.3 C 0 km/h
1624 06-09-2004 10:58:56 18.8 C 11.76 g/m*3 18.8 C 0 km/h
1625 06-09-2004 11:10:56 19.3 C 11.61 g/m*3 19.3 C 0 km/h
Sensor: Nr:Datum:Temp:Abs-Feuchte:Windchill:Wind:
Aussen-T/F 1626 06-09-2004 11:22:56 19.8 C 11.79 g/m*3 19.8 C 0 km/h
1627 06-09-2004 11:34:56 20.4 C 11.68 g/m*3 20.4 C 0 km/h
1628 06-09-2004 11:46:56 21.4 C 11.62 g/m*3 21.4 C 0 km/h
1629 06-09-2004 11:58:56 22.1 C 11.52 g/m*3 22.1 C 0 km/h
1630 06-09-2004 12:10:56 22.7 C 11.52 g/m*3 22.7 C 0 km/h
1631 06-09-2004 12:22:56 23 C 12.33 g/m*3 23 C 0 km/h
1632 06-09-2004 12:34:56 23.2 C 11.23 g/m*3 23.2 C 0 km/h
1633 06-09-2004 12:46:56 23.8 C 10.97 g/m*3 23.8 C 0 km/h
1634 06-09-2004 12:58:56 24 C 10.01 g/m*3 24 C 0 km/h
1635 06-09-2004 13:10:56 24.5 C 9.4 g/m*3 24.5 C 0 km/h
1636 06-09-2004 13:22:56 24.8 C 9.33 g/m*3 24.8 C 0 km/h
1637 06-09-2004 13:34:55 25.2 C 9.08 g/m*3 25.2 C 0 km/h
1638 06-09-2004 13:46:55 25.8 C 9.63 g/m*3 25.8 C 0 km/h
1639 06-09-2004 13:58:55 26.4 C 9.21 g/m*3 26.4 C 0 km/h
1640 06-09-2004 14:10:55 26.5 C 9.01 g/m*3 26.5 C 0 km/h
1641 06-09-2004 14:22:56 27.2 C 9.37 g/m*3 27.2 C 0 km/h
1642 06-09-2004 14:34:56 27.4 C 8.42 g/m*3 27.4 C 0 km/h
1643 06-09-2004 14:46:56 27.8 C 8.34 g/m*3 27.8 C 0 km/h
1644 06-09-2004 14:58:56 28.4 C 8.9 g/m*3 28.4 C 0 km/h
1645 06-09-2004 15:10:56 28.9 C 8.57 g/m*3 28.9 C 0 km/h
1646 06-09-2004 15:22:56 29.4 C 8.51 g/m*3 29.4 C 0 km/h
1647 06-09-2004 15:34:56 29.4 C 8.81 g/m*3 29.4 C 0 km/h
1648 06-09-2004 15:46:56 29.5 C 8.56 g/m*3 29.5 C 0 km/h
1649 06-09-2004 15:58:56 30 C 8.79 g/m*3 30 C 0 km/h
1650 06-09-2004 16:10:56 30.3 C 8.63 g/m*3 30.3 C 0 km/h
Sensor: Nr:Datum:Temp:Abs-Feuchte:Windchill:Wind:
Aussen-T/F 1651 06-09-2004 16:22:55 30.6 C 8.14 g/m*3 30.6 C 0 km/h
1652 06-09-2004 16:34:55 30.3 C 8.63 g/m*3 30.3 C 0 km/h
1653 06-09-2004 16:46:55 30.4 C 8.37 g/m*3 30.4 C 0 km/h
1654 06-09-2004 16:58:55 30.6 C 8.46 g/m*3 30.6 C 0 km/h
1655 06-09-2004 17:10:56 30.9 C 8.59 g/m*3 30.9 C 0 km/h
1656 06-09-2004 17:22:55 30.7 C 8.19 g/m*3 30.7 C 0 km/h
1657 06-09-2004 17:34:55 30.9 C 8.59 g/m*3 30.9 C 0 km/h
1658 06-09-2004 17:46:55 30.6 C 8.46 g/m*3 30.6 C 0 km/h
1659 06-09-2004 17:58:55 30.7 C 8.5 g/m*3 30.7 C 0 km/h
1660 06-09-2004 18:10:56 30.7 C 9.45 g/m*3 30.7 C 0 km/h
1661 06-09-2004 18:22:56 30.3 C 8.94 g/m*3 30.3 C 0 km/h
1662 06-09-2004 18:34:56 30.1 C 9.45 g/m*3 30.1 C 0 km/h
1663 06-09-2004 18:46:56 29.6 C 8.9 g/m*3 29.6 C 0 km/h
1664 06-09-2004 18:58:56 29.1 C 10.11 g/m*3 29.1 C 0 km/h
1665 06-09-2004 19:10:55 28.2 C 10.17 g/m*3 28.2 C 0 km/h
1666 06-09-2004 19:22:55 27.3 C 10.2 g/m*3 27.3 C 0 km/h
1667 06-09-2004 19:34:56 26.4 C 10.21 g/m*3 26.4 C 0 km/h
1668 06-09-2004 19:46:55 25.2 C 10.24 g/m*3 25.2 C 0 km/h
1669 06-09-2004 19:58:55 24.3 C 10.4 g/m*3 24.3 C 0 km/h
1670 06-09-2004 20:10:55 23.7 C 10.91 g/m*3 23.7 C 0 km/h
1671 06-09-2004 20:22:55 22.6 C 10.65 g/m*3 22.6 C 0 km/h
1672 06-09-2004 20:34:55 22.1 C 10.54 g/m*3 22.1 C 0 km/h
1673 06-09-2004 20:46:55 21.5 C 10.94 g/m*3 21.5 C 0 km/h
1674 06-09-2004 20:58:55 21.3 C 10.81 g/m*3 21.3 C 0 km/h
1675 06-09-2004 21:10:55 21.2 C 10.93 g/m*3 21.2 C 0 km/h
Sensor: Nr:Datum:Temp:Abs-Feuchte:Windchill:Wind:
Aussen-T/F 1676 06-09-2004 21:22:55 20.9 C 11.11 g/m*3 20.9 C 0 km/h
1677 06-09-2004 21:34:55 20.7 C 10.98 g/m*3 20.7 C 0 km/h
1678 06-09-2004 21:46:55 20.4 C 10.61 g/m*3 20.4 C 0 km/h
1679 06-09-2004 21:58:55 20 C 10.37 g/m*3 20 C 0 km/h
1680 06-09-2004 22:10:55 20 C 10.71 g/m*3 20 C 0 km/h
1681 06-09-2004 22:22:55 19.7 C 10.7 g/m*3 19.7 C 0 km/h
1682 06-09-2004 22:34:55 19.5 C 10.74 g/m*3 19.5 C 0 km/h
1683 06-09-2004 22:46:55 19.2 C 10.72 g/m*3 19.2 C 0 km/h
1684 06-09-2004 22:58:55 19.1 C 10.66 g/m*3 19.1 C 0 km/h
1685 06-09-2004 23:10:55 18.9 C 10.85 g/m*3 18.9 C 0 km/h
1686 06-09-2004 23:22:55 18.6 C 10.82 g/m*3 18.6 C 0 km/h
1687 06-09-2004 23:34:55 18.4 C 10.54 g/m*3 18.4 C 0 km/h
1688 06-09-2004 23:46:55 18.1 C 10.97 g/m*3 18.1 C 0 km/h
1689 06-09-2004 23:58:55 18.2 C 10.72 g/m*3 18.2 C 0 km/h
1690 07-09-2004 00:10:55 18.3 C 11.1 g/m*3 18.3 C 0 km/h
1691 07-09-2004 00:22:55 17.9 C 10.84 g/m*3 17.9 C 0 km/h
1692 07-09-2004 00:34:55 17.6 C 10.65 g/m*3 17.6 C 0 km/h
1693 07-09-2004 00:46:55 17.6 C 10.8 g/m*3 17.6 C 0 km/h
1694 07-09-2004 00:58:56 17.5 C 10.73 g/m*3 17.5 C 0 km/h
1695 07-09-2004 01:10:55 17.4 C 10.97 g/m*3 17.4 C 0 km/h
1696 07-09-2004 01:22:55 17.3 C 10.9 g/m*3 17.3 C 0 km/h
1697 07-09-2004 01:34:55 17.3 C 10.75 g/m*3 17.3 C 0 km/h
1698 07-09-2004 01:46:55 17 C 10.56 g/m*3 17 C 0 km/h
1699 07-09-2004 01:58:55 16.8 C 10.72 g/m*3 16.8 C 0 km/h
1700 07-09-2004 02:10:55 16.5 C 10.53 g/m*3 16.5 C 0 km/h
Sensor: Nr:Datum:Temp:Abs-Feuchte:Windchill:Wind:
Aussen-T/F 1701 07-09-2004 02:22:54 16.4 C 10.61 g/m*3 16.4 C 0 km/h
1702 07-09-2004 02:34:54 16.1 C 10.42 g/m*3 16.1 C 0 km/h
1703 07-09-2004 02:47:56 15.9 C 10.56 g/m*3 15.9 C 0 km/h
1704 07-09-2004 02:59:56 15.8 C 10.5 g/m*3 15.8 C 0 km/h
1705 07-09-2004 03:11:56 15.8 C 10.63 g/m*3 15.8 C 0 km/h
1706 07-09-2004 03:23:56 15.6 C 10.64 g/m*3 15.6 C 0 km/h
1707 07-09-2004 03:35:56 15.3 C 10.45 g/m*3 15.3 C 0 km/h
1708 07-09-2004 03:47:56 15.2 C 10.64 g/m*3 15.2 C 0 km/h
1709 07-09-2004 03:59:57 15.1 C 10.45 g/m*3 15.1 C 0 km/h
1710 07-09-2004 04:11:56 14.9 C 10.45 g/m*3 14.9 C 0 km/h
1711 07-09-2004 04:23:56 14.8 C 10.51 g/m*3 14.8 C 0 km/h
1712 07-09-2004 04:35:56 14.7 C 10.45 g/m*3 14.7 C 0 km/h
1713 07-09-2004 04:47:56 14.6 C 10.39 g/m*3 14.6 C 0 km/h
1714 07-09-2004 04:59:56 14.5 C 10.45 g/m*3 14.5 C 0 km/h
1715 07-09-2004 05:11:55 14.4 C 10.38 g/m*3 14.4 C 0 km/h
1716 07-09-2004 05:23:55 14.3 C 10.32 g/m*3 14.3 C 0 km/h
1717 07-09-2004 05:35:55 14.2 C 10.26 g/m*3 14.2 C 0 km/h
1718 07-09-2004 05:47:55 14.2 C 10.26 g/m*3 14.2 C 0 km/h
1719 07-09-2004 05:59:55 14.1 C 10.32 g/m*3 14.1 C 0 km/h
1720 07-09-2004 06:11:55 14 C 10.25 g/m*3 14 C 0 km/h
1721 07-09-2004 06:23:56 14 C 10.13 g/m*3 14 C 0 km/h
1722 07-09-2004 06:35:56 14 C 10.25 g/m*3 14 C 0 km/h
1723 07-09-2004 06:47:57 13.8 C 10.25 g/m*3 13.8 C 0 km/h
1724 07-09-2004 06:59:58 13.8 C 10.25 g/m*3 13.8 C 0 km/h
1725 07-09-2004 07:11:56 13.8 C 10.25 g/m*3 13.8 C 0 km/h
Sensor: Nr:Datum:Temp:Abs-Feuchte:Windchill:Wind:
Aussen-T/F 1726 07-09-2004 07:23:55 13.7 C 10.18 g/m*3 13.7 C 0 km/h
1727 07-09-2004 07:35:55 13.7 C 10.3 g/m*3 13.7 C 0 km/h
1728 07-09-2004 07:47:55 14 C 10.37 g/m*3 14 C 0 km/h
1729 07-09-2004 07:59:55 14 C 10.37 g/m*3 14 C 0 km/h
1730 07-09-2004 08:11:55 14.1 C 10.32 g/m*3 14.1 C 0 km/h
1731 07-09-2004 08:23:55 14.2 C 10.5 g/m*3 14.2 C 0 km/h
1732 07-09-2004 08:35:55 14.3 C 10.57 g/m*3 14.3 C 0 km/h
1733 07-09-2004 08:47:55 14.7 C 10.83 g/m*3 14.7 C 0 km/h
1734 07-09-2004 08:59:55 15 C 10.77 g/m*3 15 C 0 km/h
1735 07-09-2004 09:11:55 15.3 C 10.84 g/m*3 15.3 C 0 km/h
1736 07-09-2004 09:23:55 15.6 C 11.04 g/m*3 15.6 C 0 km/h
1737 07-09-2004 09:35:55 15.9 C 10.97 g/m*3 15.9 C 0 km/h
1738 07-09-2004 09:47:56 16.3 C 10.82 g/m*3 16.3 C 0 km/h
1739 07-09-2004 09:59:56 17.1 C 11.21 g/m*3 17.1 C 0 km/h
1740 07-09-2004 10:11:56 17.8 C 11.38 g/m*3 17.8 C 0 km/h
1741 07-09-2004 10:23:55 18.9 C 11.66 g/m*3 18.9 C 0 km/h
1742 07-09-2004 10:35:55 20 C 11.23 g/m*3 20 C 0 km/h
1743 07-09-2004 10:47:55 20.6 C 11.28 g/m*3 20.6 C 0 km/h
1744 07-09-2004 10:59:55 21 C 11.91 g/m*3 21 C 0 km/h
1745 07-09-2004 11:11:55 21.3 C 12.12 g/m*3 21.3 C 0 km/h
1746 07-09-2004 11:23:55 21.4 C 12.19 g/m*3 21.4 C 0 km/h
1747 07-09-2004 11:35:55 21.8 C 11.13 g/m*3 21.8 C 0 km/h
1748 07-09-2004 11:47:55 22.1 C 10.93 g/m*3 22.1 C 0 km/h
1749 07-09-2004 11:59:56 22.7 C 11.11 g/m*3 22.7 C 0 km/h
1750 07-09-2004 12:11:55 23.3 C 11.08 g/m*3 23.3 C 0 km/h
Sensor: Nr:Datum:Temp:Abs-Feuchte:Windchill:Wind:
Aussen-T/F 1751 07-09-2004 12:23:55 23.8 C 10.76 g/m*3 23.8 C 0 km/h
1752 07-09-2004 12:35:55 24.2 C 10.34 g/m*3 24.2 C 0 km/h
1753 07-09-2004 12:47:55 24.7 C 10.64 g/m*3 24.7 C 0 km/h
1754 07-09-2004 12:59:55 25 C 10.59 g/m*3 25 C 0 km/h
1755 07-09-2004 13:11:54 25.3 C 10.3 g/m*3 25.3 C 0 km/h
1756 07-09-2004 13:23:54 25.6 C 9.28 g/m*3 25.6 C 0 km/h
1757 07-09-2004 13:35:55 26.1 C 9.55 g/m*3 26.1 C 0 km/h
1758 07-09-2004 13:47:55 26.6 C 9.82 g/m*3 26.6 C 0 km/h
1759 07-09-2004 13:59:55 26.9 C 9.21 g/m*3 26.9 C 0 km/h
1760 07-09-2004 14:11:55 27.3 C 9.16 g/m*3 27.3 C 0 km/h
1761 07-09-2004 14:23:55 27.7 C 9.36 g/m*3 27.7 C 0 km/h
1762 07-09-2004 14:35:55 28.2 C 8.52 g/m*3 28.2 C 0 km/h
1763 07-09-2004 14:47:55 28.7 C 9.32 g/m*3 28.7 C 0 km/h
1764 07-09-2004 14:59:55 28.9 C 9.14 g/m*3 28.9 C 0 km/h
1765 07-09-2004 15:11:55 29.3 C 9.05 g/m*3 29.3 C 0 km/h
1766 07-09-2004 15:23:55 29.6 C 8.9 g/m*3 29.6 C 0 km/h
1767 07-09-2004 15:35:55 29.9 C 8.75 g/m*3 29.9 C 0 km/h
1768 07-09-2004 15:47:54 30.3 C 8.63 g/m*3 30.3 C 0 km/h
1769 07-09-2004 15:59:54 30.4 C 8.68 g/m*3 30.4 C 0 km/h
1770 07-09-2004 16:11:54 30.4 C 8.37 g/m*3 30.4 C 0 km/h
1771 07-09-2004 16:23:54 30.3 C 8.01 g/m*3 30.3 C 0 km/h
1772 07-09-2004 16:35:54 30.2 C 8.28 g/m*3 30.2 C 0 km/h
1773 07-09-2004 16:47:54 30.4 C 8.37 g/m*3 30.4 C 0 km/h
1774 07-09-2004 16:59:54 30.6 C 8.46 g/m*3 30.6 C 0 km/h
1775 07-09-2004 17:11:54 30.7 C 8.19 g/m*3 30.7 C 0 km/h
Sensor: Nr:Datum:Temp:Abs-Feuchte:Windchill:Wind:
Aussen-T/F 1776 07-09-2004 17:23:54 30.7 C 7.87 g/m*3 30.7 C 0 km/h
1777 07-09-2004 17:35:55 30.6 C 7.83 g/m*3 30.6 C 0 km/h
1778 07-09-2004 17:47:55 30.3 C 8.01 g/m*3 30.3 C 0 km/h
1779 07-09-2004 17:59:55 30.4 C 8.37 g/m*3 30.4 C 0 km/h
1780 07-09-2004 18:11:55 30.4 C 8.68 g/m*3 30.4 C 0 km/h
1781 07-09-2004 18:23:55 30.3 C 8.32 g/m*3 30.3 C 0 km/h
1782 07-09-2004 18:35:54 30.2 C 9.2 g/m*3 30.2 C 0 km/h
1783 07-09-2004 18:47:54 29.8 C 9.6 g/m*3 29.8 C 0 km/h
1784 07-09-2004 18:59:54 29.6 C 9.79 g/m*3 29.6 C 0 km/h
1785 07-09-2004 19:11:54 28.8 C 9.94 g/m*3 28.8 C 0 km/h
1786 07-09-2004 19:23:54 28.1 C 9.57 g/m*3 28.1 C 0 km/h
1787 07-09-2004 19:35:54 26.7 C 9.87 g/m*3 26.7 C 0 km/h
1788 07-09-2004 19:47:54 25.7 C 10.06 g/m*3 25.7 C 0 km/h
1789 07-09-2004 19:59:54 24.7 C 9.96 g/m*3 24.7 C 0 km/h
1790 07-09-2004 20:11:54 24 C 10.44 g/m*3 24 C 0 km/h
1791 07-09-2004 20:23:54 23.4 C 10.72 g/m*3 23.4 C 0 km/h
1792 07-09-2004 20:35:54 22.9 C 11.04 g/m*3 22.9 C 0 km/h
1793 07-09-2004 20:47:54 22.5 C 10.79 g/m*3 22.5 C 0 km/h
1794 07-09-2004 20:59:54 22.1 C 10.93 g/m*3 22.1 C 0 km/h
1795 07-09-2004 21:11:54 21.8 C 11.13 g/m*3 21.8 C 0 km/h
1796 07-09-2004 21:23:53 21.4 C 10.69 g/m*3 21.4 C 0 km/h
1797 07-09-2004 21:35:54 21.1 C 10.87 g/m*3 21.1 C 0 km/h
1798 07-09-2004 21:47:54 20.8 C 10.68 g/m*3 20.8 C 0 km/h
1799 07-09-2004 21:59:54 20.5 C 10.68 g/m*3 20.5 C 0 km/h
1800 07-09-2004 22:11:54 20.3 C 10.73 g/m*3 20.3 C 0 km/h
Sensor: Nr:Datum:Temp:Abs-Feuchte:Windchill:Wind:
Aussen-T/F 1801 07-09-2004 22:23:54 20 C 10.71 g/m*3 20 C 0 km/h
1802 07-09-2004 22:35:54 19.6 C 10.8 g/m*3 19.6 C 0 km/h
1803 07-09-2004 22:47:54 19.4 C 11.01 g/m*3 19.4 C 0 km/h
1804 07-09-2004 22:59:54 19.3 C 10.95 g/m*3 19.3 C 0 km/h
1805 07-09-2004 23:11:54 19.3 C 11.11 g/m*3 19.3 C 0 km/h
1806 07-09-2004 23:23:54 18.9 C 10.85 g/m*3 18.9 C 0 km/h
1807 07-09-2004 23:35:54 18.8 C 11.11 g/m*3 18.8 C 0 km/h
1808 07-09-2004 23:47:54 18.8 C 11.11 g/m*3 18.8 C 0 km/h
1809 07-09-2004 23:59:54 18.6 C 11.14 g/m*3 18.6 C 0 km/h
1810 08-09-2004 00:11:53 18.5 C 11.08 g/m*3 18.5 C 0 km/h
1811 08-09-2004 00:23:54 18.4 C 11.17 g/m*3 18.4 C 0 km/h
1812 08-09-2004 00:35:54 18.2 C 11.04 g/m*3 18.2 C 0 km/h
1813 08-09-2004 00:47:54 18.1 C 10.97 g/m*3 18.1 C 0 km/h
1814 08-09-2004 00:59:54 17.8 C 11.23 g/m*3 17.8 C 0 km/h
1815 08-09-2004 01:11:54 17.7 C 11.16 g/m*3 17.7 C 0 km/h
1816 08-09-2004 01:23:53 17.5 C 11.03 g/m*3 17.5 C 0 km/h
1817 08-09-2004 01:35:53 17.4 C 11.12 g/m*3 17.4 C 0 km/h
1818 08-09-2004 01:47:53 17.2 C 10.98 g/m*3 17.2 C 0 km/h
1819 08-09-2004 01:59:53 17.1 C 11.06 g/m*3 17.1 C 0 km/h
1820 08-09-2004 02:11:53 16.9 C 11.08 g/m*3 16.9 C 0 km/h
1821 08-09-2004 02:23:53 16.9 C 11.22 g/m*3 16.9 C 0 km/h
1822 08-09-2004 02:35:53 16.8 C 11.15 g/m*3 16.8 C 0 km/h
1823 08-09-2004 02:48:55 16.5 C 11.09 g/m*3 16.5 C 0 km/h
1824 08-09-2004 03:00:56 16.4 C 11.03 g/m*3 16.4 C 0 km/h
1825 08-09-2004 03:12:56 16.2 C 11.03 g/m*3 16.2 C 0 km/h
Sensor: Nr:Datum:Temp:Abs-Feuchte:Windchill:Wind:
Aussen-T/F 1826 08-09-2004 03:24:56 16 C 11.04 g/m*3 16 C 0 km/h
1827 08-09-2004 03:36:56 15.8 C 11.04 g/m*3 15.8 C 0 km/h
1828 08-09-2004 03:48:56 15.9 C 11.1 g/m*3 15.9 C 0 km/h
1829 08-09-2004 04:00:55 15.5 C 10.97 g/m*3 15.5 C 0 km/h
1830 08-09-2004 04:12:55 15.7 C 10.97 g/m*3 15.7 C 0 km/h
1831 08-09-2004 04:24:55 15.3 C 10.71 g/m*3 15.3 C 0 km/h
1832 08-09-2004 04:36:55 15.3 C 10.84 g/m*3 15.3 C 0 km/h
1833 08-09-2004 04:48:55 15.2 C 10.77 g/m*3 15.2 C 0 km/h
1834 08-09-2004 05:00:55 15.1 C 10.71 g/m*3 15.1 C 0 km/h
1835 08-09-2004 05:12:55 15.1 C 10.71 g/m*3 15.1 C 0 km/h
1836 08-09-2004 05:24:55 14.9 C 10.71 g/m*3 14.9 C 0 km/h
1837 08-09-2004 05:36:55 14.8 C 10.64 g/m*3 14.8 C 0 km/h
1838 08-09-2004 05:48:55 14.7 C 10.58 g/m*3 14.7 C 0 km/h
1839 08-09-2004 06:00:55 14.7 C 10.7 g/m*3 14.7 C 0 km/h
1840 08-09-2004 06:12:55 14.6 C 10.76 g/m*3 14.6 C 0 km/h
1841 08-09-2004 06:24:55 14.4 C 10.63 g/m*3 14.4 C 0 km/h
1842 08-09-2004 06:36:55 14.3 C 10.57 g/m*3 14.3 C 0 km/h
1843 08-09-2004 06:48:54 14.2 C 10.5 g/m*3 14.2 C 0 km/h
1844 08-09-2004 07:00:55 14.2 C 10.5 g/m*3 14.2 C 0 km/h
1845 08-09-2004 07:12:55 14.1 C 10.44 g/m*3 14.1 C 0 km/h
1846 08-09-2004 07:24:55 14.2 C 10.5 g/m*3 14.2 C 0 km/h
1847 08-09-2004 07:36:55 14 C 10.49 g/m*3 14 C 0 km/h
1848 08-09-2004 07:48:55 14.3 C 10.69 g/m*3 14.3 C 0 km/h
1849 08-09-2004 08:00:55 14.5 C 10.7 g/m*3 14.5 C 0 km/h
1850 08-09-2004 08:12:55 14.7 C 10.83 g/m*3 14.7 C 0 km/h
Sensor: Nr:Datum:Temp:Abs-Feuchte:Windchill:Wind:
Aussen-T/F 1851 08-09-2004 08:24:55 14.9 C 10.96 g/m*3 14.9 C 0 km/h
1852 08-09-2004 08:36:55 15 C 10.77 g/m*3 15 C 0 km/h
1853 08-09-2004 08:48:55 15.2 C 10.77 g/m*3 15.2 C 0 km/h
1854 08-09-2004 09:00:55 15.4 C 10.9 g/m*3 15.4 C 0 km/h
1855 08-09-2004 09:12:55 15.8 C 11.17 g/m*3 15.8 C 0 km/h
1856 08-09-2004 09:24:54 16.3 C 11.38 g/m*3 16.3 C 0 km/h
1857 08-09-2004 09:36:54 16.8 C 11.58 g/m*3 16.8 C 0 km/h
1858 08-09-2004 09:48:54 17.1 C 11.5 g/m*3 17.1 C 0 km/h
1859 08-09-2004 10:00:55 17.6 C 11.7 g/m*3 17.6 C 0 km/h
1860 08-09-2004 10:12:55 18 C 11.52 g/m*3 18 C 0 km/h
1861 08-09-2004 10:24:54 18.3 C 11.73 g/m*3 18.3 C 0 km/h
1862 08-09-2004 10:36:54 18.7 C 11.85 g/m*3 18.7 C 0 km/h
1863 08-09-2004 10:48:54 19.2 C 11.71 g/m*3 19.2 C 0 km/h
1864 08-09-2004 11:00:54 19.5 C 11.41 g/m*3 19.5 C 0 km/h
1865 08-09-2004 11:12:54 20 C 11.41 g/m*3 20 C 0 km/h
1866 08-09-2004 11:24:55 20.5 C 11.39 g/m*3 20.5 C 0 km/h
1867 08-09-2004 11:36:55 20.8 C 11.41 g/m*3 20.8 C 0 km/h
1868 08-09-2004 11:48:55 21.1 C 10.87 g/m*3 21.1 C 0 km/h
1869 08-09-2004 12:00:55 21.5 C 11.13 g/m*3 21.5 C 0 km/h
1870 08-09-2004 12:12:55 21.8 C 11.32 g/m*3 21.8 C 0 km/h
1871 08-09-2004 12:24:55 21.9 C 11.19 g/m*3 21.9 C 0 km/h
1872 08-09-2004 12:36:54 22 C 11.65 g/m*3 22 C 0 km/h
1873 08-09-2004 12:48:54 22.2 C 11.19 g/m*3 22.2 C 0 km/h
1874 08-09-2004 13:00:54 22.5 C 10.99 g/m*3 22.5 C 0 km/h
1875 08-09-2004 13:12:54 22.9 C 11.24 g/m*3 22.9 C 0 km/h
Sensor: Nr:Datum:Temp:Abs-Feuchte:Windchill:Wind:
Aussen-T/F 1876 08-09-2004 13:24:54 23.3 C 11.29 g/m*3 23.3 C 0 km/h
1877 08-09-2004 13:36:54 23.7 C 10.27 g/m*3 23.7 C 0 km/h
1878 08-09-2004 13:48:54 24.3 C 10.84 g/m*3 24.3 C 0 km/h
1879 08-09-2004 14:00:54 24.8 C 10.47 g/m*3 24.8 C 0 km/h
1880 08-09-2004 14:12:54 25.2 C 9.08 g/m*3 25.2 C 0 km/h
1881 08-09-2004 14:24:54 25.2 C 8.85 g/m*3 25.2 C 0 km/h
1882 08-09-2004 14:36:54 25.5 C 8.52 g/m*3 25.5 C 0 km/h
1883 08-09-2004 14:48:54 26.1 C 8.08 g/m*3 26.1 C 0 km/h
1884 08-09-2004 15:00:54 26.5 C 7.76 g/m*3 26.5 C 0 km/h
1885 08-09-2004 15:12:54 27.9 C 8.11 g/m*3 27.9 C 0 km/h
1886 08-09-2004 15:24:54 28.4 C 6.95 g/m*3 28.4 C 0 km/h
1887 08-09-2004 15:36:54 28.6 C 7.59 g/m*3 28.6 C 0 km/h
1888 08-09-2004 15:48:54 28.8 C 6.82 g/m*3 28.8 C 0 km/h
1889 08-09-2004 16:00:54 28.8 C 7.39 g/m*3 28.8 C 0 km/h
1890 08-09-2004 16:12:54 29.2 C 7.84 g/m*3 29.2 C 0 km/h
1891 08-09-2004 16:24:54 29.3 C 7.59 g/m*3 29.3 C 0 km/h
1892 08-09-2004 16:36:54 29 C 7.18 g/m*3 29 C 0 km/h
1893 08-09-2004 16:48:54 28.9 C 7.43 g/m*3 28.9 C 0 km/h
1894 08-09-2004 17:00:54 29.3 C 7.01 g/m*3 29.3 C 0 km/h
1895 08-09-2004 17:12:54 29.4 C 6.75 g/m*3 29.4 C 0 km/h
1896 08-09-2004 17:24:54 29.6 C 6.53 g/m*3 29.6 C 0 km/h
1897 08-09-2004 17:36:54 29.7 C 6.86 g/m*3 29.7 C 0 km/h
1898 08-09-2004 17:48:54 29.8 C 6.9 g/m*3 29.8 C 0 km/h
1899 08-09-2004 18:00:53 29.6 C 7.12 g/m*3 29.6 C 0 km/h
1900 08-09-2004 18:12:53 29 C 7.18 g/m*3 29 C 0 km/h
Sensor: Nr:Datum:Temp:Abs-Feuchte:Windchill:Wind:
Aussen-T/F 1901 08-09-2004 18:24:53 28.1 C 6.56 g/m*3 28.1 C 0 km/h
1902 08-09-2004 18:36:53 28.2 C 7.15 g/m*3 28.2 C 0 km/h
1903 08-09-2004 18:48:53 27.8 C 6.99 g/m*3 27.8 C 0 km/h
1904 08-09-2004 19:00:53 27.4 C 7.37 g/m*3 27.4 C 0 km/h
1905 08-09-2004 19:12:53 27 C 7.21 g/m*3 27 C 0 km/h
1906 08-09-2004 19:24:54 25.6 C 6.9 g/m*3 25.6 C 0 km/h
1907 08-09-2004 19:36:54 24.5 C 7.83 g/m*3 24.5 C 0 km/h
1908 08-09-2004 19:48:54 23.8 C 7.53 g/m*3 23.8 C 0 km/h
1909 08-09-2004 20:00:54 22.8 C 7.92 g/m*3 22.8 C 0 km/h
1910 08-09-2004 20:12:54 22 C 7.76 g/m*3 22 C 0 km/h
1911 08-09-2004 20:24:54 21.2 C 7.97 g/m*3 21.2 C 0 km/h
1912 08-09-2004 20:36:54 20.7 C 8.28 g/m*3 20.7 C 0 km/h
1913 08-09-2004 20:48:53 19.7 C 8.32 g/m*3 19.7 C 0 km/h
1914 08-09-2004 21:00:53 19.5 C 8.22 g/m*3 19.5 C 0 km/h
1915 08-09-2004 21:12:53 19.3 C 8.29 g/m*3 19.3 C 0 km/h
1916 08-09-2004 21:24:53 18.9 C 8.26 g/m*3 18.9 C 0 km/h
1917 08-09-2004 21:36:53 18.5 C 8.23 g/m*3 18.5 C 0 km/h
1918 08-09-2004 21:48:53 18.2 C 8.24 g/m*3 18.2 C 0 km/h
1919 08-09-2004 22:00:53 17.9 C 8.55 g/m*3 17.9 C 0 km/h
1920 08-09-2004 22:12:53 17.8 C 8.65 g/m*3 17.8 C 0 km/h
1921 08-09-2004 22:24:53 17.6 C 8.55 g/m*3 17.6 C 0 km/h
1922 08-09-2004 22:36:53 17.6 C 8.7 g/m*3 17.6 C 0 km/h
1923 08-09-2004 22:48:53 17.3 C 8.25 g/m*3 17.3 C 0 km/h
1924 08-09-2004 23:00:54 17.2 C 8.49 g/m*3 17.2 C 0 km/h
1925 08-09-2004 23:12:54 16.9 C 8.77 g/m*3 16.9 C 0 km/h
Sensor: Nr:Datum:Temp:Abs-Feuchte:Windchill:Wind:
Aussen-T/F 1926 08-09-2004 23:24:54 16.5 C 8.71 g/m*3 16.5 C 0 km/h
1927 08-09-2004 23:36:53 16.3 C 8.6 g/m*3 16.3 C 0 km/h
1928 08-09-2004 23:48:53 15.9 C 8.67 g/m*3 15.9 C 0 km/h
1929 09-09-2004 00:00:53 15.7 C 8.7 g/m*3 15.7 C 0 km/h
1930 09-09-2004 00:12:53 15.8 C 8.48 g/m*3 15.8 C 0 km/h
1931 09-09-2004 00:24:53 15.7 C 8.3 g/m*3 15.7 C 0 km/h
1932 09-09-2004 00:36:53 16.1 C 8.22 g/m*3 16.1 C 0 km/h
1933 09-09-2004 00:48:53 16 C 7.77 g/m*3 16 C 0 km/h
1934 09-09-2004 01:00:53 16 C 7.49 g/m*3 16 C 0 km/h
1935 09-09-2004 01:12:53 15.9 C 7.72 g/m*3 15.9 C 0 km/h
1936 09-09-2004 01:24:53 15.8 C 7.67 g/m*3 15.8 C 0 km/h
1937 09-09-2004 01:36:53 15.7 C 7.89 g/m*3 15.7 C 0 km/h
1938 09-09-2004 01:48:53 15.4 C 7.88 g/m*3 15.4 C 0 km/h
1939 09-09-2004 02:00:53 15.1 C 7.87 g/m*3 15.1 C 0 km/h
1940 09-09-2004 02:12:53 14.8 C 7.98 g/m*3 14.8 C 0 km/h
1941 09-09-2004 02:24:53 14.4 C 7.91 g/m*3 14.4 C 0 km/h
1942 09-09-2004 02:36:53 14.3 C 7.86 g/m*3 14.3 C 0 km/h
1943 09-09-2004 02:49:54 14 C 7.84 g/m*3 14 C 0 km/h
1944 09-09-2004 03:01:54 13.7 C 7.82 g/m*3 13.7 C 0 km/h
1945 09-09-2004 03:13:54 13.6 C 7.89 g/m*3 13.6 C 0 km/h
1946 09-09-2004 03:25:54 13.5 C 7.95 g/m*3 13.5 C 0 km/h
1947 09-09-2004 03:37:54 13.5 C 7.95 g/m*3 13.5 C 0 km/h
1948 09-09-2004 03:49:54 13.4 C 7.9 g/m*3 13.4 C 0 km/h
1949 09-09-2004 04:01:54 13.4 C 7.9 g/m*3 13.4 C 0 km/h
1950 09-09-2004 04:13:54 13.3 C 7.86 g/m*3 13.3 C 0 km/h
Sensor: Nr:Datum:Temp:Abs-Feuchte:Windchill:Wind:
Aussen-T/F 1951 09-09-2004 04:25:54 13.1 C 7.87 g/m*3 13.1 C 0 km/h
1952 09-09-2004 04:37:54 13 C 7.83 g/m*3 13 C 0 km/h
1953 09-09-2004 04:49:54 12.7 C 7.9 g/m*3 12.7 C 0 km/h
1954 09-09-2004 05:01:54 12.6 C 7.97 g/m*3 12.6 C 0 km/h
1955 09-09-2004 05:13:54 12.4 C 7.87 g/m*3 12.4 C 0 km/h
1956 09-09-2004 05:25:54 12.1 C 7.72 g/m*3 12.1 C 0 km/h
1957 09-09-2004 05:37:54 12 C 7.78 g/m*3 12 C 0 km/h
1958 09-09-2004 05:49:54 11.8 C 7.79 g/m*3 11.8 C 0 km/h
1959 09-09-2004 06:01:54 11.8 C 7.89 g/m*3 11.8 C 0 km/h
1960 09-09-2004 06:13:54 11.5 C 7.85 g/m*3 11.5 C 0 km/h
1961 09-09-2004 06:25:54 11.4 C 8.01 g/m*3 11.4 C 0 km/h
1962 09-09-2004 06:37:54 11.2 C 8.01 g/m*3 11.2 C 0 km/h
1963 09-09-2004 06:49:54 11 C 8.01 g/m*3 11 C 0 km/h
1964 09-09-2004 07:01:54 11 C 8.01 g/m*3 11 C 0 km/h
1965 09-09-2004 07:13:55 11 C 8.01 g/m*3 11 C 0 km/h
1966 09-09-2004 07:25:54 11 C 8.11 g/m*3 11 C 0 km/h
1967 09-09-2004 07:37:54 11 C 8.01 g/m*3 11 C 0 km/h
1968 09-09-2004 07:49:54 11 C 8.01 g/m*3 11 C 0 km/h
1969 09-09-2004 08:01:54 11 C 8.01 g/m*3 11 C 0 km/h
1970 09-09-2004 08:13:54 11.1 C 8.06 g/m*3 11.1 C 0 km/h
1971 09-09-2004 08:25:53 11.2 C 8.11 g/m*3 11.2 C 0 km/h
1972 09-09-2004 08:37:53 11.2 C 8.11 g/m*3 11.2 C 0 km/h
1973 09-09-2004 08:49:53 11.4 C 8.21 g/m*3 11.4 C 0 km/h
1974 09-09-2004 09:01:53 11.6 C 8.21 g/m*3 11.6 C 0 km/h
1975 09-09-2004 09:13:53 11.8 C 8.31 g/m*3 11.8 C 0 km/h
Sensor: Nr:Datum:Temp:Abs-Feuchte:Windchill:Wind:
Aussen-T/F 1976 09-09-2004 09:25:53 12.1 C 8.26 g/m*3 12.1 C 0 km/h
1977 09-09-2004 09:37:54 12.5 C 8.47 g/m*3 12.5 C 0 km/h
1978 09-09-2004 09:49:54 13.2 C 8.61 g/m*3 13.2 C 0 km/h
1979 09-09-2004 10:01:54 13.8 C 8.7 g/m*3 13.8 C 0 km/h
1980 09-09-2004 10:13:54 14.7 C 8.56 g/m*3 14.7 C 0 km/h
1981 09-09-2004 10:25:54 15.4 C 8.54 g/m*3 15.4 C 0 km/h
1982 09-09-2004 10:37:54 16.1 C 8.36 g/m*3 16.1 C 0 km/h
1983 09-09-2004 10:49:54 16.8 C 8.29 g/m*3 16.8 C 0 km/h
1984 09-09-2004 11:01:53 17.5 C 8.2 g/m*3 17.5 C 0 km/h
1985 09-09-2004 11:13:53 18 C 8.6 g/m*3 18 C 0 km/h
1986 09-09-2004 11:25:53 18.7 C 8.81 g/m*3 18.7 C 0 km/h
1987 09-09-2004 11:37:53 19.1 C 8.03 g/m*3 19.1 C 0 km/h
1988 09-09-2004 11:49:53 19.7 C 8.15 g/m*3 19.7 C 0 km/h
1989 09-09-2004 12:01:53 20.2 C 7.69 g/m*3 20.2 C 0 km/h
1990 09-09-2004 12:13:53 20.7 C 7.38 g/m*3 20.7 C 0 km/h
1991 09-09-2004 12:25:53 21.2 C 6.67 g/m*3 21.2 C 0 km/h
1992 09-09-2004 12:37:53 21.4 C 6.94 g/m*3 21.4 C 0 km/h
1993 09-09-2004 12:49:53 21.6 C 6.45 g/m*3 21.6 C 0 km/h
1994 09-09-2004 13:01:53 21.9 C 6.37 g/m*3 21.9 C 0 km/h
1995 09-09-2004 13:13:53 22.4 C 6.55 g/m*3 22.4 C 0 km/h
1996 09-09-2004 13:25:53 22.7 C 6.26 g/m*3 22.7 C 0 km/h
1997 09-09-2004 13:37:54 23.1 C 6.41 g/m*3 23.1 C 0 km/h
1998 09-09-2004 13:49:53 23.6 C 6.38 g/m*3 23.6 C 0 km/h
1999 09-09-2004 14:01:53 24 C 5.87 g/m*3 24 C 0 km/h
2000 09-09-2004 14:13:53 24.3 C 6.42 g/m*3 24.3 C 0 km/h
Sensor: Nr:Datum:Temp:Abs-Feuchte:Windchill:Wind:
Aussen-T/F 2001 09-09-2004 14:25:53 25 C 5.99 g/m*3 25 C 0 km/h
2002 09-09-2004 14:37:53 25.6 C 6.43 g/m*3 25.6 C 0 km/h
2003 09-09-2004 14:49:53 25.9 C 6.29 g/m*3 25.9 C 0 km/h
2004 09-09-2004 15:01:53 26.6 C 6.29 g/m*3 26.6 C 0 km/h
2005 09-09-2004 15:13:53 27.1 C 6.73 g/m*3 27.1 C 0 km/h
2006 09-09-2004 15:25:53 27.7 C 6.42 g/m*3 27.7 C 0 km/h
2007 09-09-2004 15:37:53 28.4 C 6.67 g/m*3 28.4 C 0 km/h
2008 09-09-2004 15:49:53 28.5 C 6.43 g/m*3 28.5 C 0 km/h
2009 09-09-2004 16:01:53 28.5 C 6.15 g/m*3 28.5 C 0 km/h
2010 09-09-2004 16:13:53 28.8 C 7.1 g/m*3 28.8 C 0 km/h
2011 09-09-2004 16:25:53 29 C 6.03 g/m*3 29 C 0 km/h
2012 09-09-2004 16:37:52 29.2 C 6.1 g/m*3 29.2 C 0 km/h
2013 09-09-2004 16:49:52 29.4 C 6.16 g/m*3 29.4 C 0 km/h
2014 09-09-2004 17:01:52 29.7 C 6.56 g/m*3 29.7 C 0 km/h
2015 09-09-2004 17:13:52 29.4 C 6.16 g/m*3 29.4 C 0 km/h
2016 09-09-2004 17:25:52 30.1 C 6.4 g/m*3 30.1 C 0 km/h
2017 09-09-2004 17:37:53 29.8 C 6 g/m*3 29.8 C 0 km/h
2018 09-09-2004 17:49:53 29.8 C 6 g/m*3 29.8 C 0 km/h
2019 09-09-2004 18:01:53 30 C 6.06 g/m*3 30 C 0 km/h
2020 09-09-2004 18:13:53 29.3 C 5.84 g/m*3 29.3 C 0 km/h
2021 09-09-2004 18:25:53 28.2 C 5.5 g/m*3 28.2 C 0 km/h
2022 09-09-2004 18:37:53 27.9 C 5.95 g/m*3 27.9 C 0 km/h
2023 09-09-2004 18:49:53 27.9 C 7.3 g/m*3 27.9 C 0 km/h
2024 09-09-2004 19:01:53 27 C 7.46 g/m*3 27 C 0 km/h
2025 09-09-2004 19:13:53 26.3 C 6.93 g/m*3 26.3 C 0 km/h
Sensor: Nr:Datum:Temp:Abs-Feuchte:Windchill:Wind:
Aussen-T/F 2026 09-09-2004 19:25:52 25.3 C 7.26 g/m*3 25.3 C 0 km/h
2027 09-09-2004 19:37:52 23.9 C 7.57 g/m*3 23.9 C 0 km/h
2028 09-09-2004 19:49:52 22.2 C 7.66 g/m*3 22.2 C 0 km/h
2029 09-09-2004 20:01:52 20.8 C 7.24 g/m*3 20.8 C 0 km/h
2030 09-09-2004 20:13:52 19.8 C 7.17 g/m*3 19.8 C 0 km/h
2031 09-09-2004 20:25:52 19.3 C 7.13 g/m*3 19.3 C 0 km/h
2032 09-09-2004 20:37:52 19 C 7.17 g/m*3 19 C 0 km/h
2033 09-09-2004 20:49:52 18.8 C 7.25 g/m*3 18.8 C 0 km/h
2034 09-09-2004 21:01:52 18.6 C 7 g/m*3 18.6 C 0 km/h
2035 09-09-2004 21:13:52 18.4 C 6.76 g/m*3 18.4 C 0 km/h
2036 09-09-2004 21:25:53 18.2 C 6.84 g/m*3 18.2 C 0 km/h
2037 09-09-2004 21:37:53 17.9 C 6.72 g/m*3 17.9 C 0 km/h
2038 09-09-2004 21:49:53 17.6 C 6.75 g/m*3 17.6 C 0 km/h
2039 09-09-2004 22:01:52 17.4 C 6.67 g/m*3 17.4 C 0 km/h
2040 09-09-2004 22:13:52 17.2 C 6.74 g/m*3 17.2 C 0 km/h
2041 09-09-2004 22:25:52 16.9 C 6.76 g/m*3 16.9 C 0 km/h
2042 09-09-2004 22:37:52 16.7 C 6.68 g/m*3 16.7 C 0 km/h
2043 09-09-2004 22:49:52 16.2 C 6.62 g/m*3 16.2 C 0 km/h
2044 09-09-2004 23:01:52 15.9 C 6.77 g/m*3 15.9 C 0 km/h
2045 09-09-2004 23:13:52 15.8 C 6.87 g/m*3 15.8 C 0 km/h
2046 09-09-2004 23:25:52 15.6 C 6.65 g/m*3 15.6 C 0 km/h
2047 09-09-2004 23:37:52 15.3 C 6.66 g/m*3 15.3 C 0 km/h
2048 09-09-2004 23:49:52 15.2 C 6.88 g/m*3 15.2 C 0 km/h
2049 10-09-2004 00:01:52 14.9 C 6.75 g/m*3 14.9 C 0 km/h
2050 10-09-2004 00:13:52 14.6 C 6.63 g/m*3 14.6 C 0 km/h
Sensor: Nr:Datum:Temp:Abs-Feuchte:Windchill:Wind:
Aussen-T/F 2051 10-09-2004 00:25:53 14.4 C 6.43 g/m*3 14.4 C 0 km/h
2052 10-09-2004 00:37:52 14.4 C 6.43 g/m*3 14.4 C 0 km/h
2053 10-09-2004 00:49:52 14.2 C 6.35 g/m*3 14.2 C 0 km/h
2054 10-09-2004 01:01:52 14.1 C 6.19 g/m*3 14.1 C 0 km/h
2055 10-09-2004 01:13:52 13.8 C 6.55 g/m*3 13.8 C 0 km/h
2056 10-09-2004 01:25:51 13.6 C 6.47 g/m*3 13.6 C 0 km/h
2057 10-09-2004 01:37:51 13.2 C 6.43 g/m*3 13.2 C 0 km/h
2058 10-09-2004 01:49:52 13.2 C 6.2 g/m*3 13.2 C 0 km/h
2059 10-09-2004 02:01:52 13 C 6.35 g/m*3 13 C 0 km/h
2060 10-09-2004 02:13:52 12.8 C 6.38 g/m*3 12.8 C 0 km/h
2061 10-09-2004 02:25:52 12.5 C 6.38 g/m*3 12.5 C 0 km/h
2062 10-09-2004 02:37:52 12.3 C 6.3 g/m*3 12.3 C 0 km/h
2063 10-09-2004 02:50:53 12.1 C 6.65 g/m*3 12.1 C 0 km/h
2064 10-09-2004 03:02:53 12.1 C 6.54 g/m*3 12.1 C 0 km/h
2065 10-09-2004 03:14:53 11.7 C 6.38 g/m*3 11.7 C 0 km/h
2066 10-09-2004 03:26:53 11.4 C 6.26 g/m*3 11.4 C 0 km/h
2067 10-09-2004 03:38:53 11.2 C 6.28 g/m*3 11.2 C 0 km/h
2068 10-09-2004 03:50:53 11.2 C 6.39 g/m*3 11.2 C 0 km/h
2069 10-09-2004 04:02:53 11.1 C 6.45 g/m*3 11.1 C 0 km/h
2070 10-09-2004 04:14:53 10.9 C 6.56 g/m*3 10.9 C 0 km/h
2071 10-09-2004 04:26:53 10.7 C 6.68 g/m*3 10.7 C 0 km/h
2072 10-09-2004 04:38:53 10.6 C 6.54 g/m*3 10.6 C 0 km/h
2073 10-09-2004 04:50:53 10.3 C 6.7 g/m*3 10.3 C 0 km/h
2074 10-09-2004 05:02:53 10.2 C 6.76 g/m*3 10.2 C 0 km/h
2075 10-09-2004 05:14:53 10 C 6.86 g/m*3 10 C 0 km/h
Sensor: Nr:Datum:Temp:Abs-Feuchte:Windchill:Wind:
Aussen-T/F 2076 10-09-2004 05:26:53 9.7 C 6.82 g/m*3 9.7 C 0 km/h
2077 10-09-2004 05:38:53 9.5 C 6.83 g/m*3 9.5 C 0 km/h
2078 10-09-2004 05:50:53 9.4 C 6.96 g/m*3 9.4 C 0 km/h
2079 10-09-2004 06:02:53 9.2 C 6.61 g/m*3 9.2 C 0 km/h
2080 10-09-2004 06:14:53 9.1 C 6.92 g/m*3 9.1 C 0 km/h
2081 10-09-2004 06:26:53 8.9 C 7.1 g/m*3 8.9 C 0 km/h
2082 10-09-2004 06:38:53 8.9 C 6.83 g/m*3 8.9 C 0 km/h
2083 10-09-2004 06:50:53 8.8 C 6.61 g/m*3 8.8 C 0 km/h
2084 10-09-2004 07:02:52 8.7 C 7.01 g/m*3 8.7 C 0 km/h
2085 10-09-2004 07:14:53 8.6 C 6.79 g/m*3 8.6 C 0 km/h
2086 10-09-2004 07:26:53 8.6 C 6.7 g/m*3 8.6 C 0 km/h
2087 10-09-2004 07:38:53 8.9 C 6.83 g/m*3 8.9 C 0 km/h
2088 10-09-2004 07:50:53 8.7 C 6.66 g/m*3 8.7 C 0 km/h
2089 10-09-2004 08:02:53 8.8 C 6.79 g/m*3 8.8 C 0 km/h
2090 10-09-2004 08:14:53 8.8 C 6.88 g/m*3 8.8 C 0 km/h
2091 10-09-2004 08:26:53 9 C 6.96 g/m*3 9 C 0 km/h
2092 10-09-2004 08:38:53 9.3 C 7.01 g/m*3 9.3 C 0 km/h
2093 10-09-2004 08:50:53 9.5 C 7.1 g/m*3 9.5 C 0 km/h
2094 10-09-2004 09:02:53 9.9 C 7.19 g/m*3 9.9 C 0 km/h
2095 10-09-2004 09:14:52 10.2 C 7.23 g/m*3 10.2 C 0 km/h
2096 10-09-2004 09:26:52 10.6 C 7.32 g/m*3 10.6 C 0 km/h
2097 10-09-2004 09:38:52 11.3 C 7.34 g/m*3 11.3 C 0 km/h
2098 10-09-2004 09:50:52 12 C 7.35 g/m*3 12 C 0 km/h
2099 10-09-2004 10:02:52 12.9 C 7.44 g/m*3 12.9 C 0 km/h
2100 10-09-2004 10:14:52 13.6 C 7.65 g/m*3 13.6 C 0 km/h
Sensor: Nr:Datum:Temp:Abs-Feuchte:Windchill:Wind:
Aussen-T/F 2101 10-09-2004 10:26:52 14.1 C 7.52 g/m*3 14.1 C 0 km/h
2102 10-09-2004 10:38:52 15 C 7.69 g/m*3 15 C 0 km/h
2103 10-09-2004 10:50:52 16.2 C 7.03 g/m*3 16.2 C 0 km/h
2104 10-09-2004 11:02:52 17 C 6.51 g/m*3 17 C 0 km/h
2105 10-09-2004 11:14:52 17.8 C 6.68 g/m*3 17.8 C 0 km/h
2106 10-09-2004 11:26:52 18.3 C 6.1 g/m*3 18.3 C 0 km/h
2107 10-09-2004 11:38:53 19 C 6.52 g/m*3 19 C 0 km/h
2108 10-09-2004 11:50:53 19.5 C 6.55 g/m*3 19.5 C 0 km/h
2109 10-09-2004 12:02:53 20.2 C 6.29 g/m*3 20.2 C 0 km/h
2110 10-09-2004 12:14:52 20.6 C 6.44 g/m*3 20.6 C 0 km/h
2111 10-09-2004 12:26:52 21 C 6.41 g/m*3 21 C 0 km/h
2112 10-09-2004 12:38:52 21.6 C 6.64 g/m*3 21.6 C 0 km/h
2113 10-09-2004 12:50:52 21.8 C 6.72 g/m*3 21.8 C 0 km/h
2114 10-09-2004 13:02:52 22.2 C 6.87 g/m*3 22.2 C 0 km/h
2115 10-09-2004 13:14:52 22.7 C 7.27 g/m*3 22.7 C 0 km/h
2116 10-09-2004 13:26:52 23.2 C 6.65 g/m*3 23.2 C 0 km/h
2117 10-09-2004 13:38:52 23.6 C 6.81 g/m*3 23.6 C 0 km/h
2118 10-09-2004 13:50:52 24.3 C 6.86 g/m*3 24.3 C 0 km/h
2119 10-09-2004 14:02:52 24.5 C 6.71 g/m*3 24.5 C 0 km/h
2120 10-09-2004 14:14:52 25 C 6.91 g/m*3 25 C 0 km/h
2121 10-09-2004 14:26:52 24.9 C 6.87 g/m*3 24.9 C 0 km/h
2122 10-09-2004 14:38:52 25.3 C 7.02 g/m*3 25.3 C 0 km/h
2123 10-09-2004 14:50:52 25.7 C 6.7 g/m*3 25.7 C 0 km/h
2124 10-09-2004 15:02:52 26.4 C 7.47 g/m*3 26.4 C 0 km/h
2125 10-09-2004 15:14:52 27.2 C 7.81 g/m*3 27.2 C 0 km/h
Sensor: Nr:Datum:Temp:Abs-Feuchte:Windchill:Wind:
Aussen-T/F 2126 10-09-2004 15:26:52 27.2 C 7.29 g/m*3 27.2 C 0 km/h
2127 10-09-2004 15:38:52 26.1 C 8.32 g/m*3 26.1 C 0 km/h
2128 10-09-2004 15:50:52 27 C 7.98 g/m*3 27 C 0 km/h
2129 10-09-2004 16:02:52 28.5 C 8.38 g/m*3 28.5 C 0 km/h
2130 10-09-2004 16:14:52 29.2 C 7.84 g/m*3 29.2 C 0 km/h
2131 10-09-2004 16:26:52 29.5 C 7.67 g/m*3 29.5 C 0 km/h
2132 10-09-2004 16:38:52 29.9 C 8.14 g/m*3 29.9 C 0 km/h
2133 10-09-2004 16:50:52 29.3 C 7.88 g/m*3 29.3 C 0 km/h
2134 10-09-2004 17:02:52 28.8 C 7.96 g/m*3 28.8 C 0 km/h
2135 10-09-2004 17:14:52 28.8 C 8.81 g/m*3 28.8 C 0 km/h
2136 10-09-2004 17:26:52 30.1 C 8.54 g/m*3 30.1 C 0 km/h
2137 10-09-2004 17:38:52 29.8 C 9.6 g/m*3 29.8 C 0 km/h
2138 10-09-2004 17:50:51 29.8 C 9.9 g/m*3 29.8 C 0 km/h
2139 10-09-2004 18:02:51 28.1 C 9.84 g/m*3 28.1 C 0 km/h
2140 10-09-2004 18:14:51 26.2 C 10.09 g/m*3 26.2 C 0 km/h
2141 10-09-2004 18:26:51 25.8 C 10.11 g/m*3 25.8 C 0 km/h
2142 10-09-2004 18:38:51 27.1 C 10.09 g/m*3 27.1 C 0 km/h
2143 10-09-2004 18:50:51 27.3 C 10.47 g/m*3 27.3 C 0 km/h
2144 10-09-2004 19:02:52 26.7 C 10.12 g/m*3 26.7 C 0 km/h
2145 10-09-2004 19:14:52 25.6 C 10.48 g/m*3 25.6 C 0 km/h
2146 10-09-2004 19:26:52 24.5 C 10.74 g/m*3 24.5 C 0 km/h
2147 10-09-2004 19:38:52 23.3 C 10.45 g/m*3 23.3 C 0 km/h
2148 10-09-2004 19:50:52 22.6 C 10.45 g/m*3 22.6 C 0 km/h
2149 10-09-2004 20:02:52 22.2 C 10.41 g/m*3 22.2 C 0 km/h
2150 10-09-2004 20:14:51 21.8 C 10.36 g/m*3 21.8 C 0 km/h
Sensor: Nr:Datum:Temp:Abs-Feuchte:Windchill:Wind:
Aussen-T/F 2151 10-09-2004 20:26:51 21.7 C 10.3 g/m*3 21.7 C 0 km/h
2152 10-09-2004 20:38:51 21.6 C 10.24 g/m*3 21.6 C 0 km/h
2153 10-09-2004 20:50:51 21.6 C 10.24 g/m*3 21.6 C 0 km/h
2154 10-09-2004 21:02:51 21.3 C 10.07 g/m*3 21.3 C 0 km/h
2155 10-09-2004 21:14:51 20.9 C 10.2 g/m*3 20.9 C 0 km/h
2156 10-09-2004 21:26:51 20.8 C 10.5 g/m*3 20.8 C 0 km/h
2157 10-09-2004 21:38:51 20.5 C 10.5 g/m*3 20.5 C 0 km/h
2158 10-09-2004 21:50:51 20.3 C 10.55 g/m*3 20.3 C 0 km/h
2159 10-09-2004 22:02:51 20.3 C 10.73 g/m*3 20.3 C 0 km/h
2160 10-09-2004 22:14:51 20.4 C 10.97 g/m*3 20.4 C 0 km/h
2161 10-09-2004 22:26:51 20.3 C 10.9 g/m*3 20.3 C 0 km/h
2162 10-09-2004 22:38:51 20.2 C 11.02 g/m*3 20.2 C 0 km/h
2163 10-09-2004 22:50:51 20.3 C 11.08 g/m*3 20.3 C 0 km/h
2164 10-09-2004 23:02:50 20 C 11.06 g/m*3 20 C 0 km/h
2165 10-09-2004 23:14:51 19.7 C 11.21 g/m*3 19.7 C 0 km/h
2166 10-09-2004 23:26:51 19.6 C 11.48 g/m*3 19.6 C 0 km/h
2167 10-09-2004 23:38:51 19.4 C 11.51 g/m*3 19.4 C 0 km/h
2168 10-09-2004 23:50:51 19.3 C 11.61 g/m*3 19.3 C 0 km/h
2169 11-09-2004 00:02:51 19.2 C 11.54 g/m*3 19.2 C 0 km/h
2170 11-09-2004 00:14:53 19.1 C 11.47 g/m*3 19.1 C 0 km/h
2171 11-09-2004 00:26:54 19.1 C 11.8 g/m*3 19.1 C 0 km/h
2172 11-09-2004 00:38:51 19.2 C 11.71 g/m*3 19.2 C 0 km/h
2173 11-09-2004 00:50:51 19.1 C 11.64 g/m*3 19.1 C 0 km/h
2174 11-09-2004 01:02:51 18.9 C 11.66 g/m*3 18.9 C 0 km/h
2175 11-09-2004 01:14:50 18.9 C 11.83 g/m*3 18.9 C 0 km/h
Sensor: Nr:Datum:Temp:Abs-Feuchte:Windchill:Wind:
Aussen-T/F 2176 11-09-2004 01:26:50 18.8 C 11.76 g/m*3 18.8 C 0 km/h
2177 11-09-2004 01:38:50 18.5 C 11.71 g/m*3 18.5 C 0 km/h
2178 11-09-2004 01:50:50 18.7 C 11.85 g/m*3 18.7 C 0 km/h
2179 11-09-2004 02:02:51 18.8 C 11.92 g/m*3 18.8 C 0 km/h
2180 11-09-2004 02:14:51 18.9 C 11.99 g/m*3 18.9 C 0 km/h
2181 11-09-2004 02:26:51 18.8 C 11.92 g/m*3 18.8 C 0 km/h
2182 11-09-2004 02:38:51 18.5 C 12.02 g/m*3 18.5 C 0 km/h
2183 11-09-2004 02:51:52 18.4 C 13.21 g/m*3 18.4 C 0 km/h
2184 11-09-2004 03:03:52 18.4 C 13.53 g/m*3 18.4 C 0 km/h
2185 11-09-2004 03:15:52 18.1 C 13.75 g/m*3 18.1 C 0 km/h
2186 11-09-2004 03:27:52 18 C 13.82 g/m*3 18 C 0 km/h
2187 11-09-2004 03:39:52 17.9 C 14.05 g/m*3 17.9 C 0 km/h
2188 11-09-2004 03:51:52 17.9 C 14.05 g/m*3 17.9 C 0 km/h
2189 11-09-2004 04:03:52 17.9 C 13.89 g/m*3 17.9 C 0 km/h
2190 11-09-2004 04:15:52 17.9 C 13.89 g/m*3 17.9 C 0 km/h
2191 11-09-2004 04:27:52 17.8 C 13.96 g/m*3 17.8 C 0 km/h
2192 11-09-2004 04:39:52 17.5 C 13.72 g/m*3 17.5 C 0 km/h
2193 11-09-2004 04:51:52 17.3 C 13.55 g/m*3 17.3 C 0 km/h
2194 11-09-2004 05:03:52 17.2 C 13.47 g/m*3 17.2 C 0 km/h
2195 11-09-2004 05:15:52 17.1 C 13.39 g/m*3 17.1 C 0 km/h
2196 11-09-2004 05:27:52 17.2 C 13.62 g/m*3 17.2 C 0 km/h
2197 11-09-2004 05:39:52 16.9 C 13.38 g/m*3 16.9 C 0 km/h
2198 11-09-2004 05:51:52 16.8 C 13.3 g/m*3 16.8 C 0 km/h
2199 11-09-2004 06:03:52 16.9 C 13.52 g/m*3 16.9 C 0 km/h
2200 11-09-2004 06:15:52 16.9 C 13.52 g/m*3 16.9 C 0 km/h
Sensor: Nr:Datum:Temp:Abs-Feuchte:Windchill:Wind:
Aussen-T/F 2201 11-09-2004 06:27:52 16.8 C 13.44 g/m*3 16.8 C 0 km/h
2202 11-09-2004 06:39:52 16.8 C 13.44 g/m*3 16.8 C 0 km/h
2203 11-09-2004 06:51:51 16.7 C 13.36 g/m*3 16.7 C 0 km/h
2204 11-09-2004 07:03:51 16.6 C 13.28 g/m*3 16.6 C 0 km/h
2205 11-09-2004 07:15:51 16.9 C 13.52 g/m*3 16.9 C 0 km/h
2206 11-09-2004 07:27:51 17 C 13.6 g/m*3 17 C 0 km/h
2207 11-09-2004 07:39:51 17.1 C 13.68 g/m*3 17.1 C 0 km/h
2208 11-09-2004 07:51:52 17.1 C 13.54 g/m*3 17.1 C 0 km/h
2209 11-09-2004 08:03:52 17.1 C 13.54 g/m*3 17.1 C 0 km/h
2210 11-09-2004 08:15:01 17.5 C 13.72 g/m*3 17.5 C 0 km/h
2211 11-09-2004 08:27:01 17.9 C 13.89 g/m*3 17.9 C 0 km/h
2212 11-09-2004 08:39:01 18.7 C 13.61 g/m*3 18.7 C 0 km/h
2213 11-09-2004 08:51:01 18.9 C 13.45 g/m*3 18.9 C 0 km/h
2214 11-09-2004 09:03:01 19.1 C 13.28 g/m*3 19.1 C 0 km/h
2215 11-09-2004 09:15:01 19.1 C 13.28 g/m*3 19.1 C 0 km/h
2216 11-09-2004 09:27:01 19.4 C 13.51 g/m*3 19.4 C 0 km/h
2217 11-09-2004 09:39:01 19.5 C 13.43 g/m*3 19.5 C 0 km/h
2218 11-09-2004 09:51:01 19.9 C 13.57 g/m*3 19.9 C 0 km/h
2219 11-09-2004 10:03:00 20.3 C 13.72 g/m*3 20.3 C 0 km/h
2220 11-09-2004 10:15:00 20.4 C 13.44 g/m*3 20.4 C 0 km/h
2221 11-09-2004 10:27:00 20.4 C 13.27 g/m*3 20.4 C 0 km/h
2222 11-09-2004 10:39:00 20.7 C 13.14 g/m*3 20.7 C 0 km/h
2223 11-09-2004 10:51:00 20.5 C 13.17 g/m*3 20.5 C 0 km/h
2224 11-09-2004 11:03:00 20.8 C 13.04 g/m*3 20.8 C 0 km/h
2225 11-09-2004 11:15:00 21.1 C 12.9 g/m*3 21.1 C 0 km/h
Sensor: Nr:Datum:Temp:Abs-Feuchte:Windchill:Wind:
Aussen-T/F 2226 11-09-2004 11:27:00 21.5 C 12.82 g/m*3 21.5 C 0 km/h
2227 11-09-2004 11:39:00 21.8 C 12.85 g/m*3 21.8 C 0 km/h
2228 11-09-2004 11:51:00 21.9 C 12.54 g/m*3 21.9 C 0 km/h
2229 11-09-2004 12:03:00 22.2 C 12.57 g/m*3 22.2 C 0 km/h
2230 11-09-2004 12:15:00 22.5 C 12.38 g/m*3 22.5 C 0 km/h
2231 11-09-2004 12:27:00 22.8 C 12.6 g/m*3 22.8 C 0 km/h
2232 11-09-2004 12:39:01 23.1 C 12.2 g/m*3 23.1 C 0 km/h
2233 11-09-2004 12:51:00 23.4 C 11.99 g/m*3 23.4 C 0 km/h
2234 11-09-2004 13:03:00 23.3 C 11.5 g/m*3 23.3 C 0 km/h
2235 11-09-2004 13:15:00 23.5 C 11.63 g/m*3 23.5 C 0 km/h
2236 11-09-2004 13:27:00 23.3 C 11.29 g/m*3 23.3 C 0 km/h
2237 11-09-2004 13:39:00 23.7 C 11.34 g/m*3 23.7 C 0 km/h
2238 11-09-2004 13:51:00 24.1 C 11.16 g/m*3 24.1 C 0 km/h
2239 11-09-2004 14:03:00 24.2 C 11.22 g/m*3 24.2 C 0 km/h
2240 11-09-2004 14:15:00 24.5 C 11.19 g/m*3 24.5 C 0 km/h
2241 11-09-2004 14:27:00 24.8 C 10.47 g/m*3 24.8 C 0 km/h
2242 11-09-2004 14:39:00 25.2 C 10.71 g/m*3 25.2 C 0 km/h
2243 11-09-2004 14:51:00 25.2 C 10.71 g/m*3 25.2 C 0 km/h
2244 11-09-2004 15:03:00 24.5 C 10.74 g/m*3 24.5 C 0 km/h
2245 11-09-2004 15:15:59 24.4 C 10.68 g/m*3 24.4 C 0 km/h
2246 11-09-2004 15:27:59 24.8 C 10.7 g/m*3 24.8 C 0 km/h
2247 11-09-2004 15:39:59 24.3 C 10.62 g/m*3 24.3 C 0 km/h
2248 11-09-2004 15:50:59 24.6 C 11.03 g/m*3 24.6 C 0 km/h
2249 11-09-2004 16:03:00 24.1 C 10.72 g/m*3 24.1 C 0 km/h
2250 11-09-2004 16:15:00 24.3 C 10.62 g/m*3 24.3 C 0 km/h
Sensor: Nr:Datum:Temp:Abs-Feuchte:Windchill:Wind:
Aussen-T/F 2251 11-09-2004 16:27:00 24.7 C 10.86 g/m*3 24.7 C 0 km/h
2252 11-09-2004 16:39:00 24.6 C 10.35 g/m*3 24.6 C 0 km/h
2253 11-09-2004 16:51:00 24.6 C 10.13 g/m*3 24.6 C 0 km/h
2254 11-09-2004 17:03:00 24.7 C 10.19 g/m*3 24.7 C 0 km/h
2255 11-09-2004 17:15:00 24.1 C 10.06 g/m*3 24.1 C 0 km/h
2256 11-09-2004 17:27:00 24.1 C 10.06 g/m*3 24.1 C 0 km/h
2257 11-09-2004 17:39:00 23.9 C 9.95 g/m*3 23.9 C 0 km/h
2258 11-09-2004 17:51:59 23.7 C 10.05 g/m*3 23.7 C 0 km/h
2259 11-09-2004 18:03:59 23.5 C 10.15 g/m*3 23.5 C 0 km/h
2260 11-09-2004 18:15:59 23.8 C 10.33 g/m*3 23.8 C 0 km/h
2261 11-09-2004 18:27:59 23.6 C 10.21 g/m*3 23.6 C 0 km/h
2262 11-09-2004 18:39:00 23.8 C 9.9 g/m*3 23.8 C 0 km/h
2263 11-09-2004 18:51:59 23.9 C 10.17 g/m*3 23.9 C 0 km/h
2264 11-09-2004 19:03:59 23.7 C 10.05 g/m*3 23.7 C 0 km/h
2265 11-09-2004 19:15:00 23.2 C 11.02 g/m*3 23.2 C 0 km/h
2266 11-09-2004 19:27:00 22.3 C 11.26 g/m*3 22.3 C 0 km/h
2267 11-09-2004 19:39:01 21.7 C 11.64 g/m*3 21.7 C 0 km/h
2268 11-09-2004 19:51:00 21.3 C 11.74 g/m*3 21.3 C 0 km/h
2269 11-09-2004 20:03:00 20.9 C 11.29 g/m*3 20.9 C 0 km/h
2270 11-09-2004 20:15:00 20.7 C 11.34 g/m*3 20.7 C 0 km/h
2271 11-09-2004 20:27:00 20.4 C 10.97 g/m*3 20.4 C 0 km/h
2272 11-09-2004 20:39:00 20.5 C 10.85 g/m*3 20.5 C 0 km/h
2273 11-09-2004 20:51:00 20.5 C 10.85 g/m*3 20.5 C 0 km/h
2274 11-09-2004 21:03:01 20.3 C 10.9 g/m*3 20.3 C 0 km/h
2275 11-09-2004 21:15:00 20.1 C 10.95 g/m*3 20.1 C 0 km/h
Sensor: Nr:Datum:Temp:Abs-Feuchte:Windchill:Wind:
Aussen-T/F 2276 11-09-2004 21:27:00 20.1 C 10.95 g/m*3 20.1 C 0 km/h
2277 11-09-2004 21:39:59 20.1 C 10.95 g/m*3 20.1 C 0 km/h
2278 11-09-2004 21:51:59 20.3 C 10.9 g/m*3 20.3 C 0 km/h
2279 11-09-2004 22:03:59 20.4 C 11.14 g/m*3 20.4 C 0 km/h
2280 11-09-2004 22:15:59 20 C 11.23 g/m*3 20 C 0 km/h
2281 11-09-2004 22:27:59 19.8 C 11.44 g/m*3 19.8 C 0 km/h
2282 11-09-2004 22:39:59 19.7 C 11.38 g/m*3 19.7 C 0 km/h
2283 11-09-2004 22:51:59 19.8 C 11.44 g/m*3 19.8 C 0 km/h
2284 11-09-2004 23:03:59 19.7 C 11.55 g/m*3 19.7 C 0 km/h
2285 11-09-2004 23:15:59 19.6 C 11.65 g/m*3 19.6 C 0 km/h
2286 11-09-2004 23:27:59 19.5 C 11.58 g/m*3 19.5 C 0 km/h
2287 11-09-2004 23:39:59 19.5 C 11.75 g/m*3 19.5 C 0 km/h
2288 11-09-2004 23:51:59 19.5 C 11.58 g/m*3 19.5 C 0 km/h
2289 12-09-2004 00:03:59 19.8 C 11.44 g/m*3 19.8 C 0 km/h
2290 12-09-2004 00:15:59 20.2 C 10.84 g/m*3 20.2 C 0 km/h
2291 12-09-2004 00:27:59 20.1 C 11.13 g/m*3 20.1 C 0 km/h
2292 12-09-2004 00:39:59 20 C 11.06 g/m*3 20 C 0 km/h
2293 12-09-2004 00:51:59 19.8 C 11.27 g/m*3 19.8 C 0 km/h
2294 12-09-2004 01:03:59 19.7 C 11.55 g/m*3 19.7 C 0 km/h
2295 12-09-2004 01:15:59 19.2 C 11.87 g/m*3 19.2 C 0 km/h
2296 12-09-2004 01:28:00 19 C 11.9 g/m*3 19 C 0 km/h
2297 12-09-2004 01:39:59 18.9 C 11.99 g/m*3 18.9 C 0 km/h
2298 12-09-2004 01:51:59 18.9 C 11.99 g/m*3 18.9 C 0 km/h
2299 12-09-2004 02:03:59 18.8 C 11.92 g/m*3 18.8 C 0 km/h
2300 12-09-2004 02:15:58 18.8 C 11.92 g/m*3 18.8 C 0 km/h
Sensor: Nr:Datum:Temp:Abs-Feuchte:Windchill:Wind:
Aussen-T/F 2301 12-09-2004 02:27:58 18.8 C 12.08 g/m*3 18.8 C 0 km/h
2302 12-09-2004 02:39:58 18.7 C 11.85 g/m*3 18.7 C 0 km/h
2303 12-09-2004 02:52:00 18.9 C 11.99 g/m*3 18.9 C 0 km/h
2304 12-09-2004 03:04:00 18.9 C 11.83 g/m*3 18.9 C 0 km/h
2305 12-09-2004 03:16:00 18.2 C 12.12 g/m*3 18.2 C 0 km/h
2306 12-09-2004 03:28:00 17.9 C 12.52 g/m*3 17.9 C 0 km/h
2307 12-09-2004 03:40:00 17.9 C 12.37 g/m*3 17.9 C 0 km/h
2308 12-09-2004 03:52:01 17.3 C 12.37 g/m*3 17.3 C 0 km/h
2309 12-09-2004 04:04:00 16.9 C 12.51 g/m*3 16.9 C 0 km/h
2310 12-09-2004 04:16:00 16.8 C 12.44 g/m*3 16.8 C 0 km/h
2311 12-09-2004 04:28:00 17 C 12.44 g/m*3 17 C 0 km/h
2312 12-09-2004 04:40:00 17 C 12.59 g/m*3 17 C 0 km/h
2313 12-09-2004 04:52:59 17 C 12.44 g/m*3 17 C 0 km/h
2314 12-09-2004 05:04:59 16.9 C 11.79 g/m*3 16.9 C 0 km/h
2315 12-09-2004 05:15:59 16.6 C 11.16 g/m*3 16.6 C 0 km/h
2316 12-09-2004 05:27:59 16 C 10.49 g/m*3 16 C 0 km/h
2317 12-09-2004 05:40:00 15.9 C 10.83 g/m*3 15.9 C 0 km/h
2318 12-09-2004 05:52:00 15.6 C 10.51 g/m*3 15.6 C 0 km/h
2319 12-09-2004 06:04:00 15.2 C 10.38 g/m*3 15.2 C 0 km/h
2320 12-09-2004 06:16:00 14.8 C 10.39 g/m*3 14.8 C 0 km/h
2321 12-09-2004 06:28:01 14.6 C 10.39 g/m*3 14.6 C 0 km/h
2322 12-09-2004 06:40:00 14.5 C 10.45 g/m*3 14.5 C 0 km/h
2323 12-09-2004 06:52:00 14.3 C 10.44 g/m*3 14.3 C 0 km/h
2324 12-09-2004 07:04:00 14.1 C 10.44 g/m*3 14.1 C 0 km/h
2325 12-09-2004 07:16:59 13.9 C 10.55 g/m*3 13.9 C 0 km/h
Sensor: Nr:Datum:Temp:Abs-Feuchte:Windchill:Wind:
Aussen-T/F 2326 12-09-2004 07:28:59 14 C 10.61 g/m*3 14 C 0 km/h
2327 12-09-2004 07:40:59 14 C 10.61 g/m*3 14 C 0 km/h
2328 12-09-2004 07:52:59 14.1 C 10.68 g/m*3 14.1 C 0 km/h
2329 12-09-2004 08:04:59 14.1 C 10.56 g/m*3 14.1 C 0 km/h
2330 12-09-2004 08:16:00 14.2 C 10.5 g/m*3 14.2 C 0 km/h
2331 12-09-2004 08:28:00 14.3 C 10.32 g/m*3 14.3 C 0 km/h
2332 12-09-2004 08:40:59 14.7 C 10.58 g/m*3 14.7 C 0 km/h
2333 12-09-2004 08:51:59 14.7 C 10.45 g/m*3 14.7 C 0 km/h
2334 12-09-2004 09:04:00 14.8 C 10.26 g/m*3 14.8 C 0 km/h
2335 12-09-2004 09:16:00 15.4 C 9.99 g/m*3 15.4 C 0 km/h
2336 12-09-2004 09:28:00 15.7 C 9.9 g/m*3 15.7 C 0 km/h
2337 12-09-2004 09:40:00 15.8 C 9.69 g/m*3 15.8 C 0 km/h
2338 12-09-2004 09:52:00 15.5 C 9.78 g/m*3 15.5 C 0 km/h
2339 12-09-2004 10:04:59 15.6 C 9.71 g/m*3 15.6 C 0 km/h
2340 12-09-2004 10:16:59 16.3 C 9.71 g/m*3 16.3 C 0 km/h
2341 12-09-2004 10:28:59 16.6 C 8.05 g/m*3 16.6 C 0 km/h
2342 12-09-2004 10:40:59 16.5 C 7.3 g/m*3 16.5 C 0 km/h
2343 12-09-2004 10:52:59 16 C 7.36 g/m*3 16 C 0 km/h
2344 12-09-2004 11:04:59 16.8 C 7.72 g/m*3 16.8 C 0 km/h
2345 12-09-2004 11:16:01 16.5 C 7.16 g/m*3 16.5 C 0 km/h
2346 12-09-2004 11:28:01 17.2 C 6.88 g/m*3 17.2 C 0 km/h
2347 12-09-2004 11:40:01 16.8 C 7.01 g/m*3 16.8 C 0 km/h
2348 12-09-2004 11:52:01 18 C 7.07 g/m*3 18 C 0 km/h
2349 12-09-2004 12:04:01 17.9 C 6.87 g/m*3 17.9 C 0 km/h
2350 12-09-2004 12:16:01 17.4 C 6.82 g/m*3 17.4 C 0 km/h
Sensor: Nr:Datum:Temp:Abs-Feuchte:Windchill:Wind:
Aussen-T/F 2351 12-09-2004 12:28:01 17.7 C 6.94 g/m*3 17.7 C 0 km/h
2352 12-09-2004 12:40:00 18 C 6.76 g/m*3 18 C 0 km/h
2353 12-09-2004 12:52:00 18.3 C 6.41 g/m*3 18.3 C 0 km/h
2354 12-09-2004 13:04:00 17.9 C 6.57 g/m*3 17.9 C 0 km/h
2355 12-09-2004 13:16:00 18.3 C 6.88 g/m*3 18.3 C 0 km/h
2356 12-09-2004 13:28:00 18.7 C 6.56 g/m*3 18.7 C 0 km/h
2357 12-09-2004 13:40:00 18.9 C 6.8 g/m*3 18.9 C 0 km/h
2358 12-09-2004 13:52:00 18.9 C 6.64 g/m*3 18.9 C 0 km/h
2359 12-09-2004 14:04:01 18.4 C 6.61 g/m*3 18.4 C 0 km/h
2360 12-09-2004 14:16:01 19.2 C 6.27 g/m*3 19.2 C 0 km/h
2361 12-09-2004 14:28:01 19 C 6.03 g/m*3 19 C 0 km/h
2362 12-09-2004 14:40:01 20.4 C 6.19 g/m*3 20.4 C 0 km/h
2363 12-09-2004 14:52:00 21 C 5.86 g/m*3 21 C 0 km/h
2364 12-09-2004 15:04:00 21.2 C 6.12 g/m*3 21.2 C 0 km/h
2365 12-09-2004 15:16:00 20.8 C 6.16 g/m*3 20.8 C 0 km/h
2366 12-09-2004 15:28:00 20.5 C 6.23 g/m*3 20.5 C 0 km/h
2367 12-09-2004 15:40:01 20.7 C 5.58 g/m*3 20.7 C 0 km/h
2368 12-09-2004 15:52:01 19.7 C 6.11 g/m*3 19.7 C 0 km/h
2369 12-09-2004 16:04:01 19.7 C 6.11 g/m*3 19.7 C 0 km/h
2370 12-09-2004 16:16:01 19.4 C 6.17 g/m*3 19.4 C 0 km/h
2371 12-09-2004 16:28:01 18.8 C 6.44 g/m*3 18.8 C 0 km/h
2372 12-09-2004 16:40:00 18.2 C 6.37 g/m*3 18.2 C 0 km/h
2373 12-09-2004 16:52:00 18 C 6.45 g/m*3 18 C 0 km/h
2374 12-09-2004 17:04:00 18.9 C 7.13 g/m*3 18.9 C 0 km/h
2375 12-09-2004 17:16:00 19.8 C 6.49 g/m*3 19.8 C 0 km/h
Sensor: Nr:Datum:Temp:Abs-Feuchte:Windchill:Wind:
Aussen-T/F 2376 12-09-2004 17:28:00 20 C 6.57 g/m*3 20 C 0 km/h
2377 12-09-2004 17:40:00 19.7 C 6.45 g/m*3 19.7 C 0 km/h
2378 12-09-2004 17:52:00 19.9 C 6.7 g/m*3 19.9 C 0 km/h
2379 12-09-2004 18:04:00 19.1 C 6.72 g/m*3 19.1 C 0 km/h
2380 12-09-2004 18:16:00 18.7 C 6.56 g/m*3 18.7 C 0 km/h
2381 12-09-2004 18:28:00 18.4 C 6.76 g/m*3 18.4 C 0 km/h
2382 12-09-2004 18:40:00 18.3 C 7.04 g/m*3 18.3 C 0 km/h
2383 12-09-2004 18:52:00 18.9 C 7.29 g/m*3 18.9 C 0 km/h
2384 12-09-2004 19:04:59 19.2 C 7.42 g/m*3 19.2 C 0 km/h
2385 12-09-2004 19:16:00 18.2 C 7.15 g/m*3 18.2 C 0 km/h
2386 12-09-2004 19:28:00 17.5 C 7.16 g/m*3 17.5 C 0 km/h
2387 12-09-2004 19:40:00 17 C 7.23 g/m*3 17 C 0 km/h
2388 12-09-2004 19:52:00 16.6 C 7.35 g/m*3 16.6 C 0 km/h
2389 12-09-2004 20:04:00 16.3 C 7.49 g/m*3 16.3 C 0 km/h
2390 12-09-2004 20:16:00 15.8 C 7.81 g/m*3 15.8 C 0 km/h
2391 12-09-2004 20:28:00 15.5 C 7.8 g/m*3 15.5 C 0 km/h
2392 12-09-2004 20:40:00 15.2 C 7.79 g/m*3 15.2 C 0 km/h
2393 12-09-2004 20:52:00 15.1 C 8 g/m*3 15.1 C 0 km/h
2394 12-09-2004 21:04:00 15.1 C 8 g/m*3 15.1 C 0 km/h
2395 12-09-2004 21:16:00 15 C 8.08 g/m*3 15 C 0 km/h
2396 12-09-2004 21:28:00 14.8 C 8.23 g/m*3 14.8 C 0 km/h
2397 12-09-2004 21:40:00 14.8 C 8.23 g/m*3 14.8 C 0 km/h
2398 12-09-2004 21:52:59 14.8 C 8.36 g/m*3 14.8 C 0 km/h
2399 12-09-2004 22:04:59 14.5 C 8.33 g/m*3 14.5 C 0 km/h
2400 12-09-2004 22:16:59 14.4 C 8.41 g/m*3 14.4 C 0 km/h
Sensor: Nr:Datum:Temp:Abs-Feuchte:Windchill:Wind:
Aussen-T/F 2401 12-09-2004 22:28:59 14.5 C 8.46 g/m*3 14.5 C 0 km/h
2402 12-09-2004 22:40:59 14.6 C 8.63 g/m*3 14.6 C 0 km/h
2403 12-09-2004 22:51:59 14.6 C 8.63 g/m*3 14.6 C 0 km/h
2404 12-09-2004 23:04:00 14.5 C 8.58 g/m*3 14.5 C 0 km/h
2405 12-09-2004 23:16:00 14.4 C 8.53 g/m*3 14.4 C 0 km/h
2406 12-09-2004 23:28:00 14.2 C 8.55 g/m*3 14.2 C 0 km/h
2407 12-09-2004 23:40:00 14 C 8.44 g/m*3 14 C 0 km/h
2408 12-09-2004 23:52:00 13.9 C 8.51 g/m*3 13.9 C 0 km/h
2409 13-09-2004 00:04:00 13.9 C 8.51 g/m*3 13.9 C 0 km/h
2410 13-09-2004 00:16:00 13.7 C 8.53 g/m*3 13.7 C 0 km/h
2411 13-09-2004 00:28:00 13.5 C 8.42 g/m*3 13.5 C 0 km/h
2412 13-09-2004 00:40:00 13.3 C 8.2 g/m*3 13.3 C 0 km/h
2413 13-09-2004 00:52:00 13.1 C 8.22 g/m*3 13.1 C 0 km/h
2414 13-09-2004 01:04:59 13 C 8.17 g/m*3 13 C 0 km/h
2415 13-09-2004 01:16:59 13 C 8.17 g/m*3 13 C 0 km/h
2416 13-09-2004 01:28:59 13.1 C 8.22 g/m*3 13.1 C 0 km/h
2417 13-09-2004 01:40:59 13.2 C 8.27 g/m*3 13.2 C 0 km/h
2418 13-09-2004 01:52:59 13.1 C 8.22 g/m*3 13.1 C 0 km/h
2419 13-09-2004 02:04:59 13.1 C 8.22 g/m*3 13.1 C 0 km/h
2420 13-09-2004 02:16:59 13.1 C 8.22 g/m*3 13.1 C 0 km/h
2421 13-09-2004 02:28:59 13.2 C 8.38 g/m*3 13.2 C 0 km/h
2422 13-09-2004 02:40:59 13.2 C 8.27 g/m*3 13.2 C 0 km/h
2423 13-09-2004 02:53:01 13.4 C 8.37 g/m*3 13.4 C 0 km/h
2424 13-09-2004 03:05:01 13.4 C 8.37 g/m*3 13.4 C 0 km/h
2425 13-09-2004 03:17:01 13.2 C 8.27 g/m*3 13.2 C 0 km/h
Sensor: Nr:Datum:Temp:Abs-Feuchte:Windchill:Wind:
Aussen-T/F 2426 13-09-2004 03:29:01 13.1 C 8.1 g/m*3 13.1 C 0 km/h
2427 13-09-2004 03:41:00 13 C 8.05 g/m*3 13 C 0 km/h
2428 13-09-2004 03:53:00 12.9 C 8.11 g/m*3 12.9 C 0 km/h
2429 13-09-2004 04:05:00 13 C 8.05 g/m*3 13 C 0 km/h
2430 13-09-2004 04:17:00 13 C 8.05 g/m*3 13 C 0 km/h
2431 13-09-2004 04:29:00 13 C 7.94 g/m*3 13 C 0 km/h
2432 13-09-2004 04:41:00 12.9 C 8.11 g/m*3 12.9 C 0 km/h
2433 13-09-2004 04:53:00 12.9 C 8 g/m*3 12.9 C 0 km/h
2434 13-09-2004 05:05:01 13 C 8.05 g/m*3 13 C 0 km/h
2435 13-09-2004 05:17:01 13 C 8.05 g/m*3 13 C 0 km/h
2436 13-09-2004 05:29:01 13 C 7.94 g/m*3 13 C 0 km/h
2437 13-09-2004 05:41:01 13.1 C 8.1 g/m*3 13.1 C 0 km/h
2438 13-09-2004 05:53:01 13.1 C 8.1 g/m*3 13.1 C 0 km/h
2439 13-09-2004 06:05:00 13.1 C 8.1 g/m*3 13.1 C 0 km/h
2440 13-09-2004 06:17:00 13.1 C 8.1 g/m*3 13.1 C 0 km/h
2441 13-09-2004 06:29:00 13.1 C 8.1 g/m*3 13.1 C 0 km/h
2442 13-09-2004 06:41:00 13.1 C 8.22 g/m*3 13.1 C 0 km/h
2443 13-09-2004 06:53:00 13.1 C 8.1 g/m*3 13.1 C 0 km/h
2444 13-09-2004 07:05:00 13 C 8.17 g/m*3 13 C 0 km/h
2445 13-09-2004 07:17:00 13 C 8.28 g/m*3 13 C 0 km/h
2446 13-09-2004 07:29:00 13.1 C 8.33 g/m*3 13.1 C 0 km/h
2447 13-09-2004 07:41:00 13.2 C 8.38 g/m*3 13.2 C 0 km/h
2448 13-09-2004 07:53:00 13.3 C 8.32 g/m*3 13.3 C 0 km/h
2449 13-09-2004 08:05:00 13.6 C 8.47 g/m*3 13.6 C 0 km/h
2450 13-09-2004 08:17:00 13.5 C 8.42 g/m*3 13.5 C 0 km/h
Sensor: Nr:Datum:Temp:Abs-Feuchte:Windchill:Wind:
Aussen-T/F 2451 13-09-2004 08:29:00 13.7 C 8.53 g/m*3 13.7 C 0 km/h
2452 13-09-2004 08:41:00 14 C 8.68 g/m*3 14 C 0 km/h
2453 13-09-2004 08:53:00 14.5 C 9.08 g/m*3 14.5 C 0 km/h
2454 13-09-2004 09:05:00 14.9 C 8.92 g/m*3 14.9 C 0 km/h
2455 13-09-2004 09:17:00 15.1 C 8.77 g/m*3 15.1 C 0 km/h
2456 13-09-2004 09:29:00 15.2 C 8.96 g/m*3 15.2 C 0 km/h
2457 13-09-2004 09:41:00 15.2 C 9.35 g/m*3 15.2 C 0 km/h
2458 13-09-2004 09:53:00 15.1 C 9.16 g/m*3 15.1 C 0 km/h
2459 13-09-2004 10:05:00 15.1 C 9.03 g/m*3 15.1 C 0 km/h
2460 13-09-2004 10:17:00 15.2 C 9.09 g/m*3 15.2 C 0 km/h
2461 13-09-2004 10:29:00 15.5 C 9.25 g/m*3 15.5 C 0 km/h
2462 13-09-2004 10:41:00 15.9 C 9.62 g/m*3 15.9 C 0 km/h
2463 13-09-2004 10:53:00 16.2 C 9.1 g/m*3 16.2 C 0 km/h
2464 13-09-2004 11:05:59 17 C 8.83 g/m*3 17 C 0 km/h
2465 13-09-2004 11:17:59 17.4 C 8.89 g/m*3 17.4 C 0 km/h
2466 13-09-2004 11:29:59 18.2 C 8.86 g/m*3 18.2 C 0 km/h
2467 13-09-2004 11:41:59 18.9 C 8.75 g/m*3 18.9 C 0 km/h
2468 13-09-2004 11:53:00 18.9 C 8.75 g/m*3 18.9 C 0 km/h
2469 13-09-2004 12:05:00 19.1 C 8.69 g/m*3 19.1 C 0 km/h
2470 13-09-2004 12:17:00 19.3 C 8.79 g/m*3 19.3 C 0 km/h
2471 13-09-2004 12:29:00 19.5 C 9.06 g/m*3 19.5 C 0 km/h
2472 13-09-2004 12:41:00 19.2 C 8.57 g/m*3 19.2 C 0 km/h
2473 13-09-2004 12:53:00 18.9 C 8.91 g/m*3 18.9 C 0 km/h
2474 13-09-2004 13:05:00 18.6 C 8.91 g/m*3 18.6 C 0 km/h
2475 13-09-2004 13:17:00 18.6 C 8.59 g/m*3 18.6 C 0 km/h
Sensor: Nr:Datum:Temp:Abs-Feuchte:Windchill:Wind:
Aussen-T/F 2476 13-09-2004 13:29:00 18.5 C 8.7 g/m*3 18.5 C 0 km/h
2477 13-09-2004 13:41:59 18.5 C 8.7 g/m*3 18.5 C 0 km/h
2478 13-09-2004 13:53:59 18.8 C 8.86 g/m*3 18.8 C 0 km/h
2479 13-09-2004 14:05:59 19.2 C 9.07 g/m*3 19.2 C 0 km/h
2480 13-09-2004 14:17:59 19.3 C 9.12 g/m*3 19.3 C 0 km/h
2481 13-09-2004 14:29:59 19.5 C 8.56 g/m*3 19.5 C 0 km/h
2482 13-09-2004 14:41:59 20.1 C 8.52 g/m*3 20.1 C 0 km/h
2483 13-09-2004 14:53:59 20.9 C 8.56 g/m*3 20.9 C 0 km/h
2484 13-09-2004 15:04:59 21.6 C 8.53 g/m*3 21.6 C 0 km/h
2485 13-09-2004 15:17:00 22.2 C 8.64 g/m*3 22.2 C 0 km/h
2486 13-09-2004 15:29:00 22.1 C 8.59 g/m*3 22.1 C 0 km/h
2487 13-09-2004 15:41:00 22.2 C 8.83 g/m*3 22.2 C 0 km/h
2488 13-09-2004 15:53:00 21.7 C 8.58 g/m*3 21.7 C 0 km/h
2489 13-09-2004 16:05:59 22.3 C 8.89 g/m*3 22.3 C 0 km/h
2490 13-09-2004 16:17:59 23 C 8.43 g/m*3 23 C 0 km/h
2491 13-09-2004 16:29:59 22.6 C 8.04 g/m*3 22.6 C 0 km/h
2492 13-09-2004 16:41:59 22.6 C 8.04 g/m*3 22.6 C 0 km/h
2493 13-09-2004 16:53:59 22.4 C 7.75 g/m*3 22.4 C 0 km/h
2494 13-09-2004 17:05:59 22.9 C 8.17 g/m*3 22.9 C 0 km/h
2495 13-09-2004 17:17:59 22.8 C 8.33 g/m*3 22.8 C 0 km/h
2496 13-09-2004 17:29:59 22.1 C 8.2 g/m*3 22.1 C 0 km/h
2497 13-09-2004 17:41:59 21.6 C 8.53 g/m*3 21.6 C 0 km/h
2498 13-09-2004 17:53:59 21.6 C 8.72 g/m*3 21.6 C 0 km/h
2499 13-09-2004 18:05:59 22.5 C 9.19 g/m*3 22.5 C 0 km/h
2500 13-09-2004 18:17:59 23.1 C 8.68 g/m*3 23.1 C 0 km/h
Sensor: Nr:Datum:Temp:Abs-Feuchte:Windchill:Wind:
Aussen-T/F 2501 13-09-2004 18:28:59 22.8 C 9.14 g/m*3 22.8 C 0 km/h
2502 13-09-2004 18:41:59 22.8 C 9.35 g/m*3 22.8 C 0 km/h
2503 13-09-2004 18:53:59 22.2 C 9.23 g/m*3 22.2 C 0 km/h
2504 13-09-2004 19:05:00 21.9 C 9.84 g/m*3 21.9 C 0 km/h
2505 13-09-2004 19:17:59 21.6 C 9.67 g/m*3 21.6 C 0 km/h
2506 13-09-2004 19:29:59 21.1 C 9.4 g/m*3 21.1 C 0 km/h
2507 13-09-2004 19:41:59 20.7 C 9.54 g/m*3 20.7 C 0 km/h
2508 13-09-2004 19:53:59 20.3 C 9.67 g/m*3 20.3 C 0 km/h
2509 13-09-2004 20:05:59 20 C 9.51 g/m*3 20 C 0 km/h
2510 13-09-2004 20:17:59 19.7 C 9.51 g/m*3 19.7 C 0 km/h
2511 13-09-2004 20:29:59 19.4 C 9.34 g/m*3 19.4 C 0 km/h
2512 13-09-2004 20:41:59 19.1 C 9.51 g/m*3 19.1 C 0 km/h
2513 13-09-2004 20:53:59 18.9 C 9.72 g/m*3 18.9 C 0 km/h
2514 13-09-2004 21:04:59 18.8 C 9.82 g/m*3 18.8 C 0 km/h
2515 13-09-2004 21:17:58 18.8 C 9.66 g/m*3 18.8 C 0 km/h
2516 13-09-2004 21:29:58 18.7 C 9.77 g/m*3 18.7 C 0 km/h
2517 13-09-2004 21:41:58 18.5 C 9.97 g/m*3 18.5 C 0 km/h
2518 13-09-2004 21:53:58 18.5 C 10.13 g/m*3 18.5 C 0 km/h
2519 13-09-2004 22:05:58 18.5 C 10.13 g/m*3 18.5 C 0 km/h
2520 13-09-2004 22:17:59 18.5 C 10.13 g/m*3 18.5 C 0 km/h
2521 13-09-2004 22:29:59 18.5 C 10.13 g/m*3 18.5 C 0 km/h
2522 13-09-2004 22:41:59 18.4 C 10.07 g/m*3 18.4 C 0 km/h
2523 13-09-2004 22:53:59 18.3 C 10.32 g/m*3 18.3 C 0 km/h
2524 13-09-2004 23:05:59 17.8 C 8.65 g/m*3 17.8 C 0 km/h
2525 13-09-2004 23:17:59 17.4 C 8.15 g/m*3 17.4 C 0 km/h
Sensor: Nr:Datum:Temp:Abs-Feuchte:Windchill:Wind:
Aussen-T/F 2526 13-09-2004 23:29:59 17.2 C 8.05 g/m*3 17.2 C 0 km/h
2527 13-09-2004 23:41:59 17.1 C 8.3 g/m*3 17.1 C 0 km/h
2528 13-09-2004 23:53:58 16.9 C 8.34 g/m*3 16.9 C 0 km/h
2529 14-09-2004 00:05:58 16.8 C 8.58 g/m*3 16.8 C 0 km/h
2530 14-09-2004 00:17:59 16.6 C 8.33 g/m*3 16.6 C 0 km/h
2531 14-09-2004 00:29:59 16.5 C 8.43 g/m*3 16.5 C 0 km/h
2532 14-09-2004 00:41:58 16.4 C 8.37 g/m*3 16.4 C 0 km/h
2533 14-09-2004 00:53:58 16.2 C 8.27 g/m*3 16.2 C 0 km/h
2534 14-09-2004 01:05:58 16.1 C 8.36 g/m*3 16.1 C 0 km/h
2535 14-09-2004 01:17:59 16.1 C 8.5 g/m*3 16.1 C 0 km/h
2536 14-09-2004 01:29:59 16.1 C 8.36 g/m*3 16.1 C 0 km/h
2537 14-09-2004 01:41:59 16.2 C 8.69 g/m*3 16.2 C 0 km/h
2538 14-09-2004 01:53:59 16.1 C 8.77 g/m*3 16.1 C 0 km/h
2539 14-09-2004 02:05:58 16 C 8.72 g/m*3 16 C 0 km/h
2540 14-09-2004 02:17:58 16 C 9.13 g/m*3 16 C 0 km/h
2541 14-09-2004 02:29:58 15.9 C 9.48 g/m*3 15.9 C 0 km/h
2542 14-09-2004 02:41:58 15.8 C 9.15 g/m*3 15.8 C 0 km/h
2543 14-09-2004 02:54:00 15.7 C 9.23 g/m*3 15.7 C 0 km/h
2544 14-09-2004 03:06:00 15.6 C 9.31 g/m*3 15.6 C 0 km/h
2545 14-09-2004 03:18:00 15.3 C 9.27 g/m*3 15.3 C 0 km/h
2546 14-09-2004 03:30:00 15.2 C 9.22 g/m*3 15.2 C 0 km/h
2547 14-09-2004 03:42:00 15.2 C 9.22 g/m*3 15.2 C 0 km/h
2548 14-09-2004 03:54:00 15.1 C 9.16 g/m*3 15.1 C 0 km/h
2549 14-09-2004 04:06:00 15.2 C 9.48 g/m*3 15.2 C 0 km/h
2550 14-09-2004 04:18:00 15.9 C 9.48 g/m*3 15.9 C 0 km/h
Sensor: Nr:Datum:Temp:Abs-Feuchte:Windchill:Wind:
Aussen-T/F 2551 14-09-2004 04:30:00 16 C 9.26 g/m*3 16 C 0 km/h
2552 14-09-2004 04:42:59 16 C 9.13 g/m*3 16 C 0 km/h
2553 14-09-2004 04:54:59 16 C 9.13 g/m*3 16 C 0 km/h
2554 14-09-2004 05:06:59 15.6 C 9.18 g/m*3 15.6 C 0 km/h
2555 14-09-2004 05:18:59 15.3 C 9.14 g/m*3 15.3 C 0 km/h
2556 14-09-2004 05:30:59 15 C 9.1 g/m*3 15 C 0 km/h
2557 14-09-2004 05:42:59 14.8 C 9.12 g/m*3 14.8 C 0 km/h
2558 14-09-2004 05:54:59 14.4 C 9.02 g/m*3 14.4 C 0 km/h
2559 14-09-2004 06:05:59 14.1 C 8.98 g/m*3 14.1 C 0 km/h
2560 14-09-2004 06:30:00 13.8 C 9.06 g/m*3 13.8 C 0 km/h
2561 14-09-2004 06:42:00 13.7 C 9 g/m*3 13.7 C 0 km/h
2562 14-09-2004 06:54:59 13.7 C 9.12 g/m*3 13.7 C 0 km/h
2563 14-09-2004 07:06:59 14 C 9.17 g/m*3 14 C 0 km/h
2564 14-09-2004 07:18:59 13.9 C 9.23 g/m*3 13.9 C 0 km/h
2565 14-09-2004 07:30:59 14 C 9.29 g/m*3 14 C 0 km/h
2566 14-09-2004 07:42:59 14 C 9.17 g/m*3 14 C 0 km/h
2567 14-09-2004 07:54:01 14.1 C 9.34 g/m*3 14.1 C 0 km/h
2568 14-09-2004 08:06:02 14 C 9.29 g/m*3 14 C 0 km/h
2569 14-09-2004 08:18:04 14.2 C 9.52 g/m*3 14.2 C 0 km/h
2570 14-09-2004 08:30:04 14.1 C 9.34 g/m*3 14.1 C 0 km/h
2571 14-09-2004 08:42:05 14.4 C 9.52 g/m*3 14.4 C 0 km/h
2572 14-09-2004 08:54:01 15 C 9.23 g/m*3 15 C 0 km/h
2573 14-09-2004 09:06:01 15.2 C 9.09 g/m*3 15.2 C 0 km/h
2574 14-09-2004 09:18:01 15.4 C 9.07 g/m*3 15.4 C 0 km/h
2575 14-09-2004 09:30:01 15.6 C 8.91 g/m*3 15.6 C 0 km/h
Sensor: Nr:Datum:Temp:Abs-Feuchte:Windchill:Wind:
Aussen-T/F 2576 14-09-2004 09:42:01 15.9 C 8.94 g/m*3 15.9 C 0 km/h
2577 14-09-2004 09:54:02 16 C 8.72 g/m*3 16 C 0 km/h
2578 14-09-2004 10:06:02 16.2 C 8.55 g/m*3 16.2 C 0 km/h
2579 14-09-2004 10:18:02 16.4 C 7.96 g/m*3 16.4 C 0 km/h
2580 14-09-2004 10:30:02 16.6 C 8.33 g/m*3 16.6 C 0 km/h
2581 14-09-2004 10:42:02 16.5 C 8.14 g/m*3 16.5 C 0 km/h
2582 14-09-2004 10:54:01 16.8 C 8.01 g/m*3 16.8 C 0 km/h
2583 14-09-2004 11:06:01 16.2 C 7.72 g/m*3 16.2 C 0 km/h
2584 14-09-2004 11:18:01 16.9 C 7.91 g/m*3 16.9 C 0 km/h
2585 14-09-2004 11:30:01 17 C 7.81 g/m*3 17 C 0 km/h
2586 14-09-2004 11:42:01 17.6 C 7.8 g/m*3 17.6 C 0 km/h
2587 14-09-2004 11:54:01 18.4 C 7.55 g/m*3 18.4 C 0 km/h
2588 14-09-2004 12:06:01 18.1 C 7.42 g/m*3 18.1 C 0 km/h
2589 14-09-2004 12:18:01 18.4 C 7.39 g/m*3 18.4 C 0 km/h
2590 14-09-2004 12:30:01 18.7 C 7.2 g/m*3 18.7 C 0 km/h
2591 14-09-2004 12:42:01 19.2 C 7.42 g/m*3 19.2 C 0 km/h
2592 14-09-2004 12:54:01 19.7 C 7.3 g/m*3 19.7 C 0 km/h
2593 14-09-2004 13:06:02 20.1 C 6.95 g/m*3 20.1 C 0 km/h
2594 14-09-2004 13:18:02 20.6 C 6.8 g/m*3 20.6 C 0 km/h
2595 14-09-2004 13:30:02 21.1 C 6.63 g/m*3 21.1 C 0 km/h
2596 14-09-2004 13:42:02 21.2 C 7.04 g/m*3 21.2 C 0 km/h
2597 14-09-2004 13:54:01 21.1 C 6.82 g/m*3 21.1 C 0 km/h
2598 14-09-2004 14:06:01 21.5 C 6.79 g/m*3 21.5 C 0 km/h
2599 14-09-2004 14:18:01 21.4 C 6.56 g/m*3 21.4 C 0 km/h
2600 14-09-2004 14:30:01 21.5 C 6.98 g/m*3 21.5 C 0 km/h
Sensor: Nr:Datum:Temp:Abs-Feuchte:Windchill:Wind:
Aussen-T/F 2601 14-09-2004 14:42:01 20.9 C 6.92 g/m*3 20.9 C 0 km/h
2602 14-09-2004 14:54:01 21.1 C 6.82 g/m*3 21.1 C 0 km/h
2603 14-09-2004 15:06:01 20.8 C 7.06 g/m*3 20.8 C 0 km/h
2604 14-09-2004 15:18:01 21.2 C 7.23 g/m*3 21.2 C 0 km/h
2605 14-09-2004 15:30:01 21.6 C 7.4 g/m*3 21.6 C 0 km/h
2606 14-09-2004 15:42:01 22.2 C 7.07 g/m*3 22.2 C 0 km/h
2607 14-09-2004 15:54:01 21.5 C 6.98 g/m*3 21.5 C 0 km/h
2608 14-09-2004 16:06:01 22 C 6.79 g/m*3 22 C 0 km/h
2609 14-09-2004 16:18:02 21.8 C 6.91 g/m*3 21.8 C 0 km/h
2610 14-09-2004 16:30:02 21.8 C 7.1 g/m*3 21.8 C 0 km/h
2611 14-09-2004 16:42:02 21.3 C 6.9 g/m*3 21.3 C 0 km/h
2612 14-09-2004 16:54:01 21 C 6.78 g/m*3 21 C 0 km/h
2613 14-09-2004 17:06:01 21.7 C 7.06 g/m*3 21.7 C 0 km/h
2614 14-09-2004 17:18:01 22 C 6.99 g/m*3 22 C 0 km/h
2615 14-09-2004 17:30:01 21.9 C 7.14 g/m*3 21.9 C 0 km/h
2616 14-09-2004 17:42:01 20.8 C 6.88 g/m*3 20.8 C 0 km/h
2617 14-09-2004 17:54:01 20.5 C 7.12 g/m*3 20.5 C 0 km/h
2618 14-09-2004 18:06:01 20.2 C 6.99 g/m*3 20.2 C 0 km/h
2619 14-09-2004 18:18:01 20.1 C 7.13 g/m*3 20.1 C 0 km/h
2620 14-09-2004 18:30:01 20.1 C 7.3 g/m*3 20.1 C 0 km/h
2621 14-09-2004 18:42:00 20 C 7.26 g/m*3 20 C 0 km/h
2622 14-09-2004 18:54:01 19.9 C 7.39 g/m*3 19.9 C 0 km/h
2623 14-09-2004 19:06:01 20.4 C 7.43 g/m*3 20.4 C 0 km/h
2624 14-09-2004 19:18:02 20.8 C 7.6 g/m*3 20.8 C 0 km/h
2625 14-09-2004 19:30:02 20.2 C 7.52 g/m*3 20.2 C 0 km/h
Sensor: Nr:Datum:Temp:Abs-Feuchte:Windchill:Wind:
Aussen-T/F 2626 14-09-2004 19:42:02 19.5 C 7.55 g/m*3 19.5 C 0 km/h
2627 14-09-2004 19:54:02 19.1 C 7.38 g/m*3 19.1 C 0 km/h
2628 14-09-2004 20:06:03 18.7 C 7.68 g/m*3 18.7 C 0 km/h
2629 14-09-2004 20:18:02 18.6 C 7.8 g/m*3 18.6 C 0 km/h
2630 14-09-2004 20:30:02 18.1 C 7.88 g/m*3 18.1 C 0 km/h
2631 14-09-2004 20:42:02 18.3 C 8.29 g/m*3 18.3 C 0 km/h
2632 14-09-2004 20:54:01 18.1 C 8.03 g/m*3 18.1 C 0 km/h
2633 14-09-2004 21:06:01 17.7 C 8.3 g/m*3 17.7 C 0 km/h
2634 14-09-2004 21:18:01 17.5 C 8.2 g/m*3 17.5 C 0 km/h
2635 14-09-2004 21:30:01 17.2 C 8.49 g/m*3 17.2 C 0 km/h
2636 14-09-2004 21:42:01 16.9 C 8.63 g/m*3 16.9 C 0 km/h
2637 14-09-2004 21:54:01 16.7 C 8.67 g/m*3 16.7 C 0 km/h
2638 14-09-2004 22:06:01 16.5 C 8.71 g/m*3 16.5 C 0 km/h
2639 14-09-2004 22:18:01 16.4 C 8.65 g/m*3 16.4 C 0 km/h
2640 14-09-2004 22:30:01 16.2 C 8.55 g/m*3 16.2 C 0 km/h
2641 14-09-2004 22:42:01 15.9 C 8.67 g/m*3 15.9 C 0 km/h
2642 14-09-2004 22:54:01 15.8 C 8.75 g/m*3 15.8 C 0 km/h
2643 14-09-2004 23:06:01 15.5 C 8.72 g/m*3 15.5 C 0 km/h
2644 14-09-2004 23:18:01 15.2 C 8.83 g/m*3 15.2 C 0 km/h
2645 14-09-2004 23:30:01 14.9 C 8.92 g/m*3 14.9 C 0 km/h
2646 14-09-2004 23:42:02 14.6 C 8.88 g/m*3 14.6 C 0 km/h
2647 14-09-2004 23:54:01 14.5 C 8.95 g/m*3 14.5 C 0 km/h
2648 15-09-2004 00:06:01 14.4 C 9.02 g/m*3 14.4 C 0 km/h
2649 15-09-2004 00:18:00 14.3 C 8.97 g/m*3 14.3 C 0 km/h
2650 15-09-2004 00:30:00 14.4 C 9.02 g/m*3 14.4 C 0 km/h
Sensor: Nr:Datum:Temp:Abs-Feuchte:Windchill:Wind:
Aussen-T/F 2651 15-09-2004 00:42:00 14 C 8.93 g/m*3 14 C 0 km/h
2652 15-09-2004 00:54:01 13.9 C 9.11 g/m*3 13.9 C 0 km/h
2653 15-09-2004 01:06:01 13.9 C 9.11 g/m*3 13.9 C 0 km/h
2654 15-09-2004 01:18:01 13.6 C 8.94 g/m*3 13.6 C 0 km/h
2655 15-09-2004 01:30:01 13.4 C 8.95 g/m*3 13.4 C 0 km/h
2656 15-09-2004 01:42:01 13.3 C 9.01 g/m*3 13.3 C 0 km/h
2657 15-09-2004 01:54:01 13.2 C 9.07 g/m*3 13.2 C 0 km/h
2658 15-09-2004 02:06:02 13 C 8.96 g/m*3 13 C 0 km/h
2659 15-09-2004 02:18:02 13.2 C 9.07 g/m*3 13.2 C 0 km/h
2660 15-09-2004 02:30:02 13.3 C 9.13 g/m*3 13.3 C 0 km/h
2661 15-09-2004 02:42:02 12.8 C 8.96 g/m*3 12.8 C 0 km/h
2662 15-09-2004 02:54:01 12.7 C 9.02 g/m*3 12.7 C 0 km/h
2663 15-09-2004 03:06:01 12.7 C 9.13 g/m*3 12.7 C 0 km/h
2664 15-09-2004 03:18:01 12.6 C 9.07 g/m*3 12.6 C 0 km/h
2665 15-09-2004 03:30:01 12.5 C 9.02 g/m*3 12.5 C 0 km/h
2666 15-09-2004 03:42:00 12.5 C 9.13 g/m*3 12.5 C 0 km/h
2667 15-09-2004 03:54:00 12.3 C 9.01 g/m*3 12.3 C 0 km/h
2668 15-09-2004 04:06:00 12.1 C 8.9 g/m*3 12.1 C 0 km/h
2669 15-09-2004 04:18:00 12 C 8.85 g/m*3 12 C 0 km/h
2670 15-09-2004 04:30:00 11.8 C 8.95 g/m*3 11.8 C 0 km/h
2671 15-09-2004 04:42:00 11.7 C 8.89 g/m*3 11.7 C 0 km/h
2672 15-09-2004 04:54:00 11.7 C 8.99 g/m*3 11.7 C 0 km/h
2673 15-09-2004 05:06:00 11.8 C 8.95 g/m*3 11.8 C 0 km/h
2674 15-09-2004 05:18:00 11.9 C 9 g/m*3 11.9 C 0 km/h
2675 15-09-2004 05:30:00 11.7 C 8.89 g/m*3 11.7 C 0 km/h
Sensor: Nr:Datum:Temp:Abs-Feuchte:Windchill:Wind:
Aussen-T/F 2676 15-09-2004 05:42:01 11.5 C 8.88 g/m*3 11.5 C 0 km/h
2677 15-09-2004 05:54:01 11.5 C 8.99 g/m*3 11.5 C 0 km/h
2678 15-09-2004 06:06:01 11.5 C 8.99 g/m*3 11.5 C 0 km/h
2679 15-09-2004 06:18:01 11.6 C 8.94 g/m*3 11.6 C 0 km/h
2680 15-09-2004 06:30:01 11.6 C 8.83 g/m*3 11.6 C 0 km/h
2681 15-09-2004 06:42:01 11.5 C 8.78 g/m*3 11.5 C 0 km/h
2682 15-09-2004 06:54:01 11.7 C 8.89 g/m*3 11.7 C 0 km/h
2683 15-09-2004 07:06:00 11.8 C 8.84 g/m*3 11.8 C 0 km/h
2684 15-09-2004 07:18:00 12 C 8.74 g/m*3 12 C 0 km/h
2685 15-09-2004 07:30:00 12.2 C 8.63 g/m*3 12.2 C 0 km/h
2686 15-09-2004 07:42:00 12.4 C 8.63 g/m*3 12.4 C 0 km/h
2687 15-09-2004 07:54:00 12.4 C 8.63 g/m*3 12.4 C 0 km/h
2688 15-09-2004 08:06:00 12.4 C 8.63 g/m*3 12.4 C 0 km/h
2689 15-09-2004 08:18:00 12.6 C 8.63 g/m*3 12.6 C 0 km/h
2690 15-09-2004 08:30:00 12.8 C 8.51 g/m*3 12.8 C 0 km/h
2691 15-09-2004 08:42:00 13 C 8.39 g/m*3 13 C 0 km/h
2692 15-09-2004 08:54:00 13.5 C 8.54 g/m*3 13.5 C 0 km/h
2693 15-09-2004 09:06:00 13.5 C 8.42 g/m*3 13.5 C 0 km/h
2694 15-09-2004 09:18:01 13.5 C 8.54 g/m*3 13.5 C 0 km/h
2695 15-09-2004 09:30:01 13.8 C 8.7 g/m*3 13.8 C 0 km/h
2696 15-09-2004 09:42:01 14.2 C 8.55 g/m*3 14.2 C 0 km/h
2697 15-09-2004 09:54:01 14.2 C 8.43 g/m*3 14.2 C 0 km/h
2698 15-09-2004 10:06:01 14.4 C 8.28 g/m*3 14.4 C 0 km/h
2699 15-09-2004 10:18:00 14.6 C 8.38 g/m*3 14.6 C 0 km/h
2700 15-09-2004 10:30:00 14.5 C 8.33 g/m*3 14.5 C 0 km/h
Sensor: Nr:Datum:Temp:Abs-Feuchte:Windchill:Wind:
Aussen-T/F 2701 15-09-2004 10:42:00 14.7 C 8.31 g/m*3 14.7 C 0 km/h
2702 15-09-2004 10:54:00 15.2 C 8.31 g/m*3 15.2 C 0 km/h
2703 15-09-2004 11:06:00 15.8 C 8.08 g/m*3 15.8 C 0 km/h
2704 15-09-2004 11:18:00 16.2 C 8.14 g/m*3 16.2 C 0 km/h
2705 15-09-2004 11:30:00 16.4 C 8.1 g/m*3 16.4 C 0 km/h
2706 15-09-2004 11:42:00 16.7 C 8.1 g/m*3 16.7 C 0 km/h
2707 15-09-2004 11:54:00 16.8 C 8.15 g/m*3 16.8 C 0 km/h
2708 15-09-2004 12:06:00 15.4 C 8.93 g/m*3 15.4 C 0 km/h
2709 15-09-2004 12:18:00 14.6 C 9.51 g/m*3 14.6 C 0 km/h
2710 15-09-2004 12:30:00 14.9 C 9.81 g/m*3 14.9 C 0 km/h
2711 15-09-2004 12:42:01 15.6 C 9.58 g/m*3 15.6 C 0 km/h
2712 15-09-2004 12:54:01 16.2 C 9.24 g/m*3 16.2 C 0 km/h
2713 15-09-2004 13:06:01 16.6 C 9.04 g/m*3 16.6 C 0 km/h
2714 15-09-2004 13:18:01 16.8 C 8.72 g/m*3 16.8 C 0 km/h
2715 15-09-2004 13:30:01 16.8 C 8.29 g/m*3 16.8 C 0 km/h
2716 15-09-2004 13:42:01 16.8 C 8.29 g/m*3 16.8 C 0 km/h
2717 15-09-2004 13:54:00 17 C 7.96 g/m*3 17 C 0 km/h
2718 15-09-2004 14:06:00 17.2 C 8.05 g/m*3 17.2 C 0 km/h
2719 15-09-2004 14:18:00 17.5 C 8.35 g/m*3 17.5 C 0 km/h
2720 15-09-2004 14:30:00 17.5 C 8.2 g/m*3 17.5 C 0 km/h
2721 15-09-2004 14:42:00 17.5 C 6.71 g/m*3 17.5 C 0 km/h
2722 15-09-2004 14:54:00 17 C 6.66 g/m*3 17 C 0 km/h
2723 15-09-2004 15:06:00 18 C 6.6 g/m*3 18 C 0 km/h
2724 15-09-2004 15:18:00 19.1 C 6.07 g/m*3 19.1 C 0 km/h
2725 15-09-2004 15:30:00 19.6 C 5.74 g/m*3 19.6 C 0 km/h
Sensor: Nr:Datum:Temp:Abs-Feuchte:Windchill:Wind:
Aussen-T/F 2726 15-09-2004 15:42:00 19.8 C 5.12 g/m*3 19.8 C 0 km/h
2727 15-09-2004 15:54:01 19.3 C 5.14 g/m*3 19.3 C 0 km/h
2728 15-09-2004 16:06:01 19.9 C 5.33 g/m*3 19.9 C 0 km/h
2729 15-09-2004 16:18:01 19.8 C 5.3 g/m*3 19.8 C 0 km/h
2730 15-09-2004 16:30:01 19.4 C 5.34 g/m*3 19.4 C 0 km/h
2731 15-09-2004 16:42:01 19.7 C 5.43 g/m*3 19.7 C 0 km/h
2732 15-09-2004 16:54:00 20.3 C 5.63 g/m*3 20.3 C 0 km/h
2733 15-09-2004 17:06:00 20 C 5.7 g/m*3 20 C 0 km/h
2734 15-09-2004 17:18:00 20.3 C 5.8 g/m*3 20.3 C 0 km/h
2735 15-09-2004 17:30:00 19.2 C 6.1 g/m*3 19.2 C 0 km/h
2736 15-09-2004 17:42:00 17.9 C 6.87 g/m*3 17.9 C 0 km/h
2737 15-09-2004 17:54:00 18.2 C 6.99 g/m*3 18.2 C 0 km/h
2738 15-09-2004 18:06:00 18.6 C 6.53 g/m*3 18.6 C 0 km/h
2739 15-09-2004 18:18:00 18.5 C 6.49 g/m*3 18.5 C 0 km/h
2740 15-09-2004 18:30:00 18.6 C 6.68 g/m*3 18.6 C 0 km/h
2741 15-09-2004 18:42:00 17.4 C 6.67 g/m*3 17.4 C 0 km/h
2742 15-09-2004 18:54:00 16.6 C 6.64 g/m*3 16.6 C 0 km/h
2743 15-09-2004 19:06:01 16.8 C 6.72 g/m*3 16.8 C 0 km/h
2744 15-09-2004 19:18:01 17.1 C 6.84 g/m*3 17.1 C 0 km/h
2745 15-09-2004 19:30:01 16.3 C 6.8 g/m*3 16.3 C 0 km/h
2746 15-09-2004 19:42:01 15.5 C 6.74 g/m*3 15.5 C 0 km/h
2747 15-09-2004 19:54:01 15.1 C 6.58 g/m*3 15.1 C 0 km/h
2748 15-09-2004 20:06:01 14.7 C 6.92 g/m*3 14.7 C 0 km/h
2749 15-09-2004 20:18:00 14.1 C 6.92 g/m*3 14.1 C 0 km/h
2750 15-09-2004 20:30:00 13.8 C 7.03 g/m*3 13.8 C 0 km/h
Sensor: Nr:Datum:Temp:Abs-Feuchte:Windchill:Wind:
Aussen-T/F 2751 15-09-2004 20:42:00 13.7 C 7.1 g/m*3 13.7 C 0 km/h
2752 15-09-2004 20:54:00 13.5 C 7.13 g/m*3 13.5 C 0 km/h
2753 15-09-2004 21:06:00 13.2 C 7.23 g/m*3 13.2 C 0 km/h
2754 15-09-2004 21:18:00 13 C 7.14 g/m*3 13 C 0 km/h
2755 15-09-2004 21:30:00 12.7 C 7.35 g/m*3 12.7 C 0 km/h
2756 15-09-2004 21:42:00 12.5 C 7.37 g/m*3 12.5 C 0 km/h
2757 15-09-2004 21:54:00 12.3 C 7.38 g/m*3 12.3 C 0 km/h
2758 15-09-2004 22:06:00 12 C 7.35 g/m*3 12 C 0 km/h
2759 15-09-2004 22:18:00 11.9 C 7.52 g/m*3 11.9 C 0 km/h
2760 15-09-2004 22:30:01 11.7 C 7.64 g/m*3 11.7 C 0 km/h
2761 15-09-2004 22:42:01 11.4 C 7.29 g/m*3 11.4 C 0 km/h
2762 15-09-2004 22:54:01 11.2 C 7.4 g/m*3 11.2 C 0 km/h
2763 15-09-2004 23:06:01 11.1 C 7.35 g/m*3 11.1 C 0 km/h
2764 15-09-2004 23:18:01 10.9 C 7.36 g/m*3 10.9 C 0 km/h
2765 15-09-2004 23:30:01 10.8 C 7.41 g/m*3 10.8 C 0 km/h
2766 15-09-2004 23:42:00 10.6 C 7.42 g/m*3 10.6 C 0 km/h
2767 15-09-2004 23:54:00 10.5 C 7.37 g/m*3 10.5 C 0 km/h
2768 16-09-2004 00:06:00 10.3 C 7.37 g/m*3 10.3 C 0 km/h
2769 16-09-2004 00:18:01 10.2 C 7.42 g/m*3 10.2 C 0 km/h
2770 16-09-2004 00:30:01 9.8 C 7.42 g/m*3 9.8 C 0 km/h
2771 16-09-2004 00:42:01 9.8 C 7.52 g/m*3 9.8 C 0 km/h
2772 16-09-2004 00:54:01 9.5 C 7.37 g/m*3 9.5 C 0 km/h
2773 16-09-2004 01:06:00 9.5 C 7.46 g/m*3 9.5 C 0 km/h
2774 16-09-2004 01:18:00 9.5 C 7.46 g/m*3 9.5 C 0 km/h
2775 16-09-2004 01:30:00 9.7 C 7.47 g/m*3 9.7 C 0 km/h
Sensor: Nr:Datum:Temp:Abs-Feuchte:Windchill:Wind:
Aussen-T/F 2776 16-09-2004 01:42:00 10 C 7.42 g/m*3 10 C 0 km/h
2777 16-09-2004 01:54:00 9.8 C 7.42 g/m*3 9.8 C 0 km/h
2778 16-09-2004 02:06:00 9.6 C 7.42 g/m*3 9.6 C 0 km/h
2779 16-09-2004 02:18:00 9.5 C 7.37 g/m*3 9.5 C 0 km/h
2780 16-09-2004 02:30:00 9.5 C 7.37 g/m*3 9.5 C 0 km/h
2781 16-09-2004 02:42:00 9.1 C 7.28 g/m*3 9.1 C 0 km/h
2782 16-09-2004 02:55:03 8.8 C 7.31 g/m*3 8.8 C 0 km/h
2783 16-09-2004 03:07:03 8.6 C 7.3 g/m*3 8.6 C 0 km/h
2784 16-09-2004 03:19:04 8.5 C 7.34 g/m*3 8.5 C 0 km/h
2785 16-09-2004 03:31:01 8.4 C 7.3 g/m*3 8.4 C 0 km/h
2786 16-09-2004 03:43:01 8.2 C 7.29 g/m*3 8.2 C 0 km/h
2787 16-09-2004 03:55:01 8.1 C 7.24 g/m*3 8.1 C 0 km/h
2788 16-09-2004 04:07:01 8 C 7.19 g/m*3 8 C 0 km/h
2789 16-09-2004 04:19:01 8 C 7.28 g/m*3 8 C 0 km/h
2790 16-09-2004 04:31:00 7.9 C 7.31 g/m*3 7.9 C 0 km/h
2791 16-09-2004 04:43:00 7.7 C 7.22 g/m*3 7.7 C 0 km/h
2792 16-09-2004 04:55:01 7.6 C 7.17 g/m*3 7.6 C 0 km/h
2793 16-09-2004 05:07:01 7.6 C 7.25 g/m*3 7.6 C 0 km/h
2794 16-09-2004 05:19:01 7.4 C 7.16 g/m*3 7.4 C 0 km/h
2795 16-09-2004 05:31:00 7.2 C 7.06 g/m*3 7.2 C 0 km/h
2796 16-09-2004 05:43:00 7.1 C 7.02 g/m*3 7.1 C 0 km/h
2797 16-09-2004 05:55:01 7.2 C 7.06 g/m*3 7.2 C 0 km/h
2798 16-09-2004 06:07:01 7 C 7.05 g/m*3 7 C 0 km/h
2799 16-09-2004 06:19:00 6.9 C 7.01 g/m*3 6.9 C 0 km/h
2800 16-09-2004 06:31:00 6.9 C 7.01 g/m*3 6.9 C 0 km/h
Sensor: Nr:Datum:Temp:Abs-Feuchte:Windchill:Wind:
Aussen-T/F 2801 16-09-2004 06:43:00 6.8 C 6.96 g/m*3 6.8 C 0 km/h
2802 16-09-2004 06:55:02 6.8 C 6.96 g/m*3 6.8 C 0 km/h
2803 16-09-2004 07:07:02 6.7 C 6.91 g/m*3 6.7 C 0 km/h
2804 16-09-2004 07:19:02 6.4 C 6.85 g/m*3 6.4 C 0 km/h
2805 16-09-2004 07:31:01 6.4 C 6.85 g/m*3 6.4 C 0 km/h
2806 16-09-2004 07:43:01 6.4 C 6.85 g/m*3 6.4 C 0 km/h
2807 16-09-2004 07:55:01 6.5 C 6.9 g/m*3 6.5 C 0 km/h
2808 16-09-2004 08:07:01 6.7 C 7.07 g/m*3 6.7 C 0 km/h
2809 16-09-2004 08:19:01 6.8 C 7.11 g/m*3 6.8 C 0 km/h
2810 16-09-2004 08:31:00 7 C 7.13 g/m*3 7 C 0 km/h
2811 16-09-2004 08:43:00 7.4 C 7.24 g/m*3 7.4 C 0 km/h
2812 16-09-2004 08:55:01 7.5 C 7.2 g/m*3 7.5 C 0 km/h
2813 16-09-2004 09:07:01 7.8 C 7.26 g/m*3 7.8 C 0 km/h
2814 16-09-2004 09:19:00 8.1 C 7.24 g/m*3 8.1 C 0 km/h
2815 16-09-2004 09:31:00 8.4 C 7.3 g/m*3 8.4 C 0 km/h
2816 16-09-2004 09:43:00 8.8 C 7.4 g/m*3 8.8 C 0 km/h
2817 16-09-2004 09:55:01 9.3 C 7.46 g/m*3 9.3 C 0 km/h
2818 16-09-2004 10:07:01 9.5 C 7.46 g/m*3 9.5 C 0 km/h
2819 16-09-2004 10:19:01 9.8 C 7.52 g/m*3 9.8 C 0 km/h
2820 16-09-2004 10:31:01 10.4 C 7.81 g/m*3 10.4 C 0 km/h
2821 16-09-2004 10:43:01 10.9 C 7.96 g/m*3 10.9 C 0 km/h
2822 16-09-2004 10:55:01 11.5 C 8.06 g/m*3 11.5 C 0 km/h
2823 16-09-2004 11:07:01 12.1 C 8.26 g/m*3 12.1 C 0 km/h
2824 16-09-2004 11:19:00 12.5 C 8.25 g/m*3 12.5 C 0 km/h
2825 16-09-2004 11:31:00 13.1 C 8.33 g/m*3 13.1 C 0 km/h
Sensor: Nr:Datum:Temp:Abs-Feuchte:Windchill:Wind:
Aussen-T/F 2826 16-09-2004 11:43:00 13.6 C 8.24 g/m*3 13.6 C 0 km/h
2827 16-09-2004 11:55:01 14.2 C 8.3 g/m*3 14.2 C 0 km/h
2828 16-09-2004 12:07:01 14.6 C 8.13 g/m*3 14.6 C 0 km/h
2829 16-09-2004 12:19:01 15 C 7.95 g/m*3 15 C 0 km/h
2830 16-09-2004 12:31:00 15.5 C 7.67 g/m*3 15.5 C 0 km/h
2831 16-09-2004 12:43:00 15.6 C 7.31 g/m*3 15.6 C 0 km/h
2832 16-09-2004 12:55:01 15.8 C 7.27 g/m*3 15.8 C 0 km/h
2833 16-09-2004 13:07:01 16.1 C 7.4 g/m*3 16.1 C 0 km/h
2834 16-09-2004 13:19:00 16.7 C 6.96 g/m*3 16.7 C 0 km/h
2835 16-09-2004 13:31:01 17.5 C 6.11 g/m*3 17.5 C 0 km/h
2836 16-09-2004 13:43:01 17.9 C 6.26 g/m*3 17.9 C 0 km/h
2837 16-09-2004 13:55:01 18.3 C 6.41 g/m*3 18.3 C 0 km/h
2838 16-09-2004 14:07:01 18.7 C 5.92 g/m*3 18.7 C 0 km/h
2839 16-09-2004 14:19:00 19.2 C 5.44 g/m*3 19.2 C 0 km/h
2840 16-09-2004 14:31:00 19.7 C 5.94 g/m*3 19.7 C 0 km/h
2841 16-09-2004 14:43:00 20.5 C 5.69 g/m*3 20.5 C 0 km/h
2842 16-09-2004 14:55:01 21.4 C 5.62 g/m*3 21.4 C 0 km/h
2843 16-09-2004 15:07:01 21.8 C 5.76 g/m*3 21.8 C 0 km/h
2844 16-09-2004 15:19:01 21 C 5.31 g/m*3 21 C 0 km/h
2845 16-09-2004 15:31:00 19.7 C 5.6 g/m*3 19.7 C 0 km/h
2846 16-09-2004 15:43:00 20.5 C 5.52 g/m*3 20.5 C 0 km/h
2847 16-09-2004 15:55:01 21.2 C 5 g/m*3 21.2 C 0 km/h
2848 16-09-2004 16:07:01 21.3 C 4.85 g/m*3 21.3 C 0 km/h
2849 16-09-2004 16:19:00 21.6 C 4.74 g/m*3 21.6 C 0 km/h
2850 16-09-2004 16:31:00 21.9 C 4.82 g/m*3 21.9 C 0 km/h
Sensor: Nr:Datum:Temp:Abs-Feuchte:Windchill:Wind:
Aussen-T/F 2851 16-09-2004 16:43:00 22 C 5.82 g/m*3 22 C 0 km/h
2852 16-09-2004 16:55:02 22 C 5.05 g/m*3 22 C 0 km/h
2853 16-09-2004 17:07:02 22 C 6.02 g/m*3 22 C 0 km/h
2854 16-09-2004 17:19:02 21.2 C 6.12 g/m*3 21.2 C 0 km/h
2855 16-09-2004 17:31:01 22.3 C 6.52 g/m*3 22.3 C 0 km/h
2856 16-09-2004 17:43:01 22.9 C 6.54 g/m*3 22.9 C 0 km/h
2857 16-09-2004 17:55:01 22.7 C 6.26 g/m*3 22.7 C 0 km/h
2858 16-09-2004 18:07:01 21.6 C 6.26 g/m*3 21.6 C 0 km/h
2859 16-09-2004 18:19:01 21.1 C 5.9 g/m*3 21.1 C 0 km/h
2860 16-09-2004 18:31:01 20 C 6.22 g/m*3 20 C 0 km/h
2861 16-09-2004 18:43:01 18.4 C 6.29 g/m*3 18.4 C 0 km/h
2862 16-09-2004 18:55:01 17.4 C 6.08 g/m*3 17.4 C 0 km/h
2863 16-09-2004 19:07:01 16.9 C 6.18 g/m*3 16.9 C 0 km/h
2864 16-09-2004 19:19:01 16.2 C 5.93 g/m*3 16.2 C 0 km/h
2865 16-09-2004 19:31:01 16.1 C 5.76 g/m*3 16.1 C 0 km/h
2866 16-09-2004 19:43:01 15.3 C 6.01 g/m*3 15.3 C 0 km/h
2867 16-09-2004 19:55:01 14.8 C 6.08 g/m*3 14.8 C 0 km/h
2868 16-09-2004 20:07:02 14.3 C 6.02 g/m*3 14.3 C 0 km/h
2869 16-09-2004 20:19:02 13.7 C 6.04 g/m*3 13.7 C 0 km/h
2870 16-09-2004 20:31:02 13.1 C 5.82 g/m*3 13.1 C 0 km/h
2871 16-09-2004 20:43:02 12.8 C 6.16 g/m*3 12.8 C 0 km/h
2872 16-09-2004 20:55:01 12.5 C 6.27 g/m*3 12.5 C 0 km/h
2873 16-09-2004 21:07:01 12.4 C 6.23 g/m*3 12.4 C 0 km/h
2874 16-09-2004 21:19:01 12.1 C 6.33 g/m*3 12.1 C 0 km/h
2875 16-09-2004 21:31:01 11.9 C 6.35 g/m*3 11.9 C 0 km/h
Sensor: Nr:Datum:Temp:Abs-Feuchte:Windchill:Wind:
Aussen-T/F 2876 16-09-2004 21:43:01 11.6 C 6.34 g/m*3 11.6 C 0 km/h
2877 16-09-2004 21:55:01 11.2 C 6.28 g/m*3 11.2 C 0 km/h
2878 16-09-2004 22:07:01 11.1 C 6.25 g/m*3 11.1 C 0 km/h
2879 16-09-2004 22:19:01 11 C 6.31 g/m*3 11 C 0 km/h
2880 16-09-2004 22:31:01 10.8 C 6.33 g/m*3 10.8 C 0 km/h
2881 16-09-2004 22:43:01 10.7 C 6.38 g/m*3 10.7 C 0 km/h
2882 16-09-2004 22:55:01 10.4 C 6.26 g/m*3 10.4 C 0 km/h
2883 16-09-2004 23:07:01 10.1 C 6.24 g/m*3 10.1 C 0 km/h
2884 16-09-2004 23:19:01 9.8 C 6.4 g/m*3 9.8 C 0 km/h
2885 16-09-2004 23:31:00 9.7 C 6.36 g/m*3 9.7 C 0 km/h
2886 16-09-2004 23:43:00 9.5 C 6.37 g/m*3 9.5 C 0 km/h
2887 16-09-2004 23:55:01 9.4 C 6.51 g/m*3 9.4 C 0 km/h
2888 17-09-2004 00:07:02 9.2 C 6.34 g/m*3 9.2 C 0 km/h
2889 17-09-2004 00:19:01 9 C 6.35 g/m*3 9 C 0 km/h
2890 17-09-2004 00:31:01 8.9 C 6.48 g/m*3 8.9 C 0 km/h
2891 17-09-2004 00:43:01 8.6 C 6.27 g/m*3 8.6 C 0 km/h
2892 17-09-2004 00:55:01 8.7 C 6.4 g/m*3 8.7 C 0 km/h
2893 17-09-2004 01:07:01 8.3 C 6.32 g/m*3 8.3 C 0 km/h
2894 17-09-2004 01:19:01 8.1 C 6.41 g/m*3 8.1 C 0 km/h
2895 17-09-2004 01:31:01 8 C 6.45 g/m*3 8 C 0 km/h
2896 17-09-2004 01:43:01 8 C 6.37 g/m*3 8 C 0 km/h
2897 17-09-2004 01:55:01 7.9 C 6.49 g/m*3 7.9 C 0 km/h
2898 17-09-2004 02:07:01 7.7 C 6.57 g/m*3 7.7 C 0 km/h
2899 17-09-2004 02:19:01 7.6 C 6.44 g/m*3 7.6 C 0 km/h
2900 17-09-2004 02:31:01 7.5 C 6.4 g/m*3 7.5 C 0 km/h
Sensor: Nr:Datum:Temp:Abs-Feuchte:Windchill:Wind:
Aussen-T/F 2901 17-09-2004 02:43:01 7.4 C 6.44 g/m*3 7.4 C 0 km/h
2902 17-09-2004 02:55:01 7.1 C 6.32 g/m*3 7.1 C 0 km/h
2903 17-09-2004 03:07:01 7 C 6.35 g/m*3 7 C 0 km/h
2904 17-09-2004 03:19:01 7 C 6.35 g/m*3 7 C 0 km/h
2905 17-09-2004 03:31:00 6.9 C 6.39 g/m*3 6.9 C 0 km/h
2906 17-09-2004 03:43:00 6.9 C 6.39 g/m*3 6.9 C 0 km/h
2907 17-09-2004 03:55:00 6.9 C 6.39 g/m*3 6.9 C 0 km/h
2908 17-09-2004 04:07:00 6.7 C 6.38 g/m*3 6.7 C 0 km/h
2909 17-09-2004 04:19:00 6.6 C 6.42 g/m*3 6.6 C 0 km/h
2910 17-09-2004 04:31:00 6.4 C 6.33 g/m*3 6.4 C 0 km/h
2911 17-09-2004 04:43:00 6.2 C 6.25 g/m*3 6.2 C 0 km/h
2912 17-09-2004 04:55:00 6 C 6.17 g/m*3 6 C 0 km/h
2913 17-09-2004 05:07:00 6 C 6.24 g/m*3 6 C 0 km/h
2914 17-09-2004 05:19:00 5.9 C 6.27 g/m*3 5.9 C 0 km/h
2915 17-09-2004 05:31:00 5.8 C 6.23 g/m*3 5.8 C 0 km/h
2916 17-09-2004 05:43:00 5.7 C 6.19 g/m*3 5.7 C 0 km/h
2917 17-09-2004 05:55:00 5.5 C 6.18 g/m*3 5.5 C 0 km/h
2918 17-09-2004 06:07:01 5.4 C 6.14 g/m*3 5.4 C 0 km/h
2919 17-09-2004 06:19:01 5.3 C 6.1 g/m*3 5.3 C 0 km/h
2920 17-09-2004 06:31:01 5.2 C 6.13 g/m*3 5.2 C 0 km/h
2921 17-09-2004 06:43:01 5.2 C 6.13 g/m*3 5.2 C 0 km/h
2922 17-09-2004 06:55:01 5.1 C 6.09 g/m*3 5.1 C 0 km/h
2923 17-09-2004 07:07:01 5.1 C 6.16 g/m*3 5.1 C 0 km/h
2924 17-09-2004 07:19:00 5 C 6.12 g/m*3 5 C 0 km/h
2925 17-09-2004 07:31:01 5 C 6.12 g/m*3 5 C 0 km/h
Sensor: Nr:Datum:Temp:Abs-Feuchte:Windchill:Wind:
Aussen-T/F 2926 17-09-2004 07:43:01 4.9 C 6.21 g/m*3 4.9 C 0 km/h
2927 17-09-2004 07:55:00 4.9 C 6.21 g/m*3 4.9 C 0 km/h
2928 17-09-2004 08:07:00 5.3 C 6.38 g/m*3 5.3 C 0 km/h
2929 17-09-2004 08:19:00 5.5 C 6.39 g/m*3 5.5 C 0 km/h
2930 17-09-2004 08:31:00 5.7 C 6.48 g/m*3 5.7 C 0 km/h
2931 17-09-2004 08:43:00 5.9 C 6.49 g/m*3 5.9 C 0 km/h
2932 17-09-2004 08:55:00 6.3 C 6.51 g/m*3 6.3 C 0 km/h
2933 17-09-2004 09:07:00 6.5 C 6.6 g/m*3 6.5 C 0 km/h
2934 17-09-2004 09:19:00 6.7 C 6.61 g/m*3 6.7 C 0 km/h
2935 17-09-2004 09:31:00 6.6 C 6.64 g/m*3 6.6 C 0 km/h
2936 17-09-2004 09:43:01 6.8 C 6.81 g/m*3 6.8 C 0 km/h
2937 17-09-2004 09:55:01 7.2 C 6.91 g/m*3 7.2 C 0 km/h
2938 17-09-2004 10:07:01 7.7 C 7.14 g/m*3 7.7 C 0 km/h
2939 17-09-2004 10:19:01 8 C 6.94 g/m*3 8 C 0 km/h
2940 17-09-2004 10:31:01 8.6 C 7.22 g/m*3 8.6 C 0 km/h
2941 17-09-2004 10:43:01 9.2 C 7.41 g/m*3 9.2 C 0 km/h
2942 17-09-2004 10:55:00 10.2 C 7.52 g/m*3 10.2 C 0 km/h
2943 17-09-2004 11:07:00 11.1 C 7.55 g/m*3 11.1 C 0 km/h
2944 17-09-2004 11:19:00 12 C 7.67 g/m*3 12 C 0 km/h
2945 17-09-2004 11:31:00 12.4 C 7.65 g/m*3 12.4 C 0 km/h
2946 17-09-2004 11:43:00 13.1 C 7.65 g/m*3 13.1 C 0 km/h
2947 17-09-2004 11:55:00 13.8 C 7.86 g/m*3 13.8 C 0 km/h
2948 17-09-2004 12:07:00 14.5 C 7.96 g/m*3 14.5 C 0 km/h
2949 17-09-2004 12:19:00 15.2 C 8.18 g/m*3 15.2 C 0 km/h
2950 17-09-2004 12:31:00 15.6 C 8.38 g/m*3 15.6 C 0 km/h
Sensor: Nr:Datum:Temp:Abs-Feuchte:Windchill:Wind:
Aussen-T/F 2951 17-09-2004 12:43:00 16 C 8.45 g/m*3 16 C 0 km/h
2952 17-09-2004 12:55:00 16.4 C 8.37 g/m*3 16.4 C 0 km/h
2953 17-09-2004 13:07:00 17 C 8.54 g/m*3 17 C 0 km/h
2954 17-09-2004 13:19:01 17.7 C 8.6 g/m*3 17.7 C 0 km/h
2955 17-09-2004 13:31:01 18.6 C 8.75 g/m*3 18.6 C 0 km/h
2956 17-09-2004 13:43:01 19.2 C 7.09 g/m*3 19.2 C 0 km/h
2957 17-09-2004 13:55:01 20.1 C 8 g/m*3 20.1 C 0 km/h
2958 17-09-2004 14:07:01 21 C 8.24 g/m*3 21 C 0 km/h
2959 17-09-2004 14:19:01 21.3 C 6.71 g/m*3 21.3 C 0 km/h
2960 17-09-2004 14:31:00 21.9 C 6.75 g/m*3 21.9 C 0 km/h
2961 17-09-2004 14:43:00 22.3 C 6.52 g/m*3 22.3 C 0 km/h
2962 17-09-2004 14:55:00 22 C 6.6 g/m*3 22 C 0 km/h
2963 17-09-2004 15:07:00 22.7 C 6.26 g/m*3 22.7 C 0 km/h
2964 17-09-2004 15:19:00 22.7 C 6.06 g/m*3 22.7 C 0 km/h
2965 17-09-2004 15:31:00 23.2 C 5.61 g/m*3 23.2 C 0 km/h
2966 17-09-2004 15:43:00 24 C 5.87 g/m*3 24 C 0 km/h
2967 17-09-2004 15:55:00 22.8 C 5.49 g/m*3 22.8 C 0 km/h
2968 17-09-2004 16:07:00 23.4 C 5.89 g/m*3 23.4 C 0 km/h
2969 17-09-2004 16:19:00 24.6 C 6.08 g/m*3 24.6 C 0 km/h
2970 17-09-2004 16:31:00 25.1 C 6.25 g/m*3 25.1 C 0 km/h
2971 17-09-2004 16:43:00 25.4 C 6.12 g/m*3 25.4 C 0 km/h
2972 17-09-2004 16:55:00 25.3 C 6.09 g/m*3 25.3 C 0 km/h
2973 17-09-2004 17:07:01 25.4 C 6.12 g/m*3 25.4 C 0 km/h
2974 17-09-2004 17:19:01 25.3 C 6.55 g/m*3 25.3 C 0 km/h
2975 17-09-2004 17:31:01 25.4 C 5.89 g/m*3 25.4 C 0 km/h
Sensor: Nr:Datum:Temp:Abs-Feuchte:Windchill:Wind:
Aussen-T/F 2976 17-09-2004 17:43:01 25.7 C 6.22 g/m*3 25.7 C 0 km/h
2977 17-09-2004 17:55:01 25.1 C 6.48 g/m*3 25.1 C 0 km/h
2978 17-09-2004 18:07:01 25 C 6.22 g/m*3 25 C 0 km/h
2979 17-09-2004 18:19:00 24.3 C 7.08 g/m*3 24.3 C 0 km/h
2980 17-09-2004 18:31:00 24.1 C 7.44 g/m*3 24.1 C 0 km/h
2981 17-09-2004 18:43:00 22.4 C 7.55 g/m*3 22.4 C 0 km/h
2982 17-09-2004 18:55:00 21.7 C 7.44 g/m*3 21.7 C 0 km/h
2983 17-09-2004 19:07:00 20.8 C 7.6 g/m*3 20.8 C 0 km/h
2984 17-09-2004 19:19:00 19.4 C 7.34 g/m*3 19.4 C 0 km/h
2985 17-09-2004 19:31:00 18.3 C 7.19 g/m*3 18.3 C 0 km/h
2986 17-09-2004 19:43:00 17.3 C 7.07 g/m*3 17.3 C 0 km/h
2987 17-09-2004 19:55:00 16.7 C 7.11 g/m*3 16.7 C 0 km/h
2988 17-09-2004 20:07:00 16.4 C 7.12 g/m*3 16.4 C 0 km/h
2989 17-09-2004 20:19:00 15.9 C 7.04 g/m*3 15.9 C 0 km/h
2990 17-09-2004 20:31:00 15.7 C 7.09 g/m*3 15.7 C 0 km/h
2991 17-09-2004 20:43:01 15.6 C 7.18 g/m*3 15.6 C 0 km/h
2992 17-09-2004 20:55:01 15.2 C 7.14 g/m*3 15.2 C 0 km/h
2993 17-09-2004 21:07:01 15 C 7.05 g/m*3 15 C 0 km/h
2994 17-09-2004 21:19:01 14.9 C 7.39 g/m*3 14.9 C 0 km/h
2995 17-09-2004 21:31:01 15 C 7.31 g/m*3 15 C 0 km/h
2996 17-09-2004 21:43:01 14.9 C 7.39 g/m*3 14.9 C 0 km/h
2997 17-09-2004 21:55:01 15 C 7.18 g/m*3 15 C 0 km/h
2998 17-09-2004 22:07:00 14.9 C 7.52 g/m*3 14.9 C 0 km/h
2999 17-09-2004 22:19:00 14.7 C 7.55 g/m*3 14.7 C 0 km/h
3000 17-09-2004 22:31:00 14.5 C 7.59 g/m*3 14.5 C 0 km/h
Sensor: Nr:Datum:Temp:Abs-Feuchte:Windchill:Wind:
Aussen-T/F 3001 17-09-2004 22:43:00 14.3 C 7.49 g/m*3 14.3 C 0 km/h
3002 17-09-2004 22:55:00 14.2 C 7.33 g/m*3 14.2 C 0 km/h
3003 17-09-2004 23:07:00 14.3 C 7.37 g/m*3 14.3 C 0 km/h
3004 17-09-2004 23:19:00 14 C 7.36 g/m*3 14 C 0 km/h
3005 17-09-2004 23:31:00 13.6 C 7.65 g/m*3 13.6 C 0 km/h
3006 17-09-2004 23:43:00 13.1 C 7.65 g/m*3 13.1 C 0 km/h
3007 17-09-2004 23:55:00 12.8 C 7.73 g/m*3 12.8 C 0 km/h
3008 18-09-2004 00:07:00 12.5 C 7.7 g/m*3 12.5 C 0 km/h
3009 18-09-2004 00:19:01 12.2 C 7.66 g/m*3 12.2 C 0 km/h
3010 18-09-2004 00:31:01 11.8 C 7.47 g/m*3 11.8 C 0 km/h
3011 18-09-2004 00:43:01 11.7 C 7.53 g/m*3 11.7 C 0 km/h
3012 18-09-2004 00:55:01 11.4 C 7.6 g/m*3 11.4 C 0 km/h
3013 18-09-2004 01:07:01 11.3 C 7.75 g/m*3 11.3 C 0 km/h
3014 18-09-2004 01:19:01 11.2 C 7.6 g/m*3 11.2 C 0 km/h
3015 18-09-2004 01:31:00 10.9 C 7.56 g/m*3 10.9 C 0 km/h
3016 18-09-2004 01:43:00 10.8 C 7.61 g/m*3 10.8 C 0 km/h
3017 18-09-2004 01:55:00 10.8 C 7.61 g/m*3 10.8 C 0 km/h
3018 18-09-2004 02:07:00 10.4 C 7.42 g/m*3 10.4 C 0 km/h
3019 18-09-2004 02:19:00 10.2 C 7.42 g/m*3 10.2 C 0 km/h
3020 18-09-2004 02:31:00 10 C 7.33 g/m*3 10 C 0 km/h
3021 18-09-2004 02:43:00 9.8 C 7.42 g/m*3 9.8 C 0 km/h
3022 18-09-2004 02:56:03 9.8 C 7.42 g/m*3 9.8 C 0 km/h
3023 18-09-2004 03:08:03 9.6 C 7.42 g/m*3 9.6 C 0 km/h
3024 18-09-2004 03:20:03 9.4 C 7.42 g/m*3 9.4 C 0 km/h
3025 18-09-2004 03:32:01 9.3 C 7.37 g/m*3 9.3 C 0 km/h
Sensor: Nr:Datum:Temp:Abs-Feuchte:Windchill:Wind:
Aussen-T/F 3026 18-09-2004 03:44:01 9 C 7.32 g/m*3 9 C 0 km/h
3027 18-09-2004 03:56:01 9 C 7.32 g/m*3 9 C 0 km/h
3028 18-09-2004 04:08:01 9 C 7.32 g/m*3 9 C 0 km/h
3029 18-09-2004 04:20:01 8.9 C 7.36 g/m*3 8.9 C 0 km/h
3030 18-09-2004 04:32:01 8.8 C 7.31 g/m*3 8.8 C 0 km/h
3031 18-09-2004 04:44:01 8.7 C 7.35 g/m*3 8.7 C 0 km/h
3032 18-09-2004 04:56:02 8.6 C 7.3 g/m*3 8.6 C 0 km/h
3033 18-09-2004 05:08:02 8.6 C 7.3 g/m*3 8.6 C 0 km/h
3034 18-09-2004 05:20:02 8.4 C 7.3 g/m*3 8.4 C 0 km/h
3035 18-09-2004 05:32:02 8.3 C 7.25 g/m*3 8.3 C 0 km/h
3036 18-09-2004 05:44:02 8.2 C 7.2 g/m*3 8.2 C 0 km/h
3037 18-09-2004 05:56:01 8.1 C 7.16 g/m*3 8.1 C 0 km/h
3038 18-09-2004 06:08:01 7.8 C 7.1 g/m*3 7.8 C 0 km/h
3039 18-09-2004 06:20:01 7.6 C 7.01 g/m*3 7.6 C 0 km/h
3040 18-09-2004 06:32:01 7.7 C 7.14 g/m*3 7.7 C 0 km/h
3041 18-09-2004 06:44:01 7.7 C 7.14 g/m*3 7.7 C 0 km/h
3042 18-09-2004 06:56:01 7.6 C 7.09 g/m*3 7.6 C 0 km/h
3043 18-09-2004 07:08:01 7.6 C 7.09 g/m*3 7.6 C 0 km/h
3044 18-09-2004 07:20:01 7.5 C 7.04 g/m*3 7.5 C 0 km/h
3045 18-09-2004 07:32:00 7.5 C 7.04 g/m*3 7.5 C 0 km/h
3046 18-09-2004 07:44:00 7.8 C 7.18 g/m*3 7.8 C 0 km/h
3047 18-09-2004 07:56:01 7.9 C 7.23 g/m*3 7.9 C 0 km/h
3048 18-09-2004 08:08:02 8 C 7.28 g/m*3 8 C 0 km/h
3049 18-09-2004 08:20:02 8 C 7.19 g/m*3 8 C 0 km/h
3050 18-09-2004 08:32:01 8 C 7.19 g/m*3 8 C 0 km/h
Sensor: Nr:Datum:Temp:Abs-Feuchte:Windchill:Wind:
Aussen-T/F 3051 18-09-2004 08:44:01 8.1 C 7.24 g/m*3 8.1 C 0 km/h
3052 18-09-2004 08:56:01 8.1 C 7.24 g/m*3 8.1 C 0 km/h
3053 18-09-2004 09:08:01 8.2 C 7.37 g/m*3 8.2 C 0 km/h
3054 18-09-2004 09:20:01 8.5 C 7.51 g/m*3 8.5 C 0 km/h
3055 18-09-2004 09:32:00 8.7 C 7.61 g/m*3 8.7 C 0 km/h
3056 18-09-2004 09:44:00 9.1 C 7.72 g/m*3 9.1 C 0 km/h
3057 18-09-2004 09:56:01 9.6 C 8.06 g/m*3 9.6 C 0 km/h
3058 18-09-2004 10:08:01 10.1 C 8.13 g/m*3 10.1 C 0 km/h
3059 18-09-2004 10:20:01 10.6 C 8.3 g/m*3 10.6 C 0 km/h
3060 18-09-2004 10:32:00 11.5 C 8.68 g/m*3 11.5 C 0 km/h
3061 18-09-2004 10:44:00 11.9 C 8.58 g/m*3 11.9 C 0 km/h
3062 18-09-2004 10:56:01 12.7 C 8.91 g/m*3 12.7 C 0 km/h
3063 18-09-2004 11:08:02 13.6 C 9.18 g/m*3 13.6 C 0 km/h
3064 18-09-2004 11:20:01 14.5 C 8.95 g/m*3 14.5 C 0 km/h
3065 18-09-2004 11:32:01 15.3 C 9.01 g/m*3 15.3 C 0 km/h
3066 18-09-2004 11:44:01 15.7 C 9.37 g/m*3 15.7 C 0 km/h
3067 18-09-2004 11:56:02 16.2 C 9.52 g/m*3 16.2 C 0 km/h
3068 18-09-2004 12:08:02 16.7 C 9.81 g/m*3 16.7 C 0 km/h
3069 18-09-2004 12:20:02 17.7 C 9.66 g/m*3 17.7 C 0 km/h
3070 18-09-2004 12:32:02 18.2 C 9.48 g/m*3 18.2 C 0 km/h
3071 18-09-2004 12:44:02 18.7 C 9.29 g/m*3 18.7 C 0 km/h
3072 18-09-2004 12:56:01 20 C 8.3 g/m*3 20 C 0 km/h
3073 18-09-2004 13:08:01 20.4 C 8.67 g/m*3 20.4 C 0 km/h
3074 18-09-2004 13:20:01 21 C 8.43 g/m*3 21 C 0 km/h
3075 18-09-2004 13:32:00 21.6 C 8.16 g/m*3 21.6 C 0 km/h
Sensor: Nr:Datum:Temp:Abs-Feuchte:Windchill:Wind:
Aussen-T/F 3076 18-09-2004 13:44:00 22.2 C 8.05 g/m*3 22.2 C 0 km/h
3077 18-09-2004 13:56:01 22.8 C 8.33 g/m*3 22.8 C 0 km/h
3078 18-09-2004 14:08:01 23.3 C 7.95 g/m*3 23.3 C 0 km/h
3079 18-09-2004 14:20:01 23.8 C 7.96 g/m*3 23.8 C 0 km/h
3080 18-09-2004 14:32:00 24.4 C 8.01 g/m*3 24.4 C 0 km/h
3081 18-09-2004 14:44:00 24.5 C 7.83 g/m*3 24.5 C 0 km/h
3082 18-09-2004 14:56:01 24.9 C 8.47 g/m*3 24.9 C 0 km/h
3083 18-09-2004 15:08:01 25.5 C 8.05 g/m*3 25.5 C 0 km/h
3084 18-09-2004 15:20:01 25.6 C 7.86 g/m*3 25.6 C 0 km/h
3085 18-09-2004 15:32:01 25.8 C 7.46 g/m*3 25.8 C 0 km/h
3086 18-09-2004 15:44:01 26 C 7.55 g/m*3 26 C 0 km/h
3087 18-09-2004 15:56:02 26.1 C 7.34 g/m*3 26.1 C 0 km/h
3088 18-09-2004 16:08:02 26.3 C 7.67 g/m*3 26.3 C 0 km/h
3089 18-09-2004 16:20:02 26.4 C 7.97 g/m*3 26.4 C 0 km/h
3090 18-09-2004 16:32:01 26.8 C 7.64 g/m*3 26.8 C 0 km/h
3091 18-09-2004 16:44:01 26.7 C 7.59 g/m*3 26.7 C 0 km/h
3092 18-09-2004 16:56:01 26.5 C 7.26 g/m*3 26.5 C 0 km/h
3093 18-09-2004 17:08:01 26.5 C 7.01 g/m*3 26.5 C 0 km/h
3094 18-09-2004 17:20:01 27.1 C 7.76 g/m*3 27.1 C 0 km/h
3095 18-09-2004 17:32:00 26.8 C 7.13 g/m*3 26.8 C 0 km/h
3096 18-09-2004 17:44:00 26.9 C 7.17 g/m*3 26.9 C 0 km/h
3097 18-09-2004 17:56:01 27.4 C 8.16 g/m*3 27.4 C 0 km/h
3098 18-09-2004 18:08:01 26.7 C 7.59 g/m*3 26.7 C 0 km/h
3099 18-09-2004 18:20:01 26.1 C 7.59 g/m*3 26.1 C 0 km/h
3100 18-09-2004 18:32:00 25.7 C 8.62 g/m*3 25.7 C 0 km/h
Sensor: Nr:Datum:Temp:Abs-Feuchte:Windchill:Wind:
Aussen-T/F 3101 18-09-2004 18:44:00 25.2 C 8.61 g/m*3 25.2 C 0 km/h
3102 18-09-2004 18:56:01 24.6 C 8.55 g/m*3 24.6 C 0 km/h
3103 18-09-2004 19:08:02 23.9 C 8.65 g/m*3 23.9 C 0 km/h
3104 18-09-2004 19:20:02 22.9 C 8.38 g/m*3 22.9 C 0 km/h
3105 18-09-2004 19:32:01 21.7 C 8.58 g/m*3 21.7 C 0 km/h
3106 18-09-2004 19:44:01 20.7 C 8.82 g/m*3 20.7 C 0 km/h
3107 18-09-2004 19:56:01 20 C 8.81 g/m*3 20 C 0 km/h
3108 18-09-2004 20:08:01 19.7 C 8.83 g/m*3 19.7 C 0 km/h
3109 18-09-2004 20:20:01 19.4 C 9.01 g/m*3 19.4 C 0 km/h
3110 18-09-2004 20:32:01 19.2 C 9.23 g/m*3 19.2 C 0 km/h
3111 18-09-2004 20:44:01 18.9 C 9.07 g/m*3 18.9 C 0 km/h
3112 18-09-2004 20:56:01 18.4 C 9.12 g/m*3 18.4 C 0 km/h
3113 18-09-2004 21:08:01 18.2 C 9.17 g/m*3 18.2 C 0 km/h
3114 18-09-2004 21:20:01 17.8 C 9.41 g/m*3 17.8 C 0 km/h
3115 18-09-2004 21:32:01 17.5 C 9.39 g/m*3 17.5 C 0 km/h
3116 18-09-2004 21:44:01 17.2 C 9.37 g/m*3 17.2 C 0 km/h
3117 18-09-2004 21:56:01 16.7 C 9.38 g/m*3 16.7 C 0 km/h
3118 18-09-2004 22:08:01 16.6 C 9.46 g/m*3 16.6 C 0 km/h
3119 18-09-2004 22:20:02 16.4 C 9.49 g/m*3 16.4 C 0 km/h
3120 18-09-2004 22:32:02 16 C 9.4 g/m*3 16 C 0 km/h
3121 18-09-2004 22:44:02 15.8 C 9.42 g/m*3 15.8 C 0 km/h
3122 18-09-2004 22:56:01 16.1 C 9.32 g/m*3 16.1 C 0 km/h
3123 18-09-2004 23:08:01 15.7 C 9.23 g/m*3 15.7 C 0 km/h
3124 18-09-2004 23:20:01 15.8 C 9.29 g/m*3 15.8 C 0 km/h
3125 18-09-2004 23:32:00 15.6 C 9.31 g/m*3 15.6 C 0 km/h
Sensor: Nr:Datum:Temp:Abs-Feuchte:Windchill:Wind:
Aussen-T/F 3126 18-09-2004 23:44:00 15.4 C 9.2 g/m*3 15.4 C 0 km/h
3127 18-09-2004 23:56:01 15.7 C 9.23 g/m*3 15.7 C 0 km/h
3128 19-09-2004 00:08:01 15.8 C 9.15 g/m*3 15.8 C 0 km/h
3129 19-09-2004 00:20:01 15.7 C 9.23 g/m*3 15.7 C 0 km/h
3130 19-09-2004 00:32:01 15.6 C 9.31 g/m*3 15.6 C 0 km/h
3131 19-09-2004 00:44:02 15.4 C 9.33 g/m*3 15.4 C 0 km/h
3132 19-09-2004 00:56:01 15.1 C 9.29 g/m*3 15.1 C 0 km/h
3133 19-09-2004 01:08:01 15.1 C 9.29 g/m*3 15.1 C 0 km/h
3134 19-09-2004 01:20:01 15 C 9.23 g/m*3 15 C 0 km/h
3135 19-09-2004 01:32:00 15.2 C 9.35 g/m*3 15.2 C 0 km/h
3136 19-09-2004 01:44:00 15.4 C 9.46 g/m*3 15.4 C 0 km/h
3137 19-09-2004 01:56:01 15.6 C 9.58 g/m*3 15.6 C 0 km/h
3138 19-09-2004 02:08:01 15.6 C 9.58 g/m*3 15.6 C 0 km/h
3139 19-09-2004 02:20:01 15.6 C 9.71 g/m*3 15.6 C 0 km/h
3140 19-09-2004 02:32:00 15.4 C 9.59 g/m*3 15.4 C 0 km/h
3141 19-09-2004 02:44:00 15.1 C 9.55 g/m*3 15.1 C 0 km/h
3142 19-09-2004 02:57:03 14.7 C 10.2 g/m*3 14.7 C 0 km/h
3143 19-09-2004 03:09:03 14.4 C 10.51 g/m*3 14.4 C 0 km/h
3144 19-09-2004 03:21:03 14.7 C 10.95 g/m*3 14.7 C 0 km/h
3145 19-09-2004 03:33:01 14.5 C 10.94 g/m*3 14.5 C 0 km/h
3146 19-09-2004 03:45:01 14.4 C 11 g/m*3 14.4 C 0 km/h
3147 19-09-2004 03:57:01 14.5 C 11.19 g/m*3 14.5 C 0 km/h
3148 19-09-2004 04:09:01 14.5 C 11.19 g/m*3 14.5 C 0 km/h
3149 19-09-2004 04:21:01 14.7 C 11.46 g/m*3 14.7 C 0 km/h
3150 19-09-2004 04:33:01 14.5 C 11.32 g/m*3 14.5 C 0 km/h
Sensor: Nr:Datum:Temp:Abs-Feuchte:Windchill:Wind:
Aussen-T/F 3151 19-09-2004 04:45:02 14.4 C 11.25 g/m*3 14.4 C 0 km/h
3152 19-09-2004 04:57:02 14.5 C 11.32 g/m*3 14.5 C 0 km/h
3153 19-09-2004 05:09:02 14.6 C 11.51 g/m*3 14.6 C 0 km/h
3154 19-09-2004 05:21:02 14.4 C 11.37 g/m*3 14.4 C 0 km/h
3155 19-09-2004 05:33:01 14.3 C 11.3 g/m*3 14.3 C 0 km/h
3156 19-09-2004 05:45:01 14.3 C 11.3 g/m*3 14.3 C 0 km/h
3157 19-09-2004 05:57:01 14.2 C 11.23 g/m*3 14.2 C 0 km/h
3158 19-09-2004 06:09:01 14.1 C 11.17 g/m*3 14.1 C 0 km/h
3159 19-09-2004 06:21:01 14.1 C 11.29 g/m*3 14.1 C 0 km/h
3160 19-09-2004 06:33:00 14.1 C 11.29 g/m*3 14.1 C 0 km/h
3161 19-09-2004 06:45:01 14.2 C 11.36 g/m*3 14.2 C 0 km/h
3162 19-09-2004 06:57:01 14.2 C 11.36 g/m*3 14.2 C 0 km/h
3163 19-09-2004 07:09:01 14.2 C 11.36 g/m*3 14.2 C 0 km/h
3164 19-09-2004 07:21:00 14.1 C 11.29 g/m*3 14.1 C 0 km/h
3165 19-09-2004 07:33:00 14.2 C 11.36 g/m*3 14.2 C 0 km/h
3166 19-09-2004 07:45:01 14.3 C 11.43 g/m*3 14.3 C 0 km/h
3167 19-09-2004 07:57:01 14.4 C 11.37 g/m*3 14.4 C 0 km/h
3168 19-09-2004 08:09:02 14.5 C 11.44 g/m*3 14.5 C 0 km/h
3169 19-09-2004 08:21:02 14.4 C 11.25 g/m*3 14.4 C 0 km/h
3170 19-09-2004 08:33:01 14.3 C 11.18 g/m*3 14.3 C 0 km/h
3171 19-09-2004 08:45:01 14.4 C 11.25 g/m*3 14.4 C 0 km/h
3172 19-09-2004 08:57:01 14.4 C 11.37 g/m*3 14.4 C 0 km/h
3173 19-09-2004 09:09:01 14.3 C 11.3 g/m*3 14.3 C 0 km/h
3174 19-09-2004 09:21:01 14.5 C 11.44 g/m*3 14.5 C 0 km/h
3175 19-09-2004 09:33:01 14.4 C 11.37 g/m*3 14.4 C 0 km/h
Sensor: Nr:Datum:Temp:Abs-Feuchte:Windchill:Wind:
Aussen-T/F 3176 19-09-2004 09:45:01 14.6 C 11.39 g/m*3 14.6 C 0 km/h
3177 19-09-2004 09:57:01 14.7 C 11.46 g/m*3 14.7 C 0 km/h
3178 19-09-2004 10:09:01 14.7 C 11.46 g/m*3 14.7 C 0 km/h
3179 19-09-2004 10:21:01 15 C 11.41 g/m*3 15 C 0 km/h
3180 19-09-2004 10:33:00 15.5 C 11.63 g/m*3 15.5 C 0 km/h
3181 19-09-2004 10:45:01 15.5 C 11.37 g/m*3 15.5 C 0 km/h
3182 19-09-2004 10:57:01 16.2 C 11.45 g/m*3 16.2 C 0 km/h
3183 19-09-2004 11:09:01 16.4 C 11.45 g/m*3 16.4 C 0 km/h
3184 19-09-2004 11:21:00 16.6 C 11.58 g/m*3 16.6 C 0 km/h
3185 19-09-2004 11:33:01 16.8 C 11.72 g/m*3 16.8 C 0 km/h
3186 19-09-2004 11:45:01 16.8 C 11.72 g/m*3 16.8 C 0 km/h
3187 19-09-2004 11:57:01 16.6 C 11.44 g/m*3 16.6 C 0 km/h
3188 19-09-2004 12:09:00 17.1 C 11.94 g/m*3 17.1 C 0 km/h
3189 19-09-2004 12:21:00 17.4 C 11.56 g/m*3 17.4 C 0 km/h
3190 19-09-2004 12:33:00 17.8 C 11.54 g/m*3 17.8 C 0 km/h
3191 19-09-2004 12:45:01 17.6 C 11.4 g/m*3 17.6 C 0 km/h
3192 19-09-2004 12:57:01 17.6 C 11.4 g/m*3 17.6 C 0 km/h
3193 19-09-2004 13:09:01 18.5 C 12.02 g/m*3 18.5 C 0 km/h
3194 19-09-2004 13:21:01 18.8 C 11.6 g/m*3 18.8 C 0 km/h
3195 19-09-2004 13:33:01 18.9 C 11.83 g/m*3 18.9 C 0 km/h
3196 19-09-2004 13:45:01 20.1 C 11.65 g/m*3 20.1 C 0 km/h
3197 19-09-2004 13:57:01 21 C 11.17 g/m*3 21 C 0 km/h
3198 19-09-2004 14:09:01 20.3 C 10.55 g/m*3 20.3 C 0 km/h
3199 19-09-2004 14:21:01 19.9 C 10.31 g/m*3 19.9 C 0 km/h
3200 19-09-2004 14:33:00 20.7 C 10.62 g/m*3 20.7 C 0 km/h
Sensor: Nr:Datum:Temp:Abs-Feuchte:Windchill:Wind:
Aussen-T/F 3201 19-09-2004 14:45:01 20.9 C 9.29 g/m*3 20.9 C 0 km/h
3202 19-09-2004 14:57:01 20.2 C 8.92 g/m*3 20.2 C 0 km/h
3203 19-09-2004 15:09:01 21 C 9.34 g/m*3 21 C 0 km/h
3204 19-09-2004 15:21:01 20.5 C 8.54 g/m*3 20.5 C 0 km/h
3205 19-09-2004 15:33:01 21.7 C 9.16 g/m*3 21.7 C 0 km/h
3206 19-09-2004 15:45:01 22.9 C 8.38 g/m*3 22.9 C 0 km/h
3207 19-09-2004 15:57:01 22.6 C 8.44 g/m*3 22.6 C 0 km/h
3208 19-09-2004 16:09:01 22.6 C 9.44 g/m*3 22.6 C 0 km/h
3209 19-09-2004 16:21:01 21.8 C 10.17 g/m*3 21.8 C 0 km/h
3210 19-09-2004 16:33:00 21.8 C 9.98 g/m*3 21.8 C 0 km/h
3211 19-09-2004 16:45:01 21.9 C 10.61 g/m*3 21.9 C 0 km/h
3212 19-09-2004 16:57:01 21.4 C 10.12 g/m*3 21.4 C 0 km/h
3213 19-09-2004 17:09:01 20.8 C 10.14 g/m*3 20.8 C 0 km/h
3214 19-09-2004 17:21:01 20.9 C 8.92 g/m*3 20.9 C 0 km/h
3215 19-09-2004 17:33:00 20.3 C 9.85 g/m*3 20.3 C 0 km/h
3216 19-09-2004 17:45:01 19.6 C 9.79 g/m*3 19.6 C 0 km/h
3217 19-09-2004 17:57:01 19.1 C 9.84 g/m*3 19.1 C 0 km/h
3218 19-09-2004 18:09:01 18.9 C 9.72 g/m*3 18.9 C 0 km/h
3219 19-09-2004 18:21:01 18.5 C 9.81 g/m*3 18.5 C 0 km/h
3220 19-09-2004 18:33:00 19.3 C 8.96 g/m*3 19.3 C 0 km/h
3221 19-09-2004 18:45:02 19.7 C 7.81 g/m*3 19.7 C 0 km/h
3222 19-09-2004 18:57:02 20.4 C 7.96 g/m*3 20.4 C 0 km/h
3223 19-09-2004 19:09:02 20.3 C 7.91 g/m*3 20.3 C 0 km/h
3224 19-09-